METAR Data
IDs: Format: Raw Decoded Include TAF

Data at: 2306 UTC 01 Feb 2023

Region: TOP
KATL 012252Z 29004KT 10SM BKN022 OVC120 14/09 A3019 RMK AO2 SLP222 T01390094
KATL 012152Z 30006KT 10SM BKN019 BKN110 OVC200 14/09 A3018 RMK AO2 SLP216 T01390089
KATL 012052Z 33005KT 10SM BKN020 BKN065 BKN110 BKN200 14/09 A3016 RMK AO2 SLP211 T01390089 56019
KATL 012018Z 31005KT 10SM BKN023 BKN065 BKN100 BKN200 14/09 A3017 RMK AO2 T01390089
KATL 011952Z 32006KT 10SM FEW026 SCT065 SCT100 BKN200 BKN250 14/09 A3017 RMK AO2 SLP214 T01390089
KATL 011852Z 29005KT 10SM FEW026 BKN048 BKN200 BKN250 13/09 A3019 RMK AO2 SLP222 T01330089
KATL 011801Z 30006KT 10SM FEW014 SCT024 OVC048 13/09 A3021 RMK AO2 T01280089
KATL 011752Z 26006KT 10SM FEW016 BKN024 OVC048 12/08 A3022 RMK AO2 SLP232 60000 T01170083 10122 20100 58006
KATL 011652Z 31006KT 10SM SCT009 OVC022 12/08 A3024 RMK AO2 SLP241 BINOVC T01170083
KATL 011612Z 31006KT 7SM BKN005 OVC012 11/09 A3025 RMK AO2 CIG 004V007 T01060089
KATL 011552Z 33008G18KT 6SM BR BKN004 OVC010 10/09 A3026 RMK AO2 SLP247 CIG 003V006 T01000089
KATL 011452Z 34006KT 1 1/4SM BR OVC004 10/09 A3024 RMK AO2 SFC VIS 5 SLP238 CIG 003V005 TWRINC 60000 T01000089 53023
KATL 011352Z 30010KT 6SM BR OVC005 11/09 A3021 RMK AO2 DZE24 SLP227 CIG 004V007 P0000 T01060094
KATL 011252Z 30010KT 4SM -DZ BR BKN006 OVC013 11/10 A3019 RMK AO2 DZB50 SLP222 CIG 005V008 P0000 T01060100
KATL 011223Z 30010KT 7SM FEW003 BKN006 OVC014 11/10 A3018 RMK AO2 CIG 005V008 T01110100
KATL 011152Z 32010KT 5SM BR OVC004 11/11 A3017 RMK AO2 DZE31 SLP213 CIG 003V005 P0000 60000 70004 T01110106 10150 20111 52018
KATL 011148Z 31010KT 3SM BR OVC002 11/11 A3017 RMK AO2 DZE31 P0000
KATL 011131Z 34009KT 1 1/2SM R09R/6000VP6000FT BR OVC002 12/11 A3016 RMK AO2 DZE31 P0000 T01170111
KATL 011052Z 32005KT 3/4SM R09R/4000V5000FT -DZ BR VV002 13/12 A3014 RMK AO2 DZB44 SLP204 P0000 T01280122
KATL 011022Z 33007KT 3/4SM R09R/4500VP6000FT BR OVC003 13/12 A3014 RMK AO2 CIG 002V004 T01330122
KATL 010958Z 33008KT 1 1/2SM BR OVC003 14/13 A3014 RMK AO2 CIG 002V004 T01390133
KATL 010952Z 31009KT 4SM BR OVC004 14/13 A3014 RMK AO2 SLP202 CIG 003V005 T01440133
KATL 010927Z 29007KT 10SM OVC004 14/13 A3013 RMK AO2 CIG 003V005 T01440133
KATL 010902Z 30008KT 10SM BKN005 OVC065 14/13 A3012 RMK AO2 T01440133
KATL 010852Z 23003KT 10SM SCT005 OVC065 14/13 A3011 RMK AO2 RAB0756E09 SLP194 BINOVC P0000 60000 T01440133 58011
KATL 010752Z 26006KT 10SM FEW005 OVC060 15/13 A3013 RMK AO2 RAB08E19 SLP200 P0000 T01500133
KATL 010652Z 26006KT 10SM FEW005 OVC055 14/13 A3014 RMK AO2 SLP202 FG BANK NW-NE T01440133
KATL 010552Z 27005KT 10SM BKN050 OVC065 14/13 A3014 RMK AO2 RAE20 SLP205 P0003 60004 T01440133 10178 20144 58001
KATL 010525Z 26007KT 9SM FEW018 OVC050 14/13 A3016 RMK AO2 RAE20 P0003 T01440133
KATL 010452Z 31011KT 5SM -RA BR FEW007 BKN018 OVC100 14/13 A3017 RMK AO2 PK WND 32027/0440 RAB37 SLP212 P0001 T01440128 401940128
KATL 010352Z 26006KT 10SM BKN008 BKN035 OVC100 17/16 A3014 RMK AO2 SLP205 T01720156
KATL 010252Z 24007KT 10SM BKN010 OVC035 18/16 A3015 RMK AO2 SLP206 T01780156 53003
KATL 010215Z 23009KT 10SM BKN008 OVC035 18/16 A3014 RMK AO2 T01780156
KATL 010152Z 24006KT 10SM SCT008 OVC035 18/16 A3013 RMK AO2 SLP202 SCT008 V BKN T01780161
KATL 010052Z 22006KT 10SM FEW009 OVC040 17/16 A3013 RMK AO2 SLP199 T01720156
KATL 312352Z 24005KT 10SM FEW009 SCT014 OVC045 18/16 A3014 RMK AO2 SLP203 BINOVC 60000 T01780156 10194 20178 53009
KATL 312252Z 23006KT 10SM FEW010 OVC038 18/16 A3012 RMK AO2 SLP197 BINOVC T01830156
KATL 312152Z 23007KT 10SM BKN010 BKN018 BKN038 OVC140 18/16 A3011 RMK AO2 SLP194 T01830161
KATL 312145Z 24006KT 10SM BKN012 BKN038 BKN140 OVC200 18/16 A3011 RMK AO2 T01830161
KATL 312108Z 21009KT 10SM SCT011 BKN034 BKN140 BKN200 18/16 A3010 RMK AO2 T01830161
KATL 312052Z 22006KT 9SM SCT010 BKN015 BKN034 BKN140 BKN200 18/16 A3011 RMK AO2 RAB34E52 SLP192 P0000 60000 T01830161 56018
KATL 311952Z 25009KT 10SM BKN014 OVC024 19/16 A3011 RMK AO2 SLP193 T01890156
KATL 311852Z 26010G18KT 10SM OVC014 19/16 A3013 RMK AO2 SLP199 BINOVC T01890156
KATL 311752Z 26010KT 10SM OVC011 18/16 A3016 RMK AO2 SLP211 60000 T01830156 10189 20133 58012
KATL 311652Z 24008KT 10SM BKN011 OVC043 18/15 A3019 RMK AO2 SLP222 T01830150
KATL 311552Z 22006KT 8SM SCT005 OVC041 16/14 A3020 RMK AO2 DZE07 SLP224 P0000 T01610139
KATL 311550Z 21008KT 7SM SCT005 OVC041 16/14 A3020 RMK AO2 DZE07 P0000
KATL 311452Z 21003KT 2SM -DZ BR BKN005 OVC022 14/13 A3019 RMK AO2 SFC VIS 3 DZB47 SLP224 CIG 003V007 P0000 60000 T01390133 53013
KATL 311447Z 21004KT 2SM -DZ BR BKN004 OVC018 14/13 A3019 RMK AO2 SFC VIS 3 DZB47 CIG 003V006 P0000
KATL 311352Z 24004KT 6SM BR OVC004 13/13 A3018 RMK AO2 SLP219 CIG 003V006 T01330128
KATL 311332Z 23004KT 4SM BR OVC003 13/12 A3018 RMK AO2 CIG 002V005 T01330122
KATL 311322Z 24004KT 2SM BR OVC003 13/12 A3017 RMK AO2 CIG 002V005 T01330122
KATL 311302Z 19003KT 1 1/2SM R09R/3500VP6000FT BR OVC003 13/13 A3016 RMK AO2 CIG 002V005 T01330128
KATL 311252Z 19005KT 1/2SM R09R/3500VP6000FT FG VV003 13/12 A3015 RMK AO2 DZE13 SLP209 P0000 T01330122
KATL 311152Z 19005KT 1/2SM R09R/2800V3500FT -DZ FG VV002 13/13 A3016 RMK AO2 DZB06 SLP210 P0000 60000 T01330128 10139 20128 55001

KATL 012144Z 0122/0224 31007KT P6SM BKN018 BKN100
  FM020500 31004KT P6SM -SHRA FEW006 OVC012
  FM021100 32005KT 5SM SHRA BR OVC006
  FM021700 VRB03KT 3SM BR OVC003


KBOS 012254Z 30007KT 10SM CLR M01/M15 A3024 RMK AO2 SLP238 T10111150
KBOS 012154Z 00000KT 10SM FEW045 M02/M10 A3021 RMK AO2 SLP229 T10221100
KBOS 012054Z VRB06KT 10SM FEW045 M02/M09 A3020 RMK AO2 SLP226 T10171094 56009
KBOS 011954Z 13004KT 10SM FEW045 M02/M09 A3020 RMK AO2 SLP227 T10171094
KBOS 011854Z 12007KT 10SM FEW042 M02/M09 A3021 RMK AO2 SLP228 T10171089
KBOS 011754Z 13005KT 10SM SCT037 M02/M09 A3023 RMK AO2 SLP235 T10221089 11022 21061 58023
KBOS 011654Z 00000KT 10SM SCT033 M02/M10 A3025 RMK AO2 SLP242 T10221100
KBOS 011554Z 01004KT 10SM FEW028 M02/M11 A3028 RMK AO2 SLP252 T10221106
KBOS 011524Z 01006KT 10SM SCT028 M03/M11 A3029 RMK AO2 T10281111
KBOS 011454Z 33007KT 310V010 10SM BKN027 BKN070 M04/M12 A3030 RMK AO2 SLP258 T10391122 50005
KBOS 011435Z 35008KT 10SM BKN025 BKN070 M03/M12 A3030 RMK AO2 T10331122
KBOS 011354Z 34006KT 10SM FEW029 SCT070 M04/M13 A3030 RMK AO2 SLP261 T10441133
KBOS 011254Z VRB04KT 10SM FEW035 FEW075 FEW140 M06/M16 A3030 RMK AO2 SLP258 T10611161
KBOS 011154Z 34010KT 10SM BKN070 BKN140 M06/M17 A3028 RMK AO2 SLP253 T10561167 11050 21056 53005
KBOS 011054Z 33007KT 10SM BKN055 OVC070 M06/M17 A3027 RMK AO2 SLP250 T10561167
KBOS 010954Z 34007KT 10SM OVC055 M05/M17 A3027 RMK AO2 SLP250 T10501172
KBOS 010854Z 34008KT 10SM OVC055 M05/M18 A3027 RMK AO2 SLP248 T10501178 58002
KBOS 010754Z 34007KT 10SM OVC100 M05/M18 A3027 RMK AO2 SLP250 T10501178
KBOS 010654Z 36008KT 10SM FEW055 OVC140 M05/M17 A3027 RMK AO2 SLP250 T10501167
KBOS 010554Z 01010KT 10SM FEW055 OVC140 M05/M16 A3027 RMK AO2 SLP250 T10501161 11022 21050 58007
KBOS 010454Z 01009KT 10SM FEW055 SCT150 M05/M16 A3029 RMK AO2 SLP257 T10501156 400501050
KBOS 010354Z 03007KT 10SM SCT055 SCT150 M05/M14 A3029 RMK AO2 SLP256 T10501144
KBOS 010254Z 36006KT 10SM BKN150 M04/M15 A3029 RMK AO2 SLP257 T10391150 51016
KBOS 010154Z 36008KT 10SM FEW150 M03/M14 A3028 RMK AO2 SLP252 T10331139
KBOS 010054Z 36011KT 10SM FEW050 FEW150 M03/M13 A3026 RMK AO2 SLP247 T10281133
KBOS 312354Z 36012KT 10SM FEW050 SCT150 M02/M12 A3025 RMK AO2 SLP241 T10221122 10022 21022 51017
KBOS 312254Z 36014KT 10SM FEW045 SCT250 M02/M12 A3024 RMK AO2 SLP239 T10171117
KBOS 312154Z 35012KT 10SM SCT048 SCT250 M01/M11 A3021 RMK AO2 SLP229 T10061106
KBOS 312054Z 34013G19KT 10SM SCT049 01/M09 A3020 RMK AO2 SLP225 T00111094 53010
KBOS 311954Z 34011KT 10SM FEW036 BKN050 01/M09 A3019 RMK AO2 SLP222 T00111089
KBOS 311854Z 35012KT 10SM FEW037 BKN049 02/M07 A3017 RMK AO2 SLP216 T00171072
KBOS 311754Z 33012KT 10SM BKN041 BKN049 02/M07 A3017 RMK AO2 SLP214 60000 T00221067 10033 20000 58005
KBOS 311654Z 30010G16KT 10SM BKN037 BKN044 02/M05 A3018 RMK AO2 SLP220 T00171050
KBOS 311554Z 32011KT 10SM FEW030 BKN070 02/M04 A3020 RMK AO2 SLP224 T00171039
KBOS 311454Z 31009KT 10SM FEW025 BKN070 01/M04 A3018 RMK AO2 SLP220 60000 T00111039 51012
KBOS 311354Z 34005KT 10SM SCT055 OVC075 01/M03 A3017 RMK AO2 SNE50 SLP216 P0000 T00111033
KBOS 311254Z 34005KT 7SM -SN SCT025 OVC040 01/M02 A3016 RMK AO2 SLP213 P0000 T00061022
KBOS 311231Z 33008KT 8SM -SN SCT025 OVC040 01/M02 A3015 RMK AO2 P0000 T00061017
KBOS 311205Z 34009KT 5SM -SN BR FEW015 OVC023 00/M02 A3015 RMK AO2 P0000 T00001017 $
KBOS 311154Z 34008KT 2SM -SN BR OVC022 00/M02 A3015 RMK AO2 SLP207 P0001 60004 70004 T00001017 10039 20000 53020 $
KBOS 311140Z 34011G19KT 2SM -SN BR FEW011 OVC024 00/M02 A3014 RMK AO2 P0001 T00001017 $

KBOS 012058Z 0121/0224 12004KT P6SM FEW045
  FM012230 29006KT P6SM SKC
  FM021300 25007KT P6SM BKN150
  FM021600 23009KT P6SM BKN150
  FM021800 22011G19KT P6SM SCT150


KBWI 012254Z 30004KT 10SM FEW160 SCT200 BKN250 01/M13 A3029 RMK AO2 SLP259 T00111128
KBWI 012154Z 29008KT 10SM SCT200 BKN250 03/M11 A3028 RMK AO2 SLP255 T00281111
KBWI 012054Z 29006KT 10SM SCT200 BKN250 04/M11 A3027 RMK AO2 SLP253 T00391111 55007
KBWI 011954Z VRB05KT 10SM BKN200 BKN250 04/M11 A3027 RMK AO2 SLP250 T00391111
KBWI 011854Z 31007KT 10SM BKN200 BKN250 04/M13 A3028 RMK AO2 SLP255 T00391128
KBWI 011754Z 29005KT 10SM SCT200 BKN250 04/M12 A3029 RMK AO2 SLP259 T00391122 10044 20006 58006
KBWI 011654Z 30009KT 10SM FEW110 SCT200 03/M11 A3031 RMK AO2 SLP264 T00331111
KBWI 011554Z VRB06KT 10SM FEW110 FEW140 BKN200 03/M09 A3033 RMK AO2 SLP272 T00281089
KBWI 011454Z 36007KT 10SM SCT110 SCT140 BKN200 02/M09 A3031 RMK AO2 SLP266 T00171094 51027
KBWI 011354Z 36008G18KT 10SM SCT095 BKN130 BKN200 01/M09 A3028 RMK AO2 SLP255 T00061089
KBWI 011254Z 33006KT 10SM BKN095 BKN200 01/M08 A3027 RMK AO2 SLP250 T00111083
KBWI 011154Z 30004KT 10SM BKN085 01/M03 A3023 RMK AO2 SLP239 60001 70011 T00061028 10022 20000 53008
KBWI 011054Z 00000KT 10SM FEW065 OVC095 01/M02 A3021 RMK AO2 SNB14E34 SLP231 P0000 T00061022
KBWI 011034Z 00000KT 9SM SCT055 BKN070 OVC100 01/M02 A3021 RMK AO2 SNB14E34 P0000 T00061022
KBWI 011014Z 32003KT 8SM -SN BKN055 OVC070 01/M02 A3021 RMK AO2 SNB14 P0000 T00061017
KBWI 010954Z 00000KT 7SM OVC070 00/M02 A3021 RMK AO2 SNE47 SLP232 P0001 T00001017
KBWI 010948Z 32003KT 7SM SCT050 OVC070 00/M02 A3022 RMK AO2 SNE47 P0001
KBWI 010917Z 34005KT 3SM -SN BR OVC031 00/M01 A3021 RMK AO2 P0001 T00001011
KBWI 010854Z 32003KT 1 1/2SM -SN BR OVC023 01/M01 A3021 RMK AO2 SLP231 P0000 60000 T00061011 53006
KBWI 010831Z 31005KT 1 1/2SM -SN BR OVC027 01/M02 A3020 RMK AO2 P0000 T00061017
KBWI 010821Z VRB05KT 1 3/4SM -SN OVC031 01/M02 A3020 RMK AO2 P0000 T00111022
KBWI 010809Z 30005KT 7SM -SN SCT028 OVC039 01/M03 A3019 RMK AO2 P0000 T00111028
KBWI 010754Z 30005KT 10SM -SN BKN026 OVC031 01/M02 A3020 RMK AO2 SNB50 SLP227 P0000 T00111022
KBWI 010751Z 29006KT 10SM -SN SCT023 OVC028 01/M02 A3020 RMK AO2 SNB50 P0000
KBWI 010654Z 34006KT 10SM BKN022 OVC034 02/M02 A3019 RMK AO2 SLP224 T00171022
KBWI 010554Z 33005KT 10SM OVC034 02/M01 A3019 RMK AO2 SLP224 60001 T00221011 10033 20022 55010
KBWI 010454Z 00000KT 10SM FEW023 OVC034 02/M01 A3019 RMK AO2 SLP223 T00221006 400890022
KBWI 010354Z 32005KT 10SM FEW021 OVC035 02/00 A3022 RMK AO2 SLP232 T00220000
KBWI 010339Z 34004KT 8SM SCT021 OVC037 02/00 A3021 RMK AO2 T00220000
KBWI 010319Z 36003KT 8SM BKN023 BKN033 OVC039 02/M01 A3022 RMK AO2 T00221006
KBWI 010254Z 36004KT 8SM FEW023 OVC030 02/M01 A3022 RMK AO2 DZE02 SLP235 P0000 60001 T00221006 58002
KBWI 010235Z 02003KT 8SM FEW023 OVC030 02/M01 A3022 RMK AO2 DZE02 P0000 T00221006
KBWI 010202Z 01005KT 6SM BR SCT014 OVC025 03/01 A3023 RMK AO2 DZE02 P0000 T00280006
KBWI 010154Z COR 02004KT 5SM -DZ BR BKN014 OVC025 03/01 A3023 RMK AO2 DZB10 SLP236 P0001 T00280006
KBWI 010149Z COR VRB03KT 5SM -DZ BR BKN014 OVC023 03/01 A3023 RMK AO2 DZB10 P0001
KBWI 010054Z VRB04KT 8SM FEW012 OVC018 03/01 A3023 RMK AO2 SLP236 T00280006
KBWI 312354Z 11006KT 7SM BKN014 OVC020 03/01 A3021 RMK AO2 SLP229 60000 T00330011 10044 20033 53005
KBWI 312341Z 12004KT 7SM SCT014 BKN024 OVC035 03/01 A3020 RMK AO2 T00330011
KBWI 312319Z 00000KT 7SM FEW015 SCT024 OVC036 03/M01 A3020 RMK AO2 T00331006
KBWI 312254Z VRB04KT 7SM FEW015 BKN024 OVC037 03/00 A3020 RMK AO2 RAE22 SLP228 P0000 T00330000
KBWI 312214Z 00000KT 6SM -RA SCT015 BKN024 OVC037 03/01 A3019 RMK AO2 P0000 T00330006
KBWI 312154Z 02005KT 6SM -RA SCT022 BKN036 OVC050 04/00 A3020 RMK AO2 RAB47 SLP226 P0000 T00390000
KBWI 312054Z 01006KT 7SM FEW028 BKN037 OVC050 04/M01 A3019 RMK AO2 SLP225 60000 T00441006 55007
KBWI 311954Z 02005KT 7SM FEW023 BKN034 OVC050 04/00 A3019 RMK AO2 RAE25 SLP224 P0000 T00390000
KBWI 311854Z VRB04KT 7SM -RA SCT021 BKN034 OVC050 04/00 A3021 RMK AO2 RAE1756B53 SLP229 P0000 T00390000
KBWI 311754Z VRB04KT 6SM -RA FEW020 OVC041 04/01 A3022 RMK AO2 RAE20B45 SLP232 P0000 60009 T00440006 10083 20039 58004
KBWI 311654Z 36005KT 6SM -RA FEW021 OVC043 04/01 A3023 RMK AO2 SLP238 P0001 T00440011
KBWI 311554Z 01004KT 7SM -RA FEW025 OVC041 04/02 A3025 RMK AO2 SLP244 P0003 T00440022
KBWI 311454Z 01004KT 7SM -RA OVC041 05/02 A3023 RMK AO2 SLP236 P0003 60005 T00500022 51024
KBWI 311354Z 01007KT 6SM -RA BKN041 OVC060 05/02 A3022 RMK AO2 SLP234 P0002 T00500017
KBWI 311254Z 36010KT 7SM -RA BKN042 OVC060 07/02 A3020 RMK AO2 RAB20 SLP228 P0000 T00670017
KBWI 311154Z 33009G19KT 10SM BKN038 OVC060 08/02 A3016 RMK AO2 SLP212 T00830022 10089 20044 51035

KBWI 012059Z 0121/0224 29006KT P6SM BKN250
  FM020700 VRB03KT P6SM BKN250
  FM021400 20008KT P6SM SCT050 BKN200


KCLE 012251Z 22006KT 10SM CLR M04/M13 A3027 RMK AO2 SLP282 T10391128
KCLE 012151Z 24007KT 10SM CLR M03/M12 A3029 RMK AO2 SLP288 T10281122
KCLE 012051Z 25004KT 10SM CLR M03/M13 A3029 RMK AO2 SLP287 T10281128 56017
KCLE 011951Z 22004KT 10SM FEW026 FEW250 M03/M13 A3030 RMK AO2 SLP289 T10331128
KCLE 011851Z 27008KT 10SM FEW026 FEW250 M03/M13 A3032 RMK AO2 SLP297 T10331128
KCLE 011751Z 27007KT 10SM FEW025 FEW250 M04/M13 A3034 RMK AO2 SLP304 T10441133 11039 21100 58014
KCLE 011651Z 23006KT 10SM FEW025 FEW250 M05/M13 A3037 RMK AO2 SLP315 T10501133
KCLE 011551Z 27007KT 10SM FEW025 FEW250 M06/M14 A3038 RMK AO2 SLP317 T10611139
KCLE 011451Z 27008KT 10SM SCT025 SCT250 M07/M14 A3038 RMK AO2 SLP319 T10721139 53016
KCLE 011351Z 24007KT 10SM FEW024 FEW250 M09/M14 A3036 RMK AO2 SLP312 T10891144
KCLE 011251Z 23006KT 10SM FEW024 FEW250 M10/M14 A3034 RMK AO2 SLP308 T11001144
KCLE 011151Z 23005KT 10SM FEW025 FEW250 M10/M14 A3033 RMK AO2 SLP303 60000 T11001139 11083 21100 53010
KCLE 011051Z 22005KT 10SM FEW025 M10/M14 A3031 RMK AO2 SLP298 T11001144
KCLE 010951Z 23006KT 10SM FEW024 M09/M14 A3031 RMK AO2 SLP295 T10941144
KCLE 010856Z 22005KT 10SM SCT024 M09/M14 A3030 RMK AO2 T10941144
KCLE 010851Z 22006KT 10SM BKN024 M09/M14 A3030 RMK AO2 SNE24 SLP292 P0000 60000 T10941139 53006
KCLE 010824Z 24006KT 9SM BKN024 BKN250 M09/M14 A3030 RMK AO2 SNE24 P0000 T10891139
KCLE 010751Z 24008KT 9SM -SN OVC023 M08/M13 A3030 RMK AO2 SNB26 SLP289 P0000 T10831133
KCLE 010726Z 24008KT 10SM -SN OVC023 M08/M13 A3029 RMK AO2 SNB26 P0000 T10831133
KCLE 010651Z 23006KT 10SM BKN025 BKN250 M09/M14 A3028 RMK AO2 SLP283 T10891139
KCLE 010641Z 25007KT 10SM BKN026 BKN250 M09/M14 A3028 RMK AO2 T10891139
KCLE 010551Z 22005KT 10SM FEW026 BKN250 M08/M14 A3028 RMK AO2 SLP286 T10831139 11078 21083 58003
KCLE 010458Z 25006KT 10SM SCT026 BKN250 M08/M13 A3029 RMK AO2 T10831133
KCLE 010451Z 25006KT 10SM BKN026 M08/M13 A3029 RMK AO2 SLP288 T10831133 410391089
KCLE 010351Z 24006KT 10SM BKN026 BKN160 BKN250 M08/M13 A3030 RMK AO2 SLP290 T10781128
KCLE 010251Z 26004KT 10SM BKN150 BKN250 M08/M14 A3029 RMK AO2 SLP288 T10831139 51007
KCLE 010151Z 28006KT 10SM BKN150 BKN250 M08/M14 A3028 RMK AO2 SLP286 T10781139
KCLE 010051Z 29006KT 10SM BKN150 M08/M14 A3028 RMK AO2 SLP283 T10781139
KCLE 312351Z 28004KT 9SM SCT024 BKN180 M08/M14 A3027 RMK AO2 SNE46 SLP281 P0000 60000 T10781139 11050 21078 50003
KCLE 312328Z 31006KT 9SM -SN SCT024 BKN180 M08/M14 A3027 RMK AO2 P0000 T10781139
KCLE 312251Z 31006KT 9SM -SN BKN022 BKN250 M08/M14 A3027 RMK AO2 SLP283 P0000 T10781139
KCLE 312243Z 36006KT 9SM -SN BKN022 BKN250 M08/M13 A3027 RMK AO2 P0000 T10781133
KCLE 312220Z 34007KT 9SM -SN SCT022 SCT250 M08/M13 A3028 RMK AO2 P0000 T10781133
KCLE 312151Z 35009KT 9SM -SN BKN022 M07/M13 A3028 RMK AO2 SLP283 P0000 T10721133
KCLE 312108Z 35006KT 9SM -SN BKN028 M07/M13 A3026 RMK AO2 P0000 T10721133
KCLE 312051Z 35005KT 10SM -SN SCT024 BKN030 M07/M13 A3026 RMK AO2 SNB48 SLP277 P0000 60000 T10671128 56016
KCLE 312027Z 35007KT 10SM BKN030 M07/M13 A3026 RMK AO2 T10671133
KCLE 311951Z 01006KT 10SM BKN028 M06/M13 A3026 RMK AO2 SLP278 T10561128
KCLE 311851Z 00000KT 10SM BKN028 M06/M13 A3028 RMK AO2 SLP282 T10561133
KCLE 311751Z VRB05KT 10SM BKN027 M06/M14 A3031 RMK AO2 PRESFR SLP293 60000 T10611139 11056 21089 58021
KCLE 311651Z 01004KT 10SM BKN027 M06/M14 A3035 RMK AO2 SLP307 T10611144
KCLE 311551Z 27004KT 10SM OVC025 M07/M14 A3038 RMK AO2 SLP315 T10721139
KCLE 311451Z 28005KT 9SM OVC024 M08/M14 A3037 RMK AO2 SNE50 SLP314 P0000 60000 T10831144 51005
KCLE 311351Z 31004KT 9SM -SN OVC025 M09/M14 A3037 RMK AO2 SLP312 P0000 T10891144
KCLE 311251Z 29006KT 9SM -SN OVC024 M09/M15 A3036 RMK AO2 SLP311 P0000 T10891150
KCLE 311151Z 31008KT 9SM -SN OVC022 M09/M14 A3035 RMK AO2 SLP308 4/001 P0000 60000 70005 T10891144 11050 21089 51011

KCLE 012058Z 0121/0224 25006KT P6SM FEW025 SCT250
  FM020300 22007KT P6SM FEW250
  FM021700 23014G25KT P6SM FEW250
  FM022300 27013G25KT P6SM SCT250


KCLT 012252Z 07008KT 10SM FEW010 OVC014 07/04 A3024 RMK SLP238 T00720039
KCLT 012152Z 07008KT 10SM OVC010 07/04 A3022 RMK CIG 009V014 SLP230 T00720044
KCLT 012136Z 06009G19KT 10SM BKN010 OVC018 07/04 A3021 RMK CIG 007V014 T00670044
KCLT 012052Z 06007KT 5SM BR BKN009 OVC017 07/05 A3019 RMK SLP222 T00720050 55006
KCLT 012028Z 06007KT 4SM BR BKN008 OVC013 07/06 A3019 RMK T00720056
KCLT 012020Z 04008KT 2SM BR BKN007 OVC010 07/06 A3020 RMK T00720056
KCLT 011952Z 06008KT 10SM BKN009 OVC015 07/05 A3019 RMK SLP221 T00720050
KCLT 011906Z 07007KT 10SM BKN009 OVC019 08/06 A3019 RMK T00780056
KCLT 011852Z 04006KT 10SM BKN010 OVC019 08/06 A3019 RMK SLP223 T00780056
KCLT 011841Z 05007KT 10SM SCT007 BKN012 OVC019 08/06 A3020 RMK T00780056
KCLT 011752Z 06009KT 4SM BR BKN005 BKN010 OVC017 07/06 A3021 RMK SLP228 T00720061 10150 20072 50008
KCLT 011729Z 07008KT 1 1/2SM BR BKN005 OVC008 08/06 A3022 RMK T00780061
KCLT 011701Z 04008KT 2 1/2SM BR BKN005 OVC011 08/06 A3023 RMK T00780061
KCLT 011652Z 05009G17KT 340V060 3SM BR BKN006 OVC010 08/06 A3023 RMK SLP234 T00780061
KCLT 011552Z 05013G17KT 4SM BR BKN005 OVC012 08/06 A3022 RMK SLP233 T00780061
KCLT 011517Z 06013G21KT 3SM BR BKN005 OVC010 07/06 A3019 RMK T00720061
KCLT 011452Z 07010KT 2 1/2SM BR BKN004 OVC008 08/07 A3019 RMK SLP220 T00780067 53033
KCLT 011352Z 03013KT 2 1/2SM BR OVC002 09/08 A3015 RMK SLP209 T00890083
KCLT 011328Z 03013G19KT 2 1/2SM BR BKN003 OVC006 12/11 A3013 RMK T01220111
KCLT 011252Z 00000KT 9SM BKN008 OVC120 14/14 A3011 RMK SLP191 T01440139
KCLT 011152Z 30003KT 10SM OVC008 15/14 A3009 RMK RAE1053 CIG 005V012 SLP185 P0000 60009 70011 T01500139 10150 20144 51017
KCLT 011149Z 30004KT 10SM BKN008 OVC011 15/14 A3009 RMK RAE1053 CIG 005V009 P0000
KCLT 011052Z 23004KT 10SM -RA BKN007 OVC085 15/14 A3006 RMK RAE0954B26 SLP175 P0000 T01500139
KCLT 010952Z 22005KT 10SM -RA OVC007 15/14 A3004 RMK RAE07B13 CIG 003V010 SLP167 P0001 T01500139
KCLT 010852Z 25004KT 8SM -RA OVC007 15/14 A3005 RMK RAE0757B38 SLP171 P0000 60008 T01500139 55007
KCLT 010752Z 25003KT 7SM -RA OVC007 14/14 A3005 RMK SLP171 P0003 T01440139
KCLT 010652Z 26003KT 5SM -RA BR OVC007 14/14 A3006 RMK RAE18B36 CIG 005V010 SLP174 P0005 T01440139
KCLT 010552Z 23003KT 3SM -RA BR BKN008 BKN021 OVC034 14/14 A3007 RMK RAB36 SLP180 P0002 60002 T01440139 10150 20133 58005
KCLT 010542Z 26003KT 8SM -RA BKN008 BKN013 OVC050 14/14 A3007 RMK RAB36 P0000 T01440139
KCLT 010514Z 22004KT 10SM FEW008 BKN013 OVC050 14/13 A3008 RMK T01440133
KCLT 010452Z 21004KT 10SM FEW008 BKN015 OVC080 14/13 A3008 RMK SLP184 T01440133 401500100
KCLT 010359Z 17006KT 10SM OVC016 14/13 A3008 RMK T01390128
KCLT 010352Z 17004KT 9SM OVC014 14/13 A3008 RMK SLP184 T01390128
KCLT 010252Z 15004KT 10SM OVC012 14/13 A3009 RMK SLP185 6000 T01440128 56007
KCLT 010238Z 16003KT 10SM OVC014 14/13 A3009 RMK T01440128
KCLT 010152Z 00000KT 10SM OVC017 14/13 A3010 RMK RAB0055E06 SLP190 P0000 T01440128
KCLT 010052Z 16005KT 10SM BKN019 OVC100 14/13 A3009 RMK RAE00B28E43 SLP186 P0000 T01390128
KCLT 010006Z 00000KT 10SM BKN016 OVC090 14/13 A3010 RMK RAE00 P0000 T01390128
KCLT 312352Z 00000KT 10SM -RA OVC014 14/12 A3011 RMK RAB19 SLP192 P0000 60000 T01390122 10150 20133 53008
KCLT 312319Z 00000KT 10SM -RA BKN014 OVC019 15/13 A3011 RMK RAB19 P0000 T01500128
KCLT 312252Z 28003KT 10SM OVC018 15/13 A3010 RMK SLP189 T01500128
KCLT 312226Z 25003KT 10SM OVC015 15/13 A3008 RMK T01500128
KCLT 312152Z 18005KT 10SM OVC010 15/13 A3006 RMK SLP177 T01500128
KCLT 312140Z 19005KT 10SM OVC010 14/13 A3007 RMK T01440128
KCLT 312052Z 24003KT 10SM OVC009 14/13 A3008 RMK RAB32E45 SLP184 P0000 60000 T01440128 56020
KCLT 312001Z 23004KT 10SM OVC009 14/12 A3008 RMK T01440122
KCLT 311952Z 23006KT 10SM BKN007 OVC011 14/12 A3008 RMK SLP185 T01440122
KCLT 311852Z VRB04KT 9SM OVC005 14/12 A3010 RMK SLP189 T01390122
KCLT 311752Z 20003KT 6SM BR OVC005 13/12 A3014 RMK SLP205 T01330122 10139 20111 58008
KCLT 311652Z 24005KT 6SM BR BKN003 OVC006 13/12 A3017 RMK SLP214 T01330122
KCLT 311633Z 26003KT 4SM BR OVC002 13/12 A3017 RMK T01330122
KCLT 311552Z 19006KT 2SM R18C/5500VP6000F BR BKN002 OVC007 13/12 A3017 RMK SLP216 T01280122 $
KCLT 311539Z 18006KT 1 1/4SM R18C/4500VP6000F BR BKN002 OVC007 12/12 A3017 RMK T01220122 $
KCLT 311525Z 20004KT 3/4SM R18C/4000VP6000F BR BKN002 OVC007 12/12 A3017 RMK T01220122 $
KCLT 311452Z 18006KT 1/2SM R18C/3000V5500FT FG BKN000 OVC002 12/12 A3017 RMK SLP213 FG BKN000 T01170117 50005
KCLT 311432Z 18004KT 1/2SM R18C/2000V3000FT FG BKN000 OVC002 12/12 A3017 RMK FG BKN000 T01170117
KCLT 311423Z 20007KT 1/2SM R18C/1600V2600FT FG VV002 12/11 A3017 RMK T01170111
KCLT 311352Z 21006KT 1/4SM R18C/1400V2000FT FG VV002 12/11 A3017 RMK SLP215 T01170111
KCLT 311252Z 18004KT 1/4SM R18C/1400V1600FT FG VV002 11/11 A3015 RMK SLP208 T01110111
KCLT 311232Z 19005KT 1/4SM R18C/1600V2400FT FG VV002 11/11 A3015 RMK T01110111
KCLT 311218Z 20005KT 1/2SM R18C/2400V3500FT FG VV002 11/11 A3015 RMK T01110111
KCLT 311152Z 18006KT 1/4SM R18C/2000V2600FT FG VV002 11/11 A3015 RMK SLP207 T01110111 10111 20106 56001

KCLT 012155Z 0122/0224 07009KT P6SM BKN010 OVC014
  TEMPO 0122/0201 BKN009 OVC014
  FM020100 08005KT 5SM BR OVC008
  FM020700 05003KT 4SM -RA BR OVC004
  FM021900 16003KT 3SM -RA BR OVC006


KCVG 012252Z 00000KT 10SM BKN220 OVC250 M02/M13 A3031 RMK AO2 SLP272 T10171133
KCVG 012152Z 00000KT 10SM FEW210 BKN250 M01/M13 A3031 RMK AO2 SLP274 T10111133
KCVG 012052Z 00000KT 10SM SCT250 M01/M13 A3031 RMK AO2 SLP274 T10111133 56021
KCVG 011952Z 32003KT 10SM FEW200 FEW250 M02/M11 A3033 RMK AO2 SLP278 T10171111
KCVG 011852Z 00000KT 10SM SCT120 BKN180 OVC230 M02/M12 A3034 RMK AO2 SLP285 BINOVC T10221122
KCVG 011752Z 31003KT 10SM FEW120 BKN200 BKN250 M03/M12 A3038 RMK AO2 SLP296 T10281122 11028 21089 58005
KCVG 011652Z 00000KT 10SM FEW120 SCT200 BKN250 M04/M12 A3039 RMK AO2 SLP300 T10391122
KCVG 011552Z 09003KT 10SM FEW140 SCT200 BKN250 M05/M11 A3040 RMK AO2 SLP304 T10501106
KCVG 011452Z 06004KT 10SM FEW140 SCT190 BKN230 M06/M11 A3039 RMK AO2 SLP302 T10561111 50009
KCVG 011352Z 01009KT 10SM FEW230 BKN250 M07/M11 A3040 RMK AO2 SLP304 T10721111
KCVG 011252Z 36005KT 10SM SCT250 M09/M11 A3039 RMK AO2 SLP304 T10891111
KCVG 011152Z 36006KT 10SM SCT250 M08/M11 A3036 RMK AO2 SLP293 T10831106 11056 21083 51014
KCVG 011052Z 36008KT 10SM BKN210 M08/M11 A3034 RMK AO2 SLP286 T10781106
KCVG 010952Z 35008KT 10SM BKN210 M07/M10 A3034 RMK AO2 SLP285 T10721100
KCVG 010852Z 35006KT 10SM BKN210 M07/M11 A3032 RMK AO2 SLP277 T10671111 50004
KCVG 010752Z 35004KT 10SM BKN210 M06/M12 A3032 RMK AO2 SLP277 T10611117
KCVG 010652Z 36004KT 10SM BKN250 M06/M12 A3031 RMK AO2 SLP274 T10611117
KCVG 010552Z 01005KT 10SM BKN110 M06/M12 A3031 RMK AO2 SLP272 60000 T10561117 11033 21056 53005
KCVG 010452Z 36009KT 10SM BKN120 M05/M09 A3029 RMK AO2 SLP267 T10501094 410281061
KCVG 010352Z 35008KT 10SM OVC110 M04/M10 A3031 RMK AO2 SLP272 T10441100
KCVG 010252Z 01003KT 10SM BKN039 OVC065 M04/M11 A3029 RMK AO2 SNB31E46 SLP269 P0000 60000 T10441106 50010
KCVG 010246Z 01006KT 9SM OVC039 M04/M10 A3030 RMK AO2 SNB31E46 P0000
KCVG 010231Z 02007KT 10SM -SN OVC039 M04/M10 A3030 RMK AO2 SNB31 PCPN VRY LGT P0000 T10441100
KCVG 010152Z 34006KT 10SM OVC041 M04/M09 A3031 RMK AO2 SLP274 T10391094
KCVG 010052Z 35009KT 10SM OVC036 M04/M08 A3029 RMK AO2 SLP267 T10391078
KCVG 312352Z 35006KT 10SM BKN034 OVC042 M04/M08 A3026 RMK AO2 SLP257 T10391078 11028 21039 51004
KCVG 312252Z 34007KT 10SM OVC033 M04/M08 A3026 RMK AO2 SLP257 T10391083
KCVG 312152Z 34007KT 10SM FEW022 OVC040 M03/M08 A3026 RMK AO2 SLP256 T10331078
KCVG 312052Z 35007KT 10SM FEW021 OVC039 M03/M08 A3025 RMK AO2 SLP252 T10331078 55019
KCVG 311952Z 34006KT 10SM FEW021 BKN038 OVC046 M03/M07 A3024 RMK AO2 SLP248 T10331067
KCVG 311852Z 35005KT 10SM FEW019 BKN033 OVC042 M03/M08 A3027 RMK AO2 SLP259 T10331078
KCVG 311752Z 02006KT 9SM SCT020 OVC042 M03/M07 A3031 RMK AO2 SLP272 60000 T10331072 11033 21061 58015
KCVG 311652Z 04006KT 10SM FEW017 OVC042 M04/M08 A3032 RMK AO2 SLP277 THN OVC T10391078
KCVG 311552Z 01006KT 10SM SCT015 OVC045 M05/M08 A3035 RMK AO2 SLP286 T10501078
KCVG 311550Z 02007KT 10SM SCT015 OVC045 M05/M08 A3035 RMK AO2
KCVG 311452Z 02008KT 10SM BKN014 OVC040 M06/M08 A3035 RMK AO2 SLP287 60000 T10561078 51008
KCVG 311352Z 01009KT 10SM BKN014 OVC040 M06/M08 A3034 RMK AO2 SLP285 T10611078
KCVG 311312Z 36010KT 10SM BKN013 OVC042 M06/M08 A3035 RMK AO2 T10611078
KCVG 311252Z 02010KT 10SM FEW014 OVC041 M06/M08 A3034 RMK AO2 SNE1154 CIG 013 36R SLP284 P0000 T10561078
KCVG 311152Z 36009KT 5SM -SN BR OVC049 M06/M07 A3033 RMK AO2 SNE45B50 SLP279 04/001 P0000 60002 70008 T10561067 11039 21056 53001
KCVG 311149Z 01009KT 5SM BR OVC050 M06/M07 A3032 RMK AO2 SNE45 04/001 P0000
KCVG 311129Z 01010KT 2 1/2SM -SN BR FEW012 BKN055 OVC065 M06/M07 A3032 RMK AO2 P0000 T10561072

KCVG 012055Z 0121/0224 VRB03KT P6SM BKN250
  FM021600 24008KT P6SM SCT250


KDCA 012252Z 34007KT 10SM SCT250 02/M11 A3032 RMK AO2 SLP267 T00221106
KDCA 012152Z 34010KT 10SM SCT250 03/M10 A3031 RMK AO2 SLP264 T00281100
KDCA 012052Z 33011KT 10SM BKN250 04/M11 A3030 RMK AO2 SLP259 T00391106 55006
KDCA 011952Z 32004KT 10SM BKN250 05/M08 A3030 RMK AO2 SLP258 T00501083
KDCA 011852Z 33010KT 10SM BKN250 04/M08 A3031 RMK AO2 SLP262 T00441083
KDCA 011752Z 34010KT 10SM BKN240 04/M08 A3032 RMK AO2 SLP265 T00391083 10044 20006 58008
KDCA 011652Z 36011KT 10SM FEW100 SCT200 04/M07 A3034 RMK AO2 SLP272 T00391067
KDCA 011552Z 34012KT 10SM FEW120 SCT200 03/M07 A3035 RMK AO2 SLP277 T00281072
KDCA 011452Z 34010KT 10SM SCT090 BKN110 BKN200 02/M06 A3034 RMK AO2 SLP274 T00221061 53026
KDCA 011352Z 34014KT 10SM FEW025 SCT090 BKN110 BKN200 01/M06 A3031 RMK AO2 SLP263 VIRGA S T00111061
KDCA 011252Z 35012KT 9SM FEW025 OVC090 01/M03 A3029 RMK AO2 SLP257 T00111028
KDCA 011152Z 34008KT 10SM FEW075 OVC095 01/M03 A3027 RMK AO2 SNE17 SLP248 P0000 60004 70021 T00111028 10028 20006 53014
KDCA 011146Z 34011KT 10SM FEW075 OVC100 01/M02 A3026 RMK AO2 SNE17 P0000
KDCA 011052Z 01010KT 9SM -SN FEW017 BKN070 OVC085 01/M01 A3024 RMK AO2 SLP238 P0000 T00111011
KDCA 010952Z 35008KT 7SM -SN FEW015 BKN050 OVC070 01/M01 A3023 RMK AO2 SLP237 P0001 T00111006
KDCA 010917Z 36011KT 4SM -SN BR SCT016 OVC032 01/M01 A3023 RMK AO2 P0001 T00111006
KDCA 010912Z 36011KT 3SM -SN BR FEW016 OVC027 01/M01 A3023 RMK AO2 P0001 T00061006
KDCA 010852Z 36010KT 1 1/2SM -SN BR FEW009 OVC019 01/M01 A3022 RMK AO2 SLP233 P0003 60003 T00061006 51003
KDCA 010850Z 35010KT 1 1/2SM -SN BR FEW009 OVC019 01/M01 A3022 RMK AO2 P0003
KDCA 010839Z 35010KT 1 1/2SM -SN BR FEW010 OVC015 01/M01 A3022 RMK AO2 P0002 T00111006
KDCA 010832Z 36008KT 1 1/2SM -SN BR OVC013 01/M01 A3023 RMK AO2 P0001 T00111006
KDCA 010829Z 36010KT 1 3/4SM -SN BR SCT011 OVC017 01/M01 A3022 RMK AO2 P0001 T00111006
KDCA 010825Z 35008KT 4SM -SN BR FEW008 BKN015 OVC021 01/00 A3022 RMK AO2 P0001 T00110000
KDCA 010752Z 36010KT 4SM -SN BKN011 OVC017 02/M01 A3022 RMK AO2 RAB34E39SNB34 SLP231 P0000 T00171006
KDCA 010748Z 36010KT 4SM -SN BKN011 OVC017 02/M01 A3021 RMK AO2 RAB34E39SNB34 P0000
KDCA 010735Z 01010KT 5SM -RASN SCT015 BKN021 OVC026 02/00 A3021 RMK AO2 RAB34SNB34 P0000 T00170000
KDCA 010652Z 02010KT 10SM OVC028 02/M02 A3020 RMK AO2 SLP227 T00221017
KDCA 010552Z 01006KT 10SM FEW014 OVC023 03/01 A3021 RMK AO2 SLP229 60000 T00280006 10033 20022 55010
KDCA 010544Z 03006KT 10SM BKN015 OVC023 03/01 A3020 RMK AO2 T00280006
KDCA 010502Z 06008KT 9SM BKN012 OVC017 02/00 A3020 RMK AO2 T00220000
KDCA 010452Z 05009KT 10SM OVC017 02/00 A3020 RMK AO2 SLP226 T00220000 400890022
KDCA 010352Z 03008KT 10SM FEW012 OVC018 03/01 A3023 RMK AO2 SLP234 T00280006
KDCA 010252Z 02009KT 10SM SCT016 OVC025 03/01 A3024 RMK AO2 SLP239 60000 T00280006 50006
KDCA 010152Z 02007KT 10SM FEW010 BKN022 OVC029 03/01 A3024 RMK AO2 SLP241 T00330006
KDCA 010103Z 08004KT 7SM SCT010 BKN014 OVC020 03/02 A3023 RMK AO2 T00330017
KDCA 010055Z 08004KT 7SM SCT012 OVC020 03/02 A3023 RMK AO2 T00330017
KDCA 010052Z 07004KT 7SM BKN012 OVC020 03/02 A3023 RMK AO2 DZB47E52 SLP237 P0000 T00330017
KDCA 010036Z 06005KT 7SM OVC013 03/02 A3024 RMK AO2 T00330017
KDCA 010029Z 07005KT 8SM OVC015 03/02 A3024 RMK AO2 T00330017
KDCA 010006Z 06006KT 10SM BKN014 OVC029 03/02 A3022 RMK AO2 T00330017
KDCA 312352Z 07005KT 10SM SCT014 OVC028 03/02 A3022 RMK AO2 SLP233 60004 T00330017 10044 20033 53004
KDCA 312252Z 06007KT 10SM SCT019 OVC024 03/02 A3021 RMK AO2 RAE2159B14E36DZB03E14 SLP230 P0000 T00330017
KDCA 312237Z 04005KT 9SM SCT010 BKN019 OVC024 03/02 A3022 RMK AO2 RAE2159B14E36DZB03E14 P0000 T00330017
KDCA 312214Z 07008KT 7SM -RA SCT008 OVC010 03/02 A3021 RMK AO2 RAE2159B14DZB03E14 P0000 T00330017
KDCA 312212Z 07007KT 7SM -DZ OVC010 03/02 A3021 RMK AO2 RAE2159DZB03 P0000 T00330017
KDCA 312203Z 07007KT 4SM -DZ BR BKN008 OVC011 03/02 A3020 RMK AO2 RAE2159DZB03 P0000 T00330022
KDCA 312152Z 06009KT 3SM -RA BR SCT006 BKN013 OVC019 03/02 A3020 RMK AO2 SLP227 P0000 T00330022
KDCA 312146Z 06009KT 3SM -RA BR SCT006 BKN013 OVC019 03/02 A3021 RMK AO2 P0000
KDCA 312122Z 06005KT 3SM -RA BR BKN011 BKN016 OVC022 03/02 A3022 RMK AO2 P0000 T00330022
KDCA 312052Z 02005KT 6SM -RA BR SCT013 OVC021 04/02 A3021 RMK AO2 RAB45 SLP229 P0000 60004 T00390022 57008
KDCA 312023Z 06006KT 10SM BKN013 BKN028 OVC038 04/02 A3021 RMK AO2 T00390022
KDCA 312019Z 07007KT 10SM SCT013 BKN028 OVC041 04/02 A3021 RMK AO2 T00390022
KDCA 311952Z 02008KT 10SM BKN013 BKN022 OVC044 04/02 A3021 RMK AO2 RAE36 SLP231 P0002 T00390022
KDCA 311941Z 03008KT 7SM BKN013 BKN020 OVC044 04/02 A3021 RMK AO2 RAE36 P0002 T00390017
KDCA 311920Z 03007KT 2 1/2SM -RA BR BKN013 OVC020 04/02 A3021 RMK AO2 P0001 T00390022
KDCA 311852Z 02009KT 4SM -RA BR FEW010 BKN020 OVC025 04/03 A3023 RMK AO2 RAB01 SLP236 P0002 T00440028
KDCA 311752Z 03009KT 10SM OVC015 04/02 A3023 RMK AO2 RAE33 SLP237 P0000 60013 T00440017 10089 20044 58010
KDCA 311652Z 04005KT 10SM -RA SCT014 BKN019 OVC037 05/03 A3025 RMK AO2 SLP242 P0004 T00500028
KDCA 311621Z COR 01004KT 7SM -RA SCT015 BKN023 OVC038 05/03 A3028 RMK AO2 SCT015 V BKN P0002 T00500028
KDCA 311608Z 02008KT 6SM -RA BR SCT018 SCT025 OVC038 05/03 A3027 RMK AO2 SCT V OVC P0001 T00500028
KDCA 311552Z 03011KT 6SM -RA SCT018 BKN024 OVC038 05/02 A3027 RMK AO2 SLP248 SCT V BKN P0002 T00500022
KDCA 311549Z 03013KT 6SM -RA SCT018 BKN024 OVC038 05/02 A3027 RMK AO2 SCT V BKN P0001
KDCA 311452Z 36008KT 10SM -RA FEW019 OVC038 06/03 A3025 RMK AO2 PRESRR SLP244 P0003 60007 T00610028 51027 $
KDCA 311352Z 01013KT 6SM RA OVC038 06/02 A3023 RMK AO2 SLP237 P0004 T00610022 $
KDCA 311252Z 35008KT 10SM -RA SCT065 OVC120 08/03 A3021 RMK AO2 RAB43 SLP229 P0000 T00830028 $
KDCA 311152Z 35011KT 10SM SCT065 OVC130 08/04 A3017 RMK AO2 SLP216 T00830044 10089 20050 51036 $

KDCA 012059Z 0121/0224 33011KT P6SM BKN250
  FM020000 34006KT P6SM SCT250
  FM020600 VRB03KT P6SM BKN250
  FM021400 19008KT P6SM BKN050


KDEN 012253Z 15010KT 10SM FEW100 FEW150 M02/M08 A3006 RMK AO2 SLP221 T10171078
KDEN 012153Z 14009KT 10SM FEW100 FEW150 00/M07 A3005 RMK AO2 SLP214 T00001072
KDEN 012053Z 12008KT 10SM FEW090 FEW120 01/M07 A3004 RMK AO2 SLP212 T00061067 56018
KDEN 011953Z 09004KT 10SM FEW090 FEW120 01/M08 A3005 RMK AO2 SLP216 T00111078
KDEN 011853Z VRB03KT 10SM FEW090 FEW130 05/M11 A3008 RMK AO2 SLP215 T00501111
KDEN 011753Z 21008KT 10SM FEW090 FEW120 M01/M10 A3010 RMK AO2 SLP239 T10061100 10006 21089 51005
KDEN 011653Z 21011KT 10SM FEW090 FEW120 M02/M13 A3010 RMK AO2 SLP242 T10221128
KDEN 011553Z 22010KT 10SM FEW080 FEW120 M05/M14 A3010 RMK AO2 SLP249 T10501144
KDEN 011453Z 23009KT 10SM FEW080 FEW120 M06/M16 A3008 RMK AO2 SLP241 T10611161 53013
KDEN 011353Z 22011KT 10SM FEW080 FEW120 M07/M17 A3006 RMK AO2 SLP234 T10671167
KDEN 011253Z 21013KT 10SM CLR M07/M17 A3006 RMK AO2 SLP237 T10671172
KDEN 011153Z 21010KT 10SM FEW120 M08/M18 A3004 RMK AO2 SLP229 T10781183 11072 21139 55001
KDEN 011053Z 24008KT 10SM FEW120 M11/M19 A3003 RMK AO2 SLP230 T11111189
KDEN 010953Z 25008KT 10SM CLR M11/M18 A3004 RMK AO2 SLP225 T11111183
KDEN 010853Z 24006KT 10SM CLR M13/M19 A3004 RMK AO2 SLP233 T11281189 58007
KDEN 010753Z VRB03KT 10SM CLR M14/M18 A3005 RMK AO2 SLP241 T11391178
KDEN 010653Z 26007KT 10SM CLR M13/M18 A3006 RMK AO2 SLP243 T11281178 410501217
KDEN 010553Z 24008KT 10SM CLR M14/M18 A3007 RMK AO2 SLP249 T11391178 11106 21150 53006
KDEN 010453Z 26005KT 10SM CLR M13/M17 A3006 RMK AO2 SLP259 T11331172
KDEN 010353Z 25006KT 10SM CLR M14/M18 A3005 RMK AO2 SLP264 T11441183
KDEN 010253Z 27005KT 10SM CLR M12/M18 A3004 RMK AO2 SLP266 T11171183 53010
KDEN 010153Z 15010KT 10SM CLR M12/M19 A3002 RMK AO2 SLP253 T11171189
KDEN 010053Z 15007KT 10SM CLR M13/M17 A3001 RMK AO2 SLP255 T11331167
KDEN 312353Z 05006KT 10SM CLR M12/M16 A3001 RMK AO2 SLP243 T11171161 11050 21117 53007
KDEN 312253Z 04006KT 10SM CLR M09/M15 A3000 RMK AO2 SLP234 T10941150
KDEN 312153Z 13004KT 10SM CLR M07/M13 A2999 RMK AO2 SLP222 T10721133
KDEN 312053Z 11004KT 10SM CLR M08/M14 A2998 RMK AO2 SLP220 T10781139 58024
KDEN 311953Z 00000KT 10SM CLR M08/M15 A3001 RMK AO2 SLP230 T10831150
KDEN 311853Z 00000KT 10SM FEW200 M09/M14 A3005 RMK AO2 SLP245 T10941144
KDEN 311753Z 25004KT 10SM FEW200 M09/M16 A3007 RMK AO2 SLP253 T10941156 11094 21217 50002
KDEN 311653Z 15008KT 10SM FEW200 M15/M19 A3007 RMK AO2 SLP268 T11501194
KDEN 311553Z 16013KT 10SM FEW200 M18/M22 A3006 RMK AO2 SLP273 T11781217
KDEN 311453Z 16010KT 10SM FEW200 M22/M25 A3006 RMK AO2 SLP281 T12171250 50002
KDEN 311353Z 17013KT 10SM FEW120 M19/M23 A3006 RMK AO2 SLP279 T11941233
KDEN 311253Z 19011KT 10SM FEW090 M20/M23 A3007 RMK AO2 SLP281 T12001233
KDEN 311153Z 18010KT 10SM FEW010 FEW095 FEW120 M18/M21 A3006 RMK AO2 SLP273 60002 70007 T11781206 11150 21178 58015

KDEN 012242Z 0123/0224 16011KT P6SM FEW090 FEW120
  FM020100 18008KT P6SM FEW200
  FM020700 22009KT P6SM SCT200
  FM021800 18008KT P6SM FEW200
  FM022000 12007KT P6SM FEW200


KDFW 012253Z 33011KT 2SM FZRA BR OVC011 M01/M03 A3034 RMK AO2 SFC VIS 2 1/2 SLP279 I1001 T10111033 PNO $
KDFW 012246Z 32012KT 3SM FZRA BR OVC010 M01/M03 A3035 RMK AO2 I1001 T10111033 PNO
KDFW 012153Z 35008KT 10SM -FZRA BKN012 BKN060 OVC085 M02/M04 A3030 RMK AO2 SLP263 P0004 I1002 T10171039
KDFW 012137Z 36008KT 7SM -FZRA SCT011 BKN055 OVC085 M02/M04 A3028 RMK AO2 P0003 I1001 T10171039
KDFW 012053Z 34005KT 7SM -FZRA BKN012 BKN065 OVC085 M02/M04 A3029 RMK AO2 SLP261 P0001 60005 I1001 I3002 T10171044 56025
KDFW 012024Z 36007KT 10SM -FZRA SCT013 BKN070 OVC090 M02/M04 A3029 RMK AO2 SCT V BKN P0000 I1000 T10171044
KDFW 012014Z 36009KT 10SM -FZRA BKN013 BKN070 OVC090 M02/M04 A3029 RMK AO2 BKN013 V SCT P0000 I1000 T10171044
KDFW 012004Z 35008KT 10SM -FZRA SCT014 BKN080 OVC095 M02/M04 A3030 RMK AO2 SCT V BKN P0000 I1000 T10171044
KDFW 011953Z 36008KT 9SM -FZRA BKN014 BKN070 OVC090 M02/M04 A3030 RMK AO2 SLP264 BKN014 V SCT P0002 I1000 T10171044
KDFW 011930Z 01009KT 9SM -FZRA BKN014 BKN070 OVC090 M02/M04 A3033 RMK AO2 P0001 I1000 T10171044
KDFW 011853Z 33008KT 7SM -FZRA BKN075 OVC090 M02/M04 A3035 RMK AO2 SLP282 P0002 I1001 T10171044
KDFW 011753Z 01006KT 10SM -FZRA FEW030 BKN080 OVC100 M01/M05 A3037 RMK AO2 SLP287 P0001 60003 I1001 I6001 T10111050 11011 21022 58002
KDFW 011653Z 01007KT 10SM -FZRA SCT080 OVC100 M02/M06 A3039 RMK AO2 SLP294 P0001 I1000 T10171056
KDFW 011553Z 35006KT 10SM -FZRA FEW028 BKN085 OVC100 M02/M06 A3041 RMK AO2 PRESRR SLP302 FZRAE21B30PLE21B30E51 P0001 I1000 T10171061
KDFW 011531Z 01008KT 7SM -FZRAPL FEW065 BKN085 OVC110 M02/M07 A3038 RMK AO2 FZRAE21B30PLE21B30 P0000 I1000 T10171067
KDFW 011521Z 35007KT 10SM FEW065 BKN090 OVC110 M02/M07 A3039 RMK AO2 FZRAE21PLE21 P0000 I1000 T10221067
KDFW 011453Z 01008KT 10SM -FZRAPL OVC090 M02/M07 A3037 RMK AO2 SLP289 FZDZB10E50FZRAB50PLB50 P0000 60000 I1000 I3000 T10221072 53010
KDFW 011414Z 36006KT 10SM -FZDZ OVC100 M02/M08 A3039 RMK AO2 PRESRR FZDZB10 P0000 I1000 T10221078
KDFW 011353Z 36011KT 10SM OVC110 M02/M08 A3035 RMK AO2 SLP282 T10221078
KDFW 011253Z 36011KT 10SM OVC110 M02/M08 A3034 RMK AO2 SLP279 T10221078
KDFW 011153Z 01007KT 10SM OVC120 M02/M08 A3034 RMK AO2 SLP278 70035 T10221083 11017 21022 58006
KDFW 011053Z 35008KT 10SM OVC120 M02/M08 A3036 RMK AO2 SLP285 T10221078
KDFW 010953Z 34009KT 10SM FEW047 OVC130 M02/M08 A3035 RMK AO2 SLP283 T10221078
KDFW 010853Z 34013KT 10SM SCT047 OVC130 M02/M08 A3036 RMK AO2 SLP284 T10221083 56009
KDFW 010753Z 33009KT 10SM FEW047 SCT085 OVC130 M02/M08 A3037 RMK AO2 SLP290 T10221078
KDFW 010653Z 34009KT 10SM FEW047 OVC110 M02/M07 A3036 RMK AO2 SLP288 T10221067
KDFW 010553Z 35010KT 10SM FEW019 OVC048 M02/M07 A3039 RMK AO2 SLP293 T10171067 11017 21028 410171039 53004
KDFW 010453Z 35010KT 10SM FEW019 OVC048 M02/M06 A3037 RMK AO2 SLP289 T10221061
KDFW 010353Z 01009KT 10SM BKN018 OVC047 M02/M06 A3037 RMK AO2 SLP287 T10171056
KDFW 010253Z 34009KT 10SM OVC017 M02/M05 A3037 RMK AO2 SLP291 T10221050 53011
KDFW 010153Z 35008KT 10SM OVC015 M02/M05 A3036 RMK AO2 SLP286 T10221050
KDFW 010118Z 33010KT 10SM OVC015 M02/M05 A3037 RMK AO2 PRESRR T10221050
KDFW 010053Z 35009KT 10SM OVC014 M02/M05 A3034 RMK AO2 SLP281 T10221050
KDFW 312353Z 35011KT 10SM OVC014 M03/M05 A3034 RMK AO2 SLP279 60000 I6001 T10281050 11028 21033 55000
KDFW 312341Z 33013KT 10SM OVC014 M03/M06 A3034 RMK AO2 T10281056
KDFW 312253Z 34014KT 10SM OVC015 M03/M06 A3035 RMK AO2 SLP283 T10281056
KDFW 312230Z 35013KT 7SM OVC015 M03/M06 A3033 RMK AO2 T10281056
KDFW 312153Z COR 35014KT 3SM OVC013 M03/M06 A3033 RMK AO2 SFC VIS 7 PLB31E53 SLP275 P0000 T10281056
KDFW 312135Z COR 35012KT 3SM -PL OVC013 M03/M06 A3033 RMK AO2 SFC VIS 7 PLB31 P0000 T10281056
KDFW 312053Z 35013KT 2 1/2SM OVC011 M03/M06 A3034 RMK AO2 SFC VIS 10 FZDZE07 SLP279 P0000 60000 I1000 I3001 T10281056 55014
KDFW 312008Z 35014KT 2 1/2SM OVC011 M03/M05 A3031 RMK AO2 SFC VIS 7 FZDZE07 P0000 I1000 T10331050
KDFW 311953Z 35011KT 2 1/2SM -FZDZ OVC010 M03/M05 A3032 RMK AO2 SFC VIS 5 PRESFR SLP272 FZDZB09PLB09E35 P0000 I1001 T10331050
KDFW 311938Z 34013KT 2SM -FZDZ OVC011 M03/M05 A3035 RMK AO2 FZDZB09PLB09E35 P0000 I1001 T10331050
KDFW 311916Z 33017KT 2SM -FZDZPL OVC011 M03/M05 A3035 RMK AO2 FZDZB09PLB09 P0000 I1001 T10331050
KDFW 311912Z 33014KT 3SM -FZDZPL OVC012 M03/M05 A3035 RMK AO2 FZDZB09PLB09 P0000 I1000 T10331050
KDFW 311853Z 35015KT 6SM BR OVC012 M03/M06 A3035 RMK AO2 PRESFR SLP281 FZRAB20E35PLB20E35 P0000 I1000 T10331056
KDFW 311837Z 33015KT 10SM OVC012 M03/M06 A3038 RMK AO2 FZRAB20E35PLB20E35 P0000 I1000 T10281056
KDFW 311822Z 35012KT 10SM -FZRAPL OVC011 M03/M05 A3035 RMK AO2 FZRAB20PLB20 P0000 I1000 T10281050
KDFW 311753Z 34013KT 7SM OVC011 M03/M05 A3038 RMK AO2 SNE16PLE16 SLP294 P0000 60035 I6000 T10281050 11028 21039 51016
KDFW 311716Z 35015KT 9SM OVC010 M03/M05 A3037 RMK AO2 SNE16PLE16 P0000 T10281050
KDFW 311653Z 34016KT 4SM -SNPL BR SCT008 OVC014 M03/M06 A3038 RMK AO2 SNB52 SLP291 P0002 T10331056
KDFW 311635Z 34011KT 1/2SM R17C/6000VP6000FT -PL BR BKN010 OVC017 M03/M05 A3038 RMK AO2 SFC VIS 1 1/2 P0002 T10331050
KDFW 311627Z COR 35013KT 1/2SM R17C/P6000FT -PL BR SCT009 OVC017 M03/M05 A3037 RMK AO2 SFC VIS 2 P0002 T10331050
KDFW 311621Z 32013KT 1/2SM R17C/P6000FT -PL BR BKN009 BKN017 OVC023 M03/M05 A3040 RMK AO2 SFC VIS 1 1/2 PRESRR P0002 T10331050
KDFW 311612Z 36011KT 1/2SM R17C/P6000FT -PL BR FEW009 SCT014 OVC023 M03/M04 A3035 RMK AO2 SFC VIS 1 1/2 P0001 T10281044
KDFW 311602Z 01009KT 1/2SM R17C/4500VP6000FT -PL BR SCT012 OVC021 M03/M04 A3036 RMK AO2 SFC VIS 1 1/2 P0001 T10331044
KDFW 311553Z 35010KT 1/2SM R17C/5500VP6000FT -PL BR BKN012 OVC022 M03/M04 A3038 RMK AO2 SFC VIS 1 SLP292 TSE15 TS MOVD NE CB DSNT NE-SE-SW P0014 T10331044
KDFW 311529Z 34009KT 1/2SM R17C/3500V5000FT PL BR BKN011 OVC022 M03/M05 A3038 RMK AO2 SFC VIS 3/4 LTG DSNT E AND SE PRESRR TSE15 TS MOVD NE CB DSNT NE-SE-SW P0011 T10331050
KDFW 311518Z 36010KT 1/2SM R17C/4000V6000FT PL FZFG BKN009 OVC022 M03/M05 A3036 RMK AO2 LTG DSNT SW TS MOVD NE CB DSNT NE-SE-SW P0007 T10331050
KDFW 311506Z 35012KT 1/2SM R17C/3500V4500FT TSPL BR BKN009CB OVC015 M03/M05 A3035 RMK AO2 SFC VIS 3/4 LTG DSNT S AND SW OCNL LTGIC NE-SE-S TS NE-SE-S MOV NE P0004 T10331050
KDFW 311453Z 01011KT 1/2SM R17C/5000VP6000FT TSPL BR BKN014CB OVC020 M03/M05 A3033 RMK AO2 SFC VIS 1 LTG DSNT SW FZRAE00 TSB35 SLP277 OCNL LTGIC OHD TS OHD MOV NE P0019 60019 I1000 I3000 T10331050 53012
KDFW 311436Z COR 01011G21KT 340V050 1/2SM R17C/3500VP6000FT TSPL BR BKN014CB OVC020 M03/M06 A3033 RMK AO2 SFC VIS 1 LTG DSNT E AND SW FZRAE00 OCNL LTGIC OHD TSB35 TS OHD MOV NE P0008 I1000 T10331056
KDFW 311424Z 35012KT 1 1/4SM R17C/6000VP6000FT VCTS PL BR OVC012 M03/M05 A3035 RMK AO2 TWR VIS 1 1/2 LTG DSNT SW AND W FZRAE00 PRESRR P0006 I1000 T10331050
KDFW 311400Z 36013KT 2SM -PL BR OVC013 M03/M06 A3032 RMK AO2 SFC VIS 3 LTG DSNT E FZRAE00 P0000 I1000 T10331056
KDFW 311353Z 36011KT 5SM -FZRAPL BR BKN013 OVC018 M03/M06 A3032 RMK AO2 LTG DSNT E AND SE FZRAB15PLB52 SLP273 P0000 I1000 T10331056
KDFW 311315Z 36013KT 10SM -FZRA OVC011 M03/M06 A3032 RMK AO2 FZRAB15 P0000 I1000 T10331056
KDFW 311253Z 36014KT 10SM OVC012 M03/M06 A3030 RMK AO2 SLP266 T10331056
KDFW 311153Z 01013KT 10SM OVC013 M03/M06 A3030 RMK AO2 SLP264 60000 70001 I6006 T10331056 11028 21033 50003

KDFW 012050Z 0120/0224 36009KT P6SM -FZRA BKN013 OVC090
  TEMPO 0122/0202 4SM FZRA
  FM020200 35006KT 3SM -FZRA BR OVC015
  FM021000 36006KT 3SM -RA BR OVC006


KDTW 012253Z 22011KT 10SM FEW250 M07/M14 A3027 RMK AO2 SLP264 T10671144
KDTW 012153Z 21013KT 10SM FEW250 M06/M13 A3029 RMK AO2 SLP268 T10561133
KDTW 012053Z 23011KT 10SM FEW250 M04/M13 A3028 RMK AO2 SLP267 T10441133 58020
KDTW 011953Z 25013KT 10SM FEW030 M04/M12 A3030 RMK AO2 SLP273 T10441117
KDTW 011853Z 23015KT 10SM FEW026 FEW200 M05/M12 A3032 RMK AO2 SLP281 T10501117
KDTW 011753Z 23010KT 10SM FEW024 FEW200 M06/M12 A3034 RMK AO2 SLP287 T10561122 11056 21133 58009
KDTW 011653Z 22012KT 10SM FEW022 FEW200 M07/M12 A3037 RMK AO2 SLP296 T10671122
KDTW 011553Z 23010KT 10SM FEW200 M08/M13 A3038 RMK AO2 SLP298 T10781128
KDTW 011453Z 23008KT 10SM CLR M09/M14 A3037 RMK AO2 SLP298 T10941144 51013
KDTW 011353Z 23010KT 8SM FEW026 SCT200 M12/M16 A3037 RMK AO2 SLP297 T11221161
KDTW 011253Z 23008KT 8SM SCT026 BKN075 OVC200 M13/M17 A3035 RMK AO2 SLP290 T11281167
KDTW 011237Z 24009KT 8SM SCT026 BKN075 OVC200 M13/M17 A3034 RMK AO2 T11281167
KDTW 011216Z 23008KT 8SM BKN026 BKN080 OVC200 M13/M17 A3034 RMK AO2 T11331167
KDTW 011153Z 23008KT 10SM FEW025 SCT080 SCT200 M13/M17 A3033 RMK AO2 SLP285 T11331167 11117 21133 51008
KDTW 011053Z 23008KT 10SM SCT025 BKN080 BKN200 M13/M17 A3033 RMK AO2 SLP283 T11331172
KDTW 011043Z 23008KT 10SM SCT025 BKN080 BKN200 M13/M17 A3033 RMK AO2 T11331172
KDTW 011010Z 23008KT 10SM BKN028 BKN080 M13/M17 A3032 RMK AO2 T11281167
KDTW 010953Z 24008KT 10SM SCT026 M13/M17 A3032 RMK AO2 SLP281 T11281167
KDTW 010853Z 23008KT 10SM CLR M13/M17 A3031 RMK AO2 SLP277 T11281167 56002
KDTW 010753Z 23007KT 10SM CLR M12/M16 A3031 RMK AO2 SLP276 T11221161
KDTW 010653Z 24006KT 10SM FEW035 M12/M16 A3031 RMK AO2 SLP274 T11221161
KDTW 010553Z 23008KT 9SM FEW035 M12/M16 A3032 RMK AO2 SLP279 T11221156 11083 21122 53001
KDTW 010453Z 25007KT 10SM FEW035 M12/M15 A3031 RMK AO2 SLP276 T11171150 410671150
KDTW 010353Z 21007KT 10SM FEW035 M12/M15 A3030 RMK AO2 SLP274 T11171150
KDTW 010253Z 22007KT 10SM SCT035 M11/M15 A3031 RMK AO2 SLP278 T11061150 51005
KDTW 010153Z 20006KT 10SM BKN035 BKN220 M10/M14 A3031 RMK AO2 SLP278 T11001144
KDTW 010053Z 24009KT 10SM SCT035 SCT220 M09/M14 A3030 RMK AO2 SLP275 T10891144
KDTW 312353Z 24008KT 10SM SCT110 BKN220 M09/M15 A3030 RMK AO2 SLP274 T10891150 11067 21089 53001
KDTW 312253Z 25007KT 10SM SCT110 BKN220 M08/M16 A3029 RMK AO2 SLP270 T10831156
KDTW 312153Z 27004KT 10SM SCT120 BKN220 M07/M16 A3030 RMK AO2 SLP272 T10721161
KDTW 312053Z 21004KT 10SM SCT120 BKN220 M08/M16 A3029 RMK AO2 SLP271 T10781161 56021
KDTW 311953Z 30005KT 10SM SCT120 BKN220 M07/M16 A3030 RMK AO2 SLP275 T10721161
KDTW 311853Z 31006KT 10SM SCT120 SCT230 M07/M16 A3033 RMK AO2 SLP284 T10721161
KDTW 311753Z 30004KT 10SM SCT120 SCT220 M08/M17 A3036 RMK AO2 SLP293 T10831167 11078 21150 58022
KDTW 311653Z 18003KT 10SM FEW140 SCT220 M11/M17 A3040 RMK AO2 SLP307 T11061172
KDTW 311553Z 25004KT 10SM FEW040 SCT200 M10/M17 A3043 RMK AO2 SLP317 T11001167
KDTW 311453Z 29004KT 10SM FEW130 M12/M17 A3042 RMK AO2 SLP315 T11171172 51008
KDTW 311353Z 27003KT 10SM FEW030 M13/M18 A3042 RMK AO2 SLP313 T11331178
KDTW 311253Z 31005KT 10SM FEW025 FEW130 M14/M19 A3041 RMK AO2 SLP310 T11441189
KDTW 311153Z 29005KT 10SM FEW130 M14/M19 A3040 RMK AO2 SLP307 70004 T11441189 11122 21144 50005

KDTW 012050Z 0121/0224 23011KT P6SM SKC
  FM012300 21007KT P6SM SKC
  FM021200 22013KT P6SM SKC
  FM022100 23015KT P6SM OVC100


KEWR 012251Z 29007KT 10SM FEW250 03/M12 A3025 RMK AO2 SLP241 T00281122
KEWR 012151Z 28007KT 10SM FEW250 03/M12 A3023 RMK AO2 SLP236 T00331117
KEWR 012051Z 32011KT 10SM FEW250 04/M12 A3022 RMK AO2 SLP233 T00441122 55009
KEWR 011951Z 28010G16KT 10SM FEW046 FEW250 04/M12 A3021 RMK AO2 SLP229 T00441117
KEWR 011857Z 30008KT 250V340 10SM FEW046 FEW250 04/M12 A3022 RMK AO2 T00391117
KEWR 011851Z 33005KT 10SM FEW046 FEW250 04/M11 A3022 RMK AO2 SLP232 T00441106
KEWR 011751Z 00000KT 10SM FEW048 FEW250 03/M09 A3025 RMK AO2 SLP242 T00331089 10033 21022 58015
KEWR 011651Z 26007KT 10SM FEW025 FEW045 FEW250 02/M08 A3028 RMK AO2 SLP252 T00221078
KEWR 011551Z 34004KT 10SM FEW020 SCT048 01/M07 A3029 RMK AO2 SLP257 T00061072
KEWR 011527Z 30006KT 10SM SCT019 BKN048 00/M07 A3030 RMK AO2 T00001067
KEWR 011451Z 36006KT 10SM BKN019 BKN046 M01/M07 A3029 RMK AO2 SLP257 T10061067 53010
KEWR 011425Z 36006KT 10SM BKN018 BKN044 M01/M07 A3030 RMK AO2 T10111067
KEWR 011351Z 36008KT 10SM SCT015 BKN044 M02/M07 A3028 RMK AO2 SLP252 T10171067
KEWR 011251Z 01009KT 10SM BKN017 BKN045 M02/M06 A3027 RMK AO2 SLP250 T10221061
KEWR 011151Z 01009KT 10SM BKN016 BKN050 OVC100 M02/M06 A3026 RMK AO2 SNE07 SLP247 P0001 60002 70005 T10221056 11006 21028 53011
KEWR 011138Z 01008KT 10SM BKN017 BKN055 OVC100 M02/M06 A3026 RMK AO2 SNE07 P0001 T10221056
KEWR 011107Z 36009KT 10SM FEW033 SCT065 OVC100 M03/M06 A3024 RMK AO2 SNE07 P0001 T10281061
KEWR 011051Z 01008KT 9SM -SN FEW033 BKN065 OVC100 M03/M06 A3023 RMK AO2 SLP236 P0000 T10281061
KEWR 010951Z 36012KT 6SM -SN BKN035 BKN045 OVC065 M03/M07 A3023 RMK AO2 SLP237 P0001 T10281072
KEWR 010851Z 01012KT 9SM -SN BKN032 OVC045 M02/M09 A3023 RMK AO2 SNB42 SLP236 P0000 60000 T10171089 53006
KEWR 010843Z 36011KT 10SM -SN BKN032 BKN045 OVC060 M01/M09 A3022 RMK AO2 SNB42 P0000 T10111094
KEWR 010817Z 36010KT 10SM BKN029 BKN036 OVC048 M01/M10 A3022 RMK AO2 T10111100
KEWR 010751Z 36009KT 10SM BKN036 OVC048 M01/M10 A3022 RMK AO2 SLP233 T10061100
KEWR 010651Z 36012KT 10SM SCT033 OVC050 M01/M10 A3021 RMK AO2 SLP229 T10061100
KEWR 010551Z 01011KT 10SM FEW030 OVC050 M01/M09 A3021 RMK AO2 SLP229 T10061094 10033 21006 58006
KEWR 010451Z 02011KT 10SM FEW035 OVC055 00/M09 A3022 RMK AO2 SLP231 T00001089 400940000
KEWR 010351Z 01013KT 10SM FEW035 OVC060 01/M08 A3024 RMK AO2 SLP238 T00061083
KEWR 010251Z 03009KT 10SM FEW035 OVC060 02/M07 A3023 RMK AO2 SLP236 T00171072 53005
KEWR 010151Z 36011KT 10SM FEW035 OVC060 02/M09 A3023 RMK AO2 SLP235 T00221089
KEWR 010051Z 03008KT 10SM FEW035 OVC060 03/M11 A3021 RMK AO2 SLP228 T00281111
KEWR 312351Z 35007KT 10SM FEW030 OVC060 03/M10 A3022 RMK AO2 SLP231 60000 T00331100 10044 20033 51008
KEWR 312251Z 30007KT 10SM FEW030 OVC060 03/M09 A3021 RMK AO2 SLP227 T00331089
KEWR 312151Z 32006G18KT 10SM FEW030 BKN060 BKN100 BKN200 03/M08 A3020 RMK AO2 SLP227 T00331078
KEWR 312051Z 30009KT 10SM FEW028 FEW045 BKN065 BKN200 03/M07 A3019 RMK AO2 SLP223 60000 T00331072 55002
KEWR 311951Z 33012G15KT 10SM FEW025 FEW045 BKN070 BKN130 04/M06 A3019 RMK AO2 SNB09E36 SLP222 P0000 T00391061
KEWR 311936Z 28007KT 10SM FEW025 SCT046 BKN070 BKN130 04/M06 A3020 RMK AO2 SNB09E36 P0000 T00391056
KEWR 311909Z 33010KT 10SM -SN FEW025 BKN060 BKN080 BKN130 04/M05 A3018 RMK AO2 SNB09 P0000 T00441050
KEWR 311851Z 32009G15KT 10SM FEW025 SCT060 BKN075 BKN130 04/M05 A3019 RMK AO2 SNE36 SLP224 P0000 T00441050
KEWR 311836Z 29009KT 10SM FEW025 BKN060 BKN075 BKN130 04/M05 A3019 RMK AO2 SNE36 P0000 T00441050
KEWR 311751Z 35007KT 10SM -SN FEW018 FEW035 BKN060 BKN130 04/M03 A3020 RMK AO2 SNB41 SLP225 P0000 60003 T00391033 10044 20022 58012
KEWR 311741Z 34008KT 10SM -SN FEW018 FEW035 BKN065 BKN130 04/M03 A3020 RMK AO2 SNB41 P0000 T00391033
KEWR 311651Z 34008KT 10SM FEW017 FEW035 BKN070 BKN130 04/M03 A3022 RMK AO2 SLP233 T00391028
KEWR 311551Z 35008KT 10SM FEW015 FEW028 BKN080 BKN130 03/M02 A3024 RMK AO2 RAB02E13SNB1457E13B35E50 SLP241 P0000 T00331022
KEWR 311536Z 36010KT 10SM -SN FEW012 FEW028 BKN080 03/M02 A3024 RMK AO2 RAB02E13SNB1457E13B35 P0000 T00331022
KEWR 311513Z 36008KT 10SM FEW012 BKN060 BKN080 03/M02 A3024 RMK AO2 RAB02E13SNB1457E13 P0000 T00281022
KEWR 311457Z 35007KT 10SM -SN FEW012 BKN060 BKN085 03/M02 A3024 RMK AO2 SNB57 P0000 T00281017
KEWR 311451Z 34008KT 10SM FEW012 BKN060 BKN085 03/M02 A3023 RMK AO2 RAE00PLE12 SLP237 P0000 60003 T00281017 51025
KEWR 311412Z 01006KT 10SM SCT011 SCT018 BKN070 02/M01 A3021 RMK AO2 RAE00PLE12 P0000 T00221006
KEWR 311404Z 34007KT 10SM -PL SCT011 BKN018 BKN060 02/M01 A3022 RMK AO2 RAE00 P0000 T00221006
KEWR 311351Z 35004KT 10SM -PLRA BKN011 BKN018 BKN046 02/M01 A3022 RMK AO2 SNE48 SLP234 P0001 T00221006
KEWR 311348Z 34005KT 10SM -PLRA BKN011 BKN018 BKN046 02/M01 A3022 RMK AO2 SNE48 P0001
KEWR 311313Z 01008KT 8SM -SNPLRA BKN011 BKN016 OVC020 02/M01 A3021 RMK AO2 P0001 T00221006
KEWR 311259Z 34007KT 8SM -RAPLSN SCT011 BKN016 OVC038 02/M01 A3021 RMK AO2 P0000 T00221006
KEWR 311251Z 35009KT 7SM -RAPLSN FEW012 SCT016 OVC048 02/M01 A3020 RMK AO2 SLP226 P0002 T00221006
KEWR 311151Z 36010KT 6SM -RAPLSN SCT012 OVC036 02/M01 A3016 RMK AO2 SNB34PLB49 SLP212 P0002 60003 70003 T00221006 10094 20022 51024
KEWR 311149Z 36007KT 6SM -RAPLSN SCT012 OVC036 02/M01 A3016 RMK AO2 SNB34PLB49 P0002
KEWR 311134Z 34011KT 6SM -RASN SCT012 OVC034 03/M01 A3016 RMK AO2 SNB34 P0001 T00281006

KEWR 012034Z 0121/0224 29010KT P6SM FEW045 FEW250
  FM020000 32009KT P6SM FEW250
  FM020500 VRB04KT P6SM FEW250
  FM021400 24008KT P6SM FEW250
  FM022000 24012G18KT P6SM FEW250


KFLL 012253Z 13010KT 10SM FEW034 FEW250 26/20 A3016 RMK AO2 SLP214 T02560200
KFLL 012153Z 14010KT 10SM FEW035 27/20 A3015 RMK AO2 SLP209 T02670200
KFLL 012053Z 15010KT 10SM FEW035 27/19 A3014 RMK AO2 SLP207 T02670194 56015
KFLL 011953Z 12011KT 10SM FEW035 27/19 A3015 RMK AO2 SLP209 T02720194
KFLL 011853Z 13011KT 10SM FEW033 27/20 A3016 RMK AO2 SLP212 T02720200
KFLL 011753Z 12011KT 10SM SCT030 28/21 A3019 RMK AO2 SLP222 T02780206 10278 20206 58015
KFLL 011653Z 12009KT 10SM SCT027 27/20 A3021 RMK AO2 SLP230 T02720200
KFLL 011553Z 14007KT 10SM SCT027 27/20 A3023 RMK AO2 SLP237 T02670200
KFLL 011453Z VRB03KT 10SM FEW023 26/21 A3023 RMK AO2 SLP237 T02610206 53020
KFLL 011353Z 00000KT 10SM FEW023 24/21 A3021 RMK AO2 SLP228 T02440206
KFLL 011253Z 00000KT 10SM SCT023 22/19 A3020 RMK AO2 SLP225 T02170194
KFLL 011153Z 00000KT 10SM FEW023 21/19 A3017 RMK AO2 SLP217 T02060189 10239 20206 53011
KFLL 011053Z 00000KT 10SM FEW023 21/19 A3016 RMK AO2 SLP212 T02110194
KFLL 010953Z 00000KT 10SM CLR 21/19 A3015 RMK AO2 SLP208 T02110189
KFLL 010853Z 00000KT 10SM CLR 22/19 A3014 RMK AO2 SLP206 T02170189 57008
KFLL 010753Z 15005KT 10SM CLR 23/20 A3014 RMK AO2 SLP207 T02280200
KFLL 010653Z 15006KT 10SM CLR 23/19 A3016 RMK AO2 SLP212 T02330194
KFLL 010553Z 15005KT 10SM CLR 23/19 A3016 RMK AO2 SLP214 T02330194 10250 20233 58007
KFLL 010453Z 15006KT 10SM CLR 24/19 A3017 RMK AO2 SLP217 T02440194 402780233
KFLL 010353Z 14008KT 10SM CLR 24/19 A3018 RMK AO2 SLP219 T02440194
KFLL 010253Z 14006KT 10SM CLR 24/19 A3019 RMK AO2 SLP221 T02440194 51009
KFLL 010153Z 14006KT 10SM CLR 24/20 A3018 RMK AO2 SLP220 T02440200
KFLL 010053Z 13008KT 10SM CLR 24/19 A3017 RMK AO2 SLP216 T02440194
KFLL 312353Z 14006KT 10SM CLR 25/19 A3016 RMK AO2 SLP211 T02500194 10278 20250 53009
KFLL 312253Z 14010KT 10SM FEW034 26/19 A3015 RMK AO2 SLP207 T02560194
KFLL 312153Z 13012KT 10SM FEW035 26/19 A3014 RMK AO2 SLP205 T02610194
KFLL 312053Z 14010KT 10SM FEW035 27/19 A3013 RMK AO2 SLP203 T02670194 56015
KFLL 311953Z 11010KT 10SM FEW035 27/20 A3013 RMK AO2 SLP203 T02670200
KFLL 311853Z 13011KT 10SM SCT035 27/20 A3015 RMK AO2 SLP209 T02720200
KFLL 311753Z 13010KT 10SM FEW030 28/20 A3017 RMK AO2 SLP217 T02780200 10278 20233 58013
KFLL 311653Z 12012KT 10SM SCT029 BKN045 27/20 A3020 RMK AO2 SLP226 T02720200
KFLL 311553Z 13011KT 10SM SCT028 BKN048 27/20 A3022 RMK AO2 SLP232 T02720200
KFLL 311453Z 14010KT 110V180 10SM SCT026 27/20 A3021 RMK AO2 SLP230 T02670200 53021
KFLL 311353Z 15008KT 10SM SCT026 26/19 A3019 RMK AO2 SLP222 T02560194
KFLL 311253Z 14005KT 10SM FEW025 24/19 A3017 RMK AO2 SLP215 T02390189
KFLL 311153Z 14004KT 10SM FEW025 23/18 A3015 RMK AO2 SLP209 T02330183 10244 20233 53010
KFLL 311117Z 16005KT 10SM FEW036 24/19 A3014 RMK AO2 T02390189

KFLL 012052Z 0121/0224 12010KT P6SM SCT030
  FM020100 VRB05KT P6SM FEW030
  FM021500 15009KT P6SM SCT030


KIAD 012252Z 36003KT 10SM FEW120 SCT250 02/M11 A3029 RMK AO2 SLP260 T00171106
KIAD 012152Z 30003KT 10SM FEW150 FEW250 03/M10 A3030 RMK AO2 SLP261 T00281100
KIAD 012052Z 32006KT 10SM FEW150 BKN250 03/M09 A3028 RMK AO2 SLP256 T00331094 56010
KIAD 011952Z 34007G16KT 10SM FEW150 BKN250 04/M09 A3029 RMK AO2 SLP259 T00391089
KIAD 011852Z 36011G16KT 10SM FEW150 BKN250 03/M09 A3029 RMK AO2 SLP259 T00281089
KIAD 011752Z 35009KT 10SM SCT250 02/M08 A3031 RMK AO2 SLP266 T00221083 10028 21006 58008
KIAD 011652Z 33011G18KT 10SM SCT250 02/M08 A3032 RMK AO2 SLP270 T00171078
KIAD 011552Z 33011KT 10SM FEW120 SCT250 01/M08 A3034 RMK AO2 SLP276 T00111078
KIAD 011452Z 34012KT 10SM FEW110 BKN250 01/M08 A3034 RMK AO2 SLP275 T00061083 53030
KIAD 011352Z 35010KT 10SM BKN110 BKN200 M01/M07 A3030 RMK AO2 PRESRR SLP264 T10061072
KIAD 011314Z 35015KT 10SM FEW018 BKN090 00/M07 A3027 RMK AO2 T00001067
KIAD 011252Z 36011G17KT 10SM FEW018 BKN090 00/M05 A3026 RMK AO2 SLP250 T00001050
KIAD 011152Z 35008KT 6SM BR FEW017 OVC080 01/M03 A3024 RMK AO2 SLP244 60006 70013 I6000 T00061028 10017 20000 53014
KIAD 011054Z 36007KT 5SM BR BKN040 OVC070 01/M02 A3022 RMK AO2 T00061022
KIAD 011052Z 35007KT 2 1/2SM BR BKN040 OVC060 01/M02 A3022 RMK AO2 SNE52 SLP236 P0000 T00061022
KIAD 010957Z 01005KT 1 1/2SM -SN BR BKN040 BKN055 OVC060 00/M01 A3021 RMK AO2 P0000 T00001011
KIAD 010952Z 02005KT 1SM R01R/P6000FT -SN BR SCT006 BKN010 OVC022 00/M02 A3021 RMK AO2 SLP232 P0000 T00001017
KIAD 010903Z 35008KT 1SM R01R/P6000FT -SN BR SCT006 BKN010 OVC022 00/M02 A3021 RMK AO2 P0000 T00001017
KIAD 010852Z COR 36009KT 1SM R01R/P6000FT -SN BR BKN006 BKN010 OVC022 00/M01 A3020 RMK AO2 SLP230 P0004 60006 I3000 T00001011 53003
KIAD 010822Z 34005KT 1SM R01R/P6000FT -SN BR BKN003 OVC010 01/M01 A3021 RMK AO2 P0002 T00061006
KIAD 010812Z 35004KT 1SM R01R/P6000FT -SN BR OVC005 01/M01 A3020 RMK AO2 P0001 T00061006
KIAD 010752Z 36005KT 1 3/4SM -SN BR BKN005 OVC010 01/M01 A3020 RMK AO2 DZE38SNB38 SLP229 P0002 I1000 T00061006
KIAD 010739Z 01006KT 2SM -SN BR BKN005 OVC010 01/M01 A3020 RMK AO2 DZE38SNB38 P0001 I1000 T00061006
KIAD 010722Z 02006KT 3SM -DZ BR BKN006 OVC010 01/M01 A3019 RMK AO2 P0000 T00061006
KIAD 010652Z 02007KT 3SM -DZ BR FEW007 SCT010 OVC013 01/M01 A3018 RMK AO2 RAB25E51DZB51 SLP220 P0000 T00061006
KIAD 010627Z 02008KT 5SM -RA BR FEW007 SCT010 OVC015 02/M01 A3019 RMK AO2 RAB25 P0000 T00171006
KIAD 010552Z 02005KT 10SM OVC017 02/M01 A3019 RMK AO2 SLP226 60000 T00171006 10028 20017 55009
KIAD 010459Z 03004KT 10SM BKN017 OVC034 02/M01 A3019 RMK AO2 T00171006
KIAD 010452Z 04003KT 10SM SCT017 OVC033 02/00 A3019 RMK AO2 SLP225 T00170000 400890017
KIAD 010440Z 06004KT 10SM SCT017 OVC033 02/00 A3019 RMK AO2 T00170000
KIAD 010352Z 04005KT 10SM BKN008 BKN020 OVC025 02/00 A3021 RMK AO2 DZE50 SLP231 P0000 T00170000
KIAD 010342Z 03006KT 9SM -DZ BKN008 OVC025 02/00 A3022 RMK AO2 P0000 T00170000
KIAD 010252Z 04005KT 3SM -DZ FEW007 BKN017 OVC023 02/00 A3022 RMK AO2 SLP236 P0000 60000 T00170000 51001
KIAD 010249Z 03005KT 3SM -DZ SCT007 BKN017 OVC023 02/00 A3022 RMK AO2 P0000
KIAD 010222Z 02005KT 3SM -DZ BKN007 BKN011 OVC018 02/01 A3022 RMK AO2 P0000 T00220006
KIAD 010152Z 04007KT 3SM -DZ SCT007 OVC015 02/00 A3022 RMK AO2 SLP236 P0000 T00170000
KIAD 010138Z 01005KT 3SM -DZ BKN007 BKN015 OVC026 02/01 A3023 RMK AO2 P0000 T00220011
KIAD 010052Z 03006KT 7SM -DZ SCT009 OVC019 02/00 A3022 RMK AO2 SLP235 P0000 T00220000
KIAD 010024Z 04004KT 3SM DZ BR BKN009 OVC020 02/01 A3022 RMK AO2 P0000 T00220006
KIAD 312352Z 07004KT 7SM -DZ SCT008 OVC020 02/01 A3020 RMK AO2 DZE03B23 SLP229 P0000 60003 T00220006 10033 20022 53002
KIAD 312320Z 07004KT 10SM SCT008 OVC020 03/01 A3020 RMK AO2 DZE03 P0000 T00280006
KIAD 312252Z 07005KT 4SM -DZ BR BKN010 OVC020 02/01 A3020 RMK AO2 RAE46DZB52 SLP226 P0000 T00220006
KIAD 312222Z 06005KT 4SM -RA BR SCT008 BKN012 OVC025 02/01 A3019 RMK AO2 P0000 T00220006
KIAD 312152Z 06004KT 4SM -RA BR BKN008 OVC018 03/01 A3019 RMK AO2 RAB12E21B47 SLP223 P0000 T00280011
KIAD 312052Z 05004KT 3SM BR OVC009 03/01 A3019 RMK AO2 RAB25E40 SLP226 P0001 60003 T00280011 55008
KIAD 312033Z 03003KT 3SM -RA BR OVC009 03/01 A3019 RMK AO2 RAB25 P0000 T00280011
KIAD 312009Z 35005KT 10SM BKN011 BKN017 OVC035 03/01 A3019 RMK AO2 T00330011
KIAD 311952Z 34004KT 3SM BR BKN009 BKN017 OVC035 03/01 A3018 RMK AO2 RAE15 SLP222 P0000 T00280011
KIAD 311926Z 32005KT 3SM BR BKN009 BKN019 OVC033 03/01 A3020 RMK AO2 RAE15 P0000 T00280011
KIAD 311852Z 32007KT 2SM -RA BR SCT009 BKN019 OVC028 03/01 A3022 RMK AO2 RAB07 SLP233 P0002 T00280011
KIAD 311754Z 01006KT 10SM FEW009 BKN019 OVC033 03/01 A3022 RMK AO2 T00330006
KIAD 311752Z 01004KT 7SM FEW009 SCT012 OVC033 03/01 A3022 RMK AO2 RAE22 SLP234 P0000 60004 T00330006 10067 20028 58007
KIAD 311652Z 01004KT 7SM -RA FEW010 OVC035 04/01 A3025 RMK AO2 SLP244 P0000 T00390006
KIAD 311552Z 36005KT 7SM -RA OVC035 04/00 A3026 RMK AO2 RAB1453 SLP248 P0001 T00390000
KIAD 311452Z 36010KT 10SM OVC033 04/M01 A3024 RMK AO2 RAE43 SLP242 P0001 60003 T00391006 51026
KIAD 311352Z 36012KT 10SM -RA OVC036 04/00 A3022 RMK AO2 RAB1257 SLP234 P0002 T00440000
KIAD 311252Z 36010KT 10SM BKN038 OVC050 06/M01 A3020 RMK AO2 SLP226 T00611011
KIAD 311152Z 36013KT 10SM SCT037 BKN060 BKN120 07/00 A3016 RMK AO2 SLP214 T00670000 10089 20056 51031

KIAD 012059Z 0121/0224 32006KT P6SM FEW150 BKN250
  FM020600 VRB03KT P6SM BKN250
  FM021400 20008KT P6SM SCT050 BKN200


KIAH 012253Z 33008KT 1SM BR OVC005 04/03 A3022 RMK AO2 SFC VIS 3 SLP234 T00390033
KIAH 012153Z 01007KT 5SM BR OVC005 04/03 A3020 RMK AO2 SLP228 T00390033
KIAH 012053Z 36011KT 5SM BR OVC006 04/03 A3020 RMK AO2 SLP228 T00390033 56029
KIAH 011953Z 36013KT 5SM BR OVC005 04/03 A3022 RMK AO2 SLP235 T00390033
KIAH 011853Z 01012KT 7SM OVC007 04/03 A3025 RMK AO2 SLP244 T00390028
KIAH 011753Z 01008G16KT 7SM OVC006 04/03 A3029 RMK AO2 RAB00E20B36E45 SLP257 P0000 60012 T00390028 10039 20022 58005
KIAH 011653Z 01011KT 7SM OVC007 04/03 A3031 RMK AO2 RAE34 SLP263 P0000 T00390028
KIAH 011553Z 01009KT 7SM -RA BKN006 OVC029 03/03 A3029 RMK AO2 SLP258 P0005 T00330028
KIAH 011529Z 01010KT 4SM -RA BR BKN005 OVC033 03/02 A3030 RMK AO2 P0005 T00280022
KIAH 011513Z 35007KT 1SM RA BR OVC005 03/02 A3031 RMK AO2 P0003 T00280022
KIAH 011453Z 34006KT 2SM RA BR BKN005 OVC025 03/02 A3030 RMK AO2 SLP262 P0002 60007 T00280022 51011
KIAH 011428Z 02011KT 3SM -RA BR BKN006 OVC025 03/02 A3028 RMK AO2 P0002 T00280022
KIAH 011353Z 36008KT 2SM -RA BR OVC006 03/02 A3029 RMK AO2 SLP259 P0002 T00280017
KIAH 011253Z 34007KT 7SM -RA OVC007 03/02 A3029 RMK AO2 RAB1159 PRESRR SLP259 P0003 T00280017
KIAH 011153Z 35009KT 7SM OVC008 03/02 A3027 RMK AO2 SLP251 60001 70001 T00280017 10033 20028 51011
KIAH 011053Z 36014KT 7SM OVC009 03/02 A3025 RMK AO2 SLP244 T00280017
KIAH 010953Z 02010KT 7SM OVC008 03/02 A3027 RMK AO2 SLP250 T00280022
KIAH 010853Z 36012KT 7SM OVC008 03/02 A3024 RMK AO2 RAB06E35 SLP240 P0001 60001 T00280022 56014
KIAH 010753Z 36012KT 10SM OVC008 03/02 A3024 RMK AO2 SLP241 T00280017
KIAH 010653Z 36010KT 10SM OVC008 03/02 A3026 RMK AO2 SLP246 T00330017
KIAH 010553Z 35011KT 10SM OVC007 03/02 A3028 RMK AO2 SLP254 T00330022 10033 20028 400610022 58001
KIAH 010453Z 35007KT 10SM OVC007 03/02 A3029 RMK AO2 SLP258 T00330022
KIAH 010353Z 36009KT 10SM OVC007 03/02 A3029 RMK AO2 SLP256 T00280022
KIAH 010253Z 35009KT 10SM OVC009 03/02 A3028 RMK AO2 SLP255 T00280017 52011
KIAH 010153Z 36015G21KT 10SM OVC009 03/02 A3027 RMK AO2 SLP250 T00280017
KIAH 010053Z 34009KT 10SM OVC007 03/02 A3026 RMK AO2 SLP248 T00280017
KIAH 312353Z 35012KT 2SM BR OVC007 03/02 A3025 RMK AO2 SFC VIS 4 RAB18E35 SLP244 P0000 60000 T00280022 10061 20028 51021
KIAH 312329Z 35013KT 2SM -RA BR OVC007 03/02 A3025 RMK AO2 RAB18 P0000 T00280022
KIAH 312253Z 35014KT 6SM BR OVC007 03/03 A3024 RMK AO2 SLP240 T00330028
KIAH 312153Z 33011KT 7SM OVC007 04/03 A3022 RMK AO2 SLP232 T00390028
KIAH 312053Z 34010KT 2SM BR OVC005 04/03 A3019 RMK AO2 SFC VIS 4 SLP223 T00440033 56020
KIAH 312007Z 33012KT 2SM BR OVC005 05/04 A3020 RMK AO2 T00500039
KIAH 311953Z 32010KT 4SM BR OVC005 05/04 A3020 RMK AO2 SLP229 T00500039
KIAH 311853Z 35011KT 7SM OVC007 06/05 A3021 RMK AO2 PRESFR SLP230 T00610050
KIAH 311834Z 35009KT 3SM OVC006 06/05 A3023 RMK AO2 SFC VIS 7 T00560050
KIAH 311753Z 36011KT 2SM BR OVC005 06/05 A3025 RMK AO2 SFC VIS 6 SLP243 60000 T00560050 10056 20028 50006
KIAH 311653Z 36010KT 1 1/2SM BR OVC005 05/05 A3026 RMK AO2 SFC VIS 4 DZE49 SLP249 P0000 T00500050
KIAH 311553Z 01010KT 1/2SM -DZ BR OVC003 04/04 A3025 RMK AO2 SFC VIS 1 DZB16 SLP244 TWR IN CLDS P0000 T00440044
KIAH 311453Z 36008KT 1SM BR OVC004 04/04 A3023 RMK AO2 SFC VIS 2 1/2 SLP237 60000 T00440039 53015
KIAH 311353Z 01009KT 1SM BR OVC004 03/03 A3021 RMK AO2 SFC VIS 2 SLP232 T00330033
KIAH 311253Z 36011KT 1SM BR OVC004 03/03 A3019 RMK AO2 SFC VIS 5 RAB1156E17 SLP224 P0000 T00330028
KIAH 311153Z 36009KT 1 1/2SM BR OVC004 03/03 A3018 RMK AO2 SFC VIS 2 SLP222 60000 70002 T00280028 10028 20022 53002

KIAH 012126Z 0121/0224 36011KT 6SM BR VCSH OVC006
  TEMPO 0121/0124 2SM -SHRA BR OVC005
  FM020100 01009KT 6SM BR VCSH OVC006
  FM020800 01009KT 3SM SHRA BR BKN004 OVC006
  FM022000 33010KT 6SM BR VCSH BKN008 OVC010
  FM022200 33012G22KT P6SM BKN008 OVC012


KJFK 012251Z 29008KT 10SM FEW250 02/M11 A3025 RMK AO2 SLP243 T00171111
KJFK 012151Z 27011KT 10SM FEW042 FEW250 03/M11 A3024 RMK AO2 SLP238 T00281111
KJFK 012051Z 22009KT 10SM FEW042 FEW250 02/M07 A3023 RMK AO2 SLP235 T00221067 55009
KJFK 011951Z 24008G16KT 10SM FEW042 FEW250 02/M06 A3022 RMK AO2 SLP232 T00221061
KJFK 011851Z 25009KT 10SM SCT042 SCT120 SCT250 03/M07 A3023 RMK AO2 SLP236 T00281072
KJFK 011751Z 26009KT 10SM SCT034 BKN050 BKN120 BKN250 02/M06 A3025 RMK AO2 SLP244 T00221061 10022 21028 58014
KJFK 011651Z 34004KT 10SM SCT048 SCT120 01/M06 A3028 RMK AO2 SLP254 T00061061
KJFK 011551Z 02006KT 10SM FEW022 BKN047 M01/M05 A3029 RMK AO2 SLP258 T10061050
KJFK 011451Z 01007KT 10SM SCT017 BKN047 BKN110 M02/M07 A3030 RMK AO2 SLP259 T10171067 53010
KJFK 011351Z 02009KT 10SM SCT015 BKN047 BKN110 M02/M06 A3028 RMK AO2 SLP252 T10171056
KJFK 011251Z 03010KT 10SM BKN013 BKN055 BKN110 M03/M04 A3027 RMK AO2 SLP251 T10281044
KJFK 011151Z 01008KT 10SM BKN015 BKN036 OVC100 M03/M05 A3027 RMK AO2 SNE30 SLP249 CIG 012V018 P0001 60002 70004 T10281050 11006 21033 53016
KJFK 011131Z 01008KT 10SM FEW011 BKN036 OVC100 M03/M05 A3025 RMK AO2 SNE30 P0001 T10331050
KJFK 011051Z 02008KT 4SM -SN BR FEW011 OVC031 M03/M04 A3024 RMK AO2 SLP238 P0001 T10331044
KJFK 011040Z 02008KT 4SM -SN BR FEW011 OVC028 M03/M04 A3023 RMK AO2 P0001 T10331044
KJFK 010951Z 03013KT 5SM -SN BKN033 OVC090 M02/M05 A3024 RMK AO2 SLP239 P0000 T10221050
KJFK 010851Z 03010KT 9SM -SN OVC031 M01/M07 A3022 RMK AO2 SNB46 SLP233 P0000 60000 T10111072 53002
KJFK 010848Z 02011KT 9SM -SN OVC031 M01/M07 A3022 RMK AO2 SNB46 P0000
KJFK 010751Z 03010KT 10SM OVC035 M01/M08 A3022 RMK AO2 SLP234 T10111083
KJFK 010651Z 03010KT 10SM OVC035 M01/M08 A3021 RMK AO2 SLP230 T10111083
KJFK 010551Z 03010KT 10SM BKN036 OVC060 M01/M08 A3022 RMK AO2 SLP231 T10061083 10028 21006 56007
KJFK 010451Z 04010KT 10SM BKN034 OVC060 M01/M08 A3022 RMK AO2 SLP234 T10061083 400721006
KJFK 010351Z 02011KT 10SM OVC060 01/M08 A3023 RMK AO2 SLP235 T00061078
KJFK 010251Z 02012KT 10SM OVC060 01/M07 A3024 RMK AO2 SLP238 T00111072 53005
KJFK 010151Z 04009KT 10SM BKN055 02/M06 A3024 RMK AO2 SLP238 T00171061
KJFK 010051Z 34005KT 10SM BKN060 03/M09 A3022 RMK AO2 SLP232 T00281094
KJFK 312351Z 01005KT 10SM BKN060 03/M09 A3022 RMK AO2 SLP233 60000 T00281089 10033 20028 52008
KJFK 312251Z 35005KT 10SM BKN060 BKN250 03/M08 A3021 RMK AO2 SLP229 T00281078
KJFK 312151Z 31009KT 10SM FEW039 BKN060 BKN250 03/M07 A3021 RMK AO2 SLP229 T00281072
KJFK 312051Z 31010KT 10SM SCT039 BKN065 BKN250 03/M06 A3020 RMK AO2 SNB26E45 SLP225 P0000 60000 T00281061 55002
KJFK 312045Z 31010KT 10SM SCT039 BKN065 BKN250 03/M05 A3020 RMK AO2 SNB26E45 P0000
KJFK 312028Z 34010G20KT 10SM -SN SCT039 BKN048 BKN060 03/M04 A3019 RMK AO2 SNB26 P0000 T00281044
KJFK 311951Z 01006KT 10SM SCT033 BKN055 BKN070 03/M03 A3019 RMK AO2 SNE38 SLP223 P0000 T00331028
KJFK 311939Z 01009KT 10SM FEW028 SCT041 BKN060 03/M04 A3020 RMK AO2 SNE38 P0000 T00331039
KJFK 311851Z 34009KT 9SM -SN FEW028 BKN046 BKN110 03/M03 A3019 RMK AO2 SLP222 P0000 T00281028
KJFK 311827Z 32009G17KT 9SM -SN SCT026 BKN050 BKN120 03/M03 A3020 RMK AO2 P0000 T00281028
KJFK 311751Z 36009KT 9SM -SN BKN026 BKN060 BKN120 03/M02 A3020 RMK AO2 SNB35 SLP227 P0000 60002 T00281017 10028 20011 58011
KJFK 311742Z 35007KT 9SM -SN BKN026 BKN060 BKN120 03/M02 A3021 RMK AO2 SNB35 P0000 T00281017
KJFK 311651Z 34008KT 10SM BKN023 BKN075 BKN270 02/M01 A3023 RMK AO2 SLP237 T00221011
KJFK 311551Z 02006KT 10SM BKN015 BKN060 02/00 A3024 RMK AO2 RAE25 SLP240 BKN015 V SCT VCSH E AND SW-W P0000 T00220000
KJFK 311526Z 01007KT 10SM BKN015 BKN060 BKN160 02/00 A3025 RMK AO2 RAE25 P0000 T00170000
KJFK 311451Z 36007KT 10SM -RA BKN011 BKN043 BKN060 BKN160 02/00 A3024 RMK AO2 PLE44 SLP238 P0001 60002 T00170000 51024
KJFK 311444Z 36008KT 10SM -RA BKN011 BKN043 BKN060 BKN160 02/00 A3023 RMK AO2 PLE44 P0001 T00170000
KJFK 311351Z 01008KT 8SM -PLRA BKN011 BKN027 OVC055 01/00 A3022 RMK AO2 SNB31E48 SLP234 BKN011 V SCT P0001 T00110000
KJFK 311331Z 36009KT 8SM -RAPLSN BKN011 BKN024 OVC050 01/00 A3021 RMK AO2 SNB31 P0001 T00110000
KJFK 311251Z 35010KT 8SM -RAPL BKN011 OVC043 01/00 A3021 RMK AO2 PLB33 SLP228 P0000 T00110000
KJFK 311233Z 36010KT 8SM -RAPL BKN011 OVC039 01/00 A3020 RMK AO2 PLB33 P0000 T00110000
KJFK 311151Z 35012KT 7SM -RA SCT011 BKN028 OVC044 02/01 A3017 RMK AO2 SLP214 P0001 60001 70001 T00170006 10072 20017 53025

KJFK 012034Z 0121/0224 24010KT P6SM FEW045 FEW250
  FM012200 28010KT P6SM FEW045 FEW250
  FM020000 32009KT P6SM FEW250
  FM020500 VRB04KT P6SM FEW250
  FM021400 24008KT P6SM FEW250
  FM022000 24012G18KT P6SM FEW250


KLAS 012256Z 10004KT 10SM FEW250 12/M09 A3021 RMK AO2 SLP234 T01171094
KLAS 012156Z 06005KT 10SM FEW250 12/M11 A3022 RMK AO2 SLP236 T01171106
KLAS 012056Z VRB04KT 10SM FEW250 11/M11 A3023 RMK AO2 SLP243 T01061111 58019
KLAS 011956Z 16003KT 10SM FEW250 08/M11 A3025 RMK AO2 SLP250 T00831111
KLAS 011856Z 00000KT 10SM FEW250 08/M12 A3028 RMK AO2 SLP259 T00781117
KLAS 011756Z 06004KT 10SM FEW250 06/M12 A3029 RMK AO2 SLP264 T00611117 10061 21011 51009
KLAS 011656Z 00000KT 10SM CLR 04/M11 A3029 RMK AO2 SLP265 T00441106
KLAS 011556Z 00000KT 10SM CLR 02/M09 A3028 RMK AO2 SLP262 T00171094
KLAS 011456Z 20004KT 10SM CLR M01/M09 A3026 RMK AO2 SLP258 T10061094 53005
KLAS 011356Z 00000KT 10SM CLR M01/M09 A3026 RMK AO2 SLP255 T10061094
KLAS 011256Z 21005KT 10SM CLR M01/M09 A3025 RMK AO2 SLP250 T10061094
KLAS 011156Z 23004KT 10SM CLR M01/M09 A3025 RMK AO2 SLP249 T10061094 10028 21006 58002
KLAS 011056Z 23003KT 10SM CLR 00/M09 A3025 RMK AO2 SLP248 T00001094
KLAS 010956Z 20003KT 10SM CLR 00/M09 A3025 RMK AO2 SLP251 T00001094
KLAS 010856Z 00000KT 10SM CLR 01/M09 A3025 RMK AO2 SLP251 T00061089 58002
KLAS 010756Z 00000KT 10SM CLR 02/M09 A3026 RMK AO2 SLP253 T00171094 400941006
KLAS 010656Z 21003KT 10SM CLR 02/M09 A3026 RMK AO2 SLP255 T00221094
KLAS 010556Z 00000KT 10SM CLR 03/M11 A3026 RMK AO2 SLP255 T00281111 10089 20028 51013
KLAS 010456Z 00000KT 10SM CLR 04/M12 A3025 RMK AO2 SLP251 T00391117
KLAS 010356Z 08009KT 10SM CLR 04/M12 A3023 RMK AO2 SLP246 T00391117
KLAS 010256Z 12005KT 10SM CLR 05/M11 A3022 RMK AO2 SLP242 T00501111 53009
KLAS 010156Z 08004KT 10SM CLR 07/M13 A3020 RMK AO2 SLP236 T00671133
KLAS 010056Z 05014KT 10SM FEW250 08/M16 A3019 RMK AO2 SLP231 T00781156
KLAS 312356Z 06013KT 10SM CLR 09/M17 A3019 RMK AO2 SLP228 T00891167 10094 20039 56009
KLAS 312256Z 06017G22KT 10SM FEW100 09/M17 A3019 RMK AO2 SLP230 T00941167
KLAS 312156Z 06015KT 10SM FEW100 09/M16 A3020 RMK AO2 SLP231 T00891161
KLAS 312056Z 05008G16KT 10SM FEW100 08/M16 A3022 RMK AO2 SLP238 T00781156 58019
KLAS 311956Z 05011KT 10SM FEW100 07/M14 A3025 RMK AO2 SLP248 T00671144
KLAS 311856Z 06014KT 10SM CLR 06/M16 A3027 RMK AO2 SLP258 T00561156
KLAS 311756Z 06012KT 10SM CLR 04/M16 A3028 RMK AO2 SLP261 T00391156 10044 21006 51014
KLAS 311656Z 05012KT 10SM CLR 03/M16 A3028 RMK AO2 SLP260 T00281161
KLAS 311556Z 05011KT 10SM CLR 01/M16 A3025 RMK AO2 SLP254 T00111161
KLAS 311456Z 07010KT 10SM FEW120 00/M16 A3024 RMK AO2 SLP249 T00001156 53021
KLAS 311356Z 06011KT 10SM CLR 00/M16 A3021 RMK AO2 SLP240 T00001156
KLAS 311256Z 08012KT 10SM CLR 00/M15 A3018 RMK AO2 SLP230 T00001150
KLAS 311156Z 05012KT 10SM FEW200 01/M14 A3017 RMK AO2 SLP226 70005 T00061139 10039 20006 53010

KLAS 012101Z 0121/0224 08005KT P6SM SKC
  FM020300 23006KT P6SM SKC
  FM021600 VRB03KT P6SM SCT250


KLAX 012253Z 27010KT 10SM FEW250 16/02 A3013 RMK AO2 SLP203 T01610022 $
KLAX 012153Z 25010KT 10SM FEW140 FEW180 18/M02 A3012 RMK AO2 SLP199 T01781017 $
KLAX 012053Z 25008KT 10SM FEW160 FEW190 18/M03 A3013 RMK AO2 SLP201 T01781028 58016 $
KLAX 011953Z 22007KT 10SM FEW180 18/M04 A3015 RMK AO2 SLP208 T01781039 $
KLAX 011853Z 14004KT 10SM CLR 17/M05 A3017 RMK AO2 SLP216 T01671050 $
KLAX 011753Z VRB03KT 10SM CLR 16/M04 A3018 RMK AO2 SLP218 T01561039 10156 20050 53015 $
KLAX 011653Z 00000KT 10SM CLR 13/M01 A3016 RMK AO2 SLP213 T01331011 $
KLAX 011553Z 00000KT 10SM CLR 09/M03 A3015 RMK AO2 SLP207 T00891028 $
KLAX 011453Z 00000KT 10SM FEW200 08/M04 A3014 RMK AO2 SLP203 T00781039 53012 $
KLAX 011353Z 09003KT 10SM FEW200 05/M01 A3012 RMK AO2 SLP198 T00501011 $
KLAX 011253Z 04003KT 10SM CLR 07/M02 A3010 RMK AO2 SLP190 T00721022 $
KLAX 011153Z 07003KT 10SM CLR 07/M01 A3010 RMK AO2 SLP191 T00671011 10122 20056 58004 $
KLAX 011053Z 08003KT 10SM CLR 06/01 A3011 RMK AO2 SLP195 T00610011 $
KLAX 010953Z 12004KT 10SM CLR 06/02 A3012 RMK AO2 SLP196 T00610017 $
KLAX 010853Z 00000KT 10SM CLR 10/01 A3011 RMK AO2 SLP195 T01000011 50000 $
KLAX 010753Z 00000KT 10SM CLR 10/01 A3011 RMK AO2 SLP195 T01000011 401940061 $
KLAX 010653Z 00000KT 10SM CLR 11/01 A3012 RMK AO2 SLP196 T01110011 $
KLAX 010553Z 00000KT 10SM CLR 12/04 A3011 RMK AO2 SLP194 T01170039 10189 20106 51015 $
KLAX 010453Z 00000KT 10SM CLR 13/04 A3010 RMK AO2 SLP193 T01330044 $
KLAX 010353Z 19005KT 10SM CLR 13/04 A3008 RMK AO2 SLP187 T01330039 $
KLAX 010253Z 20003KT 10SM CLR 14/01 A3006 RMK AO2 SLP180 T01390011 52007 $
KLAX 010153Z 21004KT 10SM CLR 15/00 A3005 RMK AO2 SLP177 T01500000 $
KLAX 010053Z 24008KT 10SM CLR 16/M01 A3005 RMK AO2 SLP175 T01611011 $
KLAX 312353Z 31005KT 10SM CLR 19/M08 A3004 RMK AO2 SLP172 T01941083 10194 20139 55005 $
KLAX 312253Z 17003KT 10SM CLR 18/M01 A3003 RMK AO2 SLP168 T01781006 $
KLAX 312153Z 00000KT 10SM CLR 17/01 A3003 RMK AO2 SLP169 T01720006 $
KLAX 312053Z 21009KT 10SM CLR 16/04 A3005 RMK AO2 SLP177 T01610044 58024 $
KLAX 311953Z 24008KT 10SM CLR 16/04 A3008 RMK AO2 SLP187 T01610044 $
KLAX 311853Z 13003KT 10SM FEW160 16/02 A3012 RMK AO2 SLP198 T01560017 $
KLAX 311753Z 13003KT 9SM FEW190 14/03 A3013 RMK AO2 SLP201 T01390033 10139 20061 52020 $
KLAX 311653Z 15003KT 8SM FEW180 11/07 A3011 RMK AO2 SLP196 T01110072 $
KLAX 311553Z 02003KT 7SM FEW001 FEW180 09/07 A3009 RMK AO2 SLP189 T00940072 $
KLAX 311453Z 00000KT 10SM FEW001 FEW180 08/07 A3007 RMK AO2 SLP183 T00780067 53024 $
KLAX 311353Z 10004KT 10SM FEW002 FEW200 07/06 A3005 RMK AO2 SLP173 T00670056
KLAX 311253Z 00000KT 10SM FEW004 FEW150 07/06 A3002 RMK AO2 SLP164 T00670056
KLAX 311153Z 04003KT 10SM FEW004 FEW150 08/07 A3000 RMK AO2 SLP159 70023 T00830067 10122 20078 51008

KLAX 012102Z 0121/0224 25008KT P6SM FEW160 FEW190
  FM020400 VRB03KT P6SM SKC
  FM020900 08005KT P6SM SKC
  FM022000 26008KT P6SM SKC


KLGA 012251Z 29010KT 10SM FEW250 03/M13 A3024 RMK AO2 SLP239 T00281128
KLGA 012151Z 27008KT 10SM FEW250 03/M13 A3023 RMK AO2 SLP234 T00331133
KLGA 012051Z 26011KT 10SM FEW045 FEW250 03/M13 A3021 RMK AO2 SLP231 T00331133 55009
KLGA 011951Z 31008KT 10SM FEW045 FEW250 03/M12 A3021 RMK AO2 SLP228 T00331122
KLGA 011851Z 27007KT 10SM FEW043 SCT250 03/M11 A3022 RMK AO2 SLP231 T00281111
KLGA 011751Z 30005KT 10SM FEW043 SCT130 02/M09 A3024 RMK AO2 SLP240 T00171094 10017 21028 58015
KLGA 011651Z 30006KT 10SM FEW033 SCT050 01/M08 A3027 RMK AO2 SLP250 T00061083
KLGA 011551Z VRB04KT 10SM BKN049 BKN110 01/M07 A3028 RMK AO2 SLP254 T00061072
KLGA 011451Z 03005KT 10SM FEW015 BKN050 BKN110 M01/M08 A3029 RMK AO2 SLP255 T10111078 53009
KLGA 011351Z 04006KT 10SM SCT015 BKN050 OVC100 M02/M08 A3027 RMK AO2 SLP250 T10221078
KLGA 011251Z 03005KT 10SM SCT015 BKN050 OVC100 M02/M07 A3027 RMK AO2 SLP248 T10221072
KLGA 011151Z 01007KT 10SM BKN015 BKN065 OVC100 M03/M06 A3026 RMK AO2 SNE32 SLP246 931002 P0000 60002 70005 T10281061 11006 21033 53013
KLGA 011134Z 02007KT 9SM BKN012 BKN065 OVC100 M03/M06 A3025 RMK AO2 SNE32 P0000 T10281061
KLGA 011051Z 03007KT 7SM -SN SCT010 BKN028 OVC100 M03/M07 A3023 RMK AO2 SLP235 P0001 T10331067
KLGA 011044Z 04007KT 6SM -SN FEW010 BKN026 OVC100 M03/M07 A3022 RMK AO2 P0001 T10331067 $
KLGA 011019Z 04006KT 2SM -SN FEW011 OVC028 M03/M07 A3023 RMK AO2 P0000 T10331072 $
KLGA 010951Z 02009KT 2 1/2SM -SN FEW011 OVC036 M03/M08 A3023 RMK AO2 SLP237 P0001 T10331078 $
KLGA 010934Z 01007KT 2SM -SN OVC038 M03/M08 A3023 RMK AO2 TWR VIS 2 1/2 P0001 T10281083 $
KLGA 010851Z 03007KT 7SM -SN OVC032 M02/M09 A3022 RMK AO2 SNB27 SLP233 P0000 60000 T10171089 53002 $
KLGA 010827Z 02007KT 9SM -SN OVC031 M01/M10 A3022 RMK AO2 SNB27 P0000 T10111100 $
KLGA 010751Z 03008KT 10SM OVC033 M01/M11 A3022 RMK AO2 SLP231 T10111106 $
KLGA 010651Z 02008KT 10SM BKN039 OVC048 M01/M10 A3021 RMK AO2 SLP229 T10061100 $
KLGA 010551Z 04007KT 10SM FEW038 OVC050 M01/M11 A3021 RMK AO2 SLP231 T10061106 10033 21006 58007 $
KLGA 010451Z 03009KT 10SM FEW030 OVC060 M01/M10 A3022 RMK AO2 SLP234 T10061100 401001006 $
KLGA 010351Z 02010KT 10SM FEW030 OVC060 00/M09 A3023 RMK AO2 SLP238 T00001094 $
KLGA 010251Z 05011KT 10SM FEW035 BKN060 01/M09 A3023 RMK AO2 SLP238 T00061094 50007 $
KLGA 010151Z 03008KT 10SM FEW035 BKN060 02/M08 A3024 RMK AO2 SLP238 T00171078 $
KLGA 010051Z 05013KT 10SM FEW040 BKN060 02/M07 A3022 RMK AO2 SLP231 T00221072 $
KLGA 312351Z 32005KT 10SM FEW040 BKN065 BKN150 03/M13 A3021 RMK AO2 SLP230 931000 60000 T00331128 10039 20028 53009 $
KLGA 312251Z 33005KT 10SM FEW040 BKN060 BKN150 03/M11 A3020 RMK AO2 SLP225 T00331111 $
KLGA 312151Z 33007KT 10SM FEW040 BKN065 BKN150 03/M09 A3020 RMK AO2 SLP225 T00331089 $
KLGA 312051Z 31009KT 10SM FEW046 BKN065 BKN150 03/M08 A3019 RMK AO2 SLP221 60000 T00331078 56002 $
KLGA 311951Z 32014KT 10SM SCT042 BKN060 BKN075 03/M07 A3019 RMK AO2 SNE1855 SLP221 P0000 T00331072 $
KLGA 311855Z 33007KT 9SM FEW025 SCT042 BKN065 BKN130 04/M06 A3018 RMK AO2 SNE55 P0000 T00391056 $
KLGA 311851Z 34009KT 9SM -SN FEW025 SCT035 BKN070 BKN130 04/M05 A3018 RMK AO2 SNB28 SLP219 P0000 T00391050 $
KLGA 311829Z 33010KT 10SM -SN FEW025 SCT035 BKN070 BKN130 03/M05 A3018 RMK AO2 SNB28 P0000 T00331050 $
KLGA 311751Z 33010G16KT 10SM SCT026 SCT035 BKN070 BKN130 03/M04 A3019 RMK AO2 SLP223 931000 60003 T00331044 10033 20011 58013 $
KLGA 311747Z 32007KT 10SM SCT026 SCT035 BKN070 BKN130 03/M04 A3019 RMK AO2 $
KLGA 311732Z 33007KT 10SM BKN028 BKN035 BKN070 03/M04 A3020 RMK AO2 T00331039 $
KLGA 311651Z 34007KT 10SM FEW026 BKN033 BKN075 BKN130 03/M03 A3022 RMK AO2 SLP234 T00281033 $
KLGA 311551Z 34005KT 10SM SCT023 BKN080 OVC130 02/M02 A3023 RMK AO2 SLP237 T00221022 $
KLGA 311454Z 34007KT 10SM SCT017 BKN060 OVC090 02/M01 A3023 RMK AO2 T00221011 $
KLGA 311451Z 34008KT 10SM FEW012 BKN017 BKN090 02/M01 A3023 RMK AO2 SLP236 RAE15SNE15 P0000 60003 T00221011 51023 $
KLGA 311415Z 04005KT 10SM FEW009 BKN017 OVC045 02/M01 A3021 RMK AO2 RAE15SNE15 P0000 T00171011 $
KLGA 311351Z 02005KT 7SM -RASN FEW009 BKN012 OVC047 01/M01 A3021 RMK AO2 PLE20 SLP230 P0001 T00111011 $
KLGA 311320Z 01005KT 2 1/2SM -RASN SCT009 BKN016 OVC041 01/M02 A3019 RMK AO2 SFC VIS 4 PLE20 P0000 T00111017 $
KLGA 311259Z 36008KT 2 1/2SM -RAPLSN BKN009 BKN013 OVC050 01/M02 A3020 RMK AO2 SFC VIS 4 P0000 T00111017 $
KLGA 311251Z 01006KT 2 1/2SM -RAPLSN SCT009 BKN013 OVC045 01/M02 A3019 RMK AO2 SFC VIS 5 SNB04PLB04 SLP223 P0002 T00111017 $
KLGA 311239Z 01006KT 2 1/2SM -RAPLSN SCT009 BKN013 OVC045 01/M02 A3019 RMK AO2 SFC VIS 5 SNB04PLB04 P0001 T00111017 $
KLGA 311232Z 01007KT 5SM -RAPLSN SCT013 SCT028 OVC047 01/M02 A3019 RMK AO2 SNB04PLB04 P0001 T00111017 $
KLGA 311204Z 02008KT 6SM -RAPLSN SCT013 BKN017 OVC039 01/M02 A3016 RMK AO2 SNB04PLB04 P0000 T00111017 $
KLGA 311151Z 02008KT 6SM -RA BKN012 OVC039 02/M01 A3016 RMK AO2 SLP213 P0002 60002 70002 T00171011 10100 20017 53025 $

KLGA 012034Z 0121/0224 30010KT P6SM FEW045 FEW250
  FM020000 32009KT P6SM FEW250
  FM020500 VRB04KT P6SM FEW250
  FM021400 24008KT P6SM FEW250
  FM022000 24012G18KT P6SM FEW250


KMCO 012253Z 33005KT 10SM FEW040 BKN060 26/17 A3016 RMK AO2 SLP210 T02610167
KMCO 012153Z 30005KT 10SM FEW047 BKN060 27/17 A3015 RMK AO2 SLP207 T02720167
KMCO 012053Z 31007KT 10SM FEW045 BKN055 27/17 A3014 RMK AO2 SLP205 T02720167 56017
KMCO 011953Z 31006KT 10SM SCT045 BKN060 28/17 A3014 RMK AO2 SLP206 T02780167
KMCO 011853Z 27007KT 260V340 10SM SCT043 28/17 A3016 RMK AO2 SLP213 T02780167
KMCO 011753Z 26005KT 10SM SCT040 27/17 A3019 RMK AO2 SLP222 T02670167 10278 20178 58016
KMCO 011653Z 27007KT 230V320 10SM FEW036 27/16 A3022 RMK AO2 SLP232 T02670161
KMCO 011553Z 28006KT 10SM FEW028 SCT060 26/17 A3024 RMK AO2 SLP239 T02610172
KMCO 011453Z 31004KT 10SM SCT055 24/18 A3024 RMK AO2 SLP238 T02390183 51015
KMCO 011353Z 31003KT 10SM SCT055 22/19 A3023 RMK AO2 SLP233 T02170189
KMCO 011253Z 31003KT 9SM FEW055 18/18 A3021 RMK AO2 SLP228 T01830178
KMCO 011153Z 31003KT 10SM FEW055 FEW250 18/17 A3019 RMK AO2 SLP223 T01830172 10200 20172 53014
KMCO 011053Z 32003KT 6SM BR FEW005 FEW050 18/17 A3018 RMK AO2 SLP217 T01780172
KMCO 011022Z 29003KT 7SM FEW005 18/18 A3017 RMK AO2 T01830178
KMCO 011005Z 30004KT 7SM BKN005 18/17 A3017 RMK AO2 T01780172
KMCO 010953Z 29003KT 6SM BR FEW010 FEW050 18/18 A3016 RMK AO2 SLP212 T01830178
KMCO 010853Z 28004KT 7SM FEW010 BKN049 18/18 A3015 RMK AO2 SLP209 T01830178 56007
KMCO 010753Z 00000KT 7SM BKN049 18/18 A3016 RMK AO2 SLP210 T01830178
KMCO 010653Z 00000KT 7SM CLR 19/18 A3017 RMK AO2 SLP214 T01890183
KMCO 010553Z 00000KT 10SM FEW055 20/18 A3017 RMK AO2 SLP216 T02000183 10244 20194 58003
KMCO 010453Z 23004KT 10SM FEW050 20/19 A3019 RMK AO2 SLP222 T02000189 402940178
KMCO 010353Z 17004KT 10SM FEW040 20/18 A3019 RMK AO2 SLP221 T02000183
KMCO 010253Z 15006KT 10SM FEW040 21/19 A3018 RMK AO2 SLP219 T02110189 53013
KMCO 010153Z 13007KT 10SM FEW040 23/19 A3017 RMK AO2 SLP214 T02280189
KMCO 010053Z 00000KT 10SM FEW040 22/17 A3016 RMK AO2 SLP210 T02220167
KMCO 312353Z 19003KT 10SM FEW040 FEW060 24/16 A3015 RMK AO2 SLP207 T02390161 10294 20239 53008
KMCO 312253Z 19004KT 10SM FEW045 FEW060 26/16 A3014 RMK AO2 SLP203 T02560161
KMCO 312153Z 21005KT 10SM SCT047 28/16 A3013 RMK AO2 SLP200 T02780161
KMCO 312053Z 19003KT 10SM SCT050 28/16 A3012 RMK AO2 SLP198 T02780161 56019
KMCO 311953Z 25009KT 10SM SCT047 29/17 A3013 RMK AO2 SLP200 T02890167
KMCO 311853Z 17003KT 10SM SCT043 SCT060 27/17 A3014 RMK AO2 SLP206 T02720172
KMCO 311753Z 18007KT 10SM SCT039 SCT060 28/18 A3018 RMK AO2 SLP217 T02830178 10289 20183 58016
KMCO 311653Z 22004KT 10SM SCT034 SCT055 27/18 A3021 RMK AO2 SLP228 T02720178
KMCO 311553Z 22008KT 10SM FEW030 FEW055 27/18 A3022 RMK AO2 SLP233 T02670183
KMCO 311453Z 20009KT 10SM FEW026 FEW050 25/18 A3023 RMK AO2 SLP234 T02500183 51018
KMCO 311353Z 22006KT 10SM FEW022 SCT050 22/19 A3021 RMK AO2 SLP228 T02170189
KMCO 311253Z 00000KT 10SM FEW043 BKN050 19/18 A3019 RMK AO2 SLP223 T01940183
KMCO 311153Z 00000KT 10SM FEW020 SCT050 SCT250 18/18 A3017 RMK AO2 SLP216 T01830178 10211 20178 53010

KMCO 012103Z 0121/0224 31007KT P6SM FEW045 BKN060
  FM020000 VRB03KT P6SM FEW040
  TEMPO 0209/0213 3SM BR SCT006
  FM021500 23006KT P6SM FEW030 SCT250
  FM021800 23009KT P6SM SCT035 SCT250


KMDW 012253Z 20010KT 10SM FEW250 M03/M13 A3024 RMK AO2 SLP261 T10281128
KMDW 012153Z 21012KT 10SM FEW250 M02/M14 A3025 RMK AO2 SLP265 T10221139
KMDW 012053Z 23011KT 10SM FEW250 M03/M14 A3026 RMK AO2 SLP267 T10281139 56027
KMDW 011953Z 23014KT 10SM FEW250 M03/M15 A3028 RMK AO2 SLP272 T10281150
KMDW 011853Z 23013KT 10SM FEW250 M04/M14 A3030 RMK AO2 SLP281 T10391144
KMDW 011753Z 24012KT 10SM FEW250 M04/M14 A3034 RMK AO2 SLP296 4/001 T10441144 11044 21139 58008
KMDW 011653Z 21011KT 10SM FEW250 M07/M15 A3037 RMK AO2 SLP306 T10671150
KMDW 011553Z 22008KT 10SM FEW250 M08/M16 A3037 RMK AO2 SLP305 T10781161
KMDW 011453Z 22009KT 10SM FEW250 M11/M17 A3037 RMK AO2 SLP307 T11061172 53003
KMDW 011353Z 22007KT 10SM FEW250 M13/M18 A3036 RMK AO2 SLP307 T11281183
KMDW 011253Z 22007KT 10SM FEW250 M13/M19 A3035 RMK AO2 SLP303 T11331189
KMDW 011153Z 21006KT 10SM CLR M14/M18 A3036 RMK AO2 SLP304 4/001 T11391183 11133 21144 53001
KMDW 011053Z 21006KT 10SM CLR M14/M19 A3036 RMK AO2 SLP303 T11441194
KMDW 010953Z 23005KT 10SM CLR M14/M20 A3035 RMK AO2 SLP301 T11441200
KMDW 010853Z 23007KT 10SM CLR M14/M20 A3036 RMK AO2 SLP303 T11441200 56003
KMDW 010753Z 24006KT 10SM CLR M14/M19 A3036 RMK AO2 SLP303 T11391194
KMDW 010653Z 24008KT 10SM CLR M14/M20 A3035 RMK AO2 SLP300 T11391200
KMDW 010553Z 25007KT 10SM CLR M14/M20 A3037 RMK AO2 SLP306 4/001 T11441200 11122 21144 411001161 50000
KMDW 010453Z 25006KT 10SM CLR M14/M21 A3037 RMK AO2 SLP309 T11441206
KMDW 010353Z 25007KT 10SM CLR M14/M21 A3037 RMK AO2 SLP308 T11441211
KMDW 010253Z 24008KT 10SM CLR M14/M22 A3036 RMK AO2 SLP308 T11441217 58001
KMDW 010153Z 24007KT 10SM CLR M14/M22 A3037 RMK AO2 SLP310 T11391217
KMDW 010053Z 24007KT 10SM CLR M13/M22 A3036 RMK AO2 SLP307 T11331217
KMDW 312353Z 26006KT 10SM FEW250 M12/M22 A3037 RMK AO2 SLP308 4/001 T11221222 11100 21122 53009
KMDW 312253Z 27008KT 10SM FEW150 FEW250 M11/M22 A3035 RMK AO2 SLP304 T11111222
KMDW 312153Z 29007KT 10SM FEW150 FEW250 M11/M22 A3035 RMK AO2 SLP300 T11061222
KMDW 312053Z 28008KT 10SM FEW150 FEW250 M11/M21 A3034 RMK AO2 SLP298 T11061211 56027
KMDW 311953Z 28008KT 10SM FEW130 FEW150 SCT250 M11/M21 A3036 RMK AO2 SLP305 T11061211
KMDW 311853Z 29009KT 10SM FEW130 FEW150 BKN250 M11/M21 A3039 RMK AO2 SLP315 T11111206
KMDW 311753Z 25010KT 10SM FEW120 SCT150 BKN250 M11/M21 A3042 RMK AO2 SLP326 4/001 T11111206 11111 21161 58006
KMDW 311653Z 24007KT 10SM FEW120 SCT150 BKN250 M12/M20 A3044 RMK AO2 SLP333 T11171200
KMDW 311553Z 25003KT 10SM FEW110 FEW250 M13/M21 A3043 RMK AO2 SLP330 T11331206
KMDW 311453Z 26004KT 10SM FEW110 FEW250 M14/M21 A3044 RMK AO2 SLP333 T11441206 53001
KMDW 311353Z 00000KT 10SM FEW030 FEW130 BKN250 M16/M21 A3043 RMK AO2 SLP331 T11561211
KMDW 311253Z 30003KT 10SM FEW030 FEW140 M16/M22 A3044 RMK AO2 SLP333 T11611222
KMDW 311153Z 30005KT 10SM CLR M16/M22 A3044 RMK AO2 SLP332 4/001 T11611217 11144 21161 56004

KMDW 012057Z 0121/0224 23013G20KT P6SM SKC
  FM012300 23009KT P6SM SCT250
  FM021900 32011KT P6SM BKN050


KMEM 012254Z 03006KT 7SM BKN008 OVC100 M02/M03 A3033 RMK AO2 CIG 007V011 SLP272 T10171028 $
KMEM 012154Z 04004KT 7SM OVC009 M02/M03 A3033 RMK AO2 FZDZE07 SLP274 P0000 I1000 T10171033 $
KMEM 012149Z 05004KT 8SM OVC009 M02/M03 A3033 RMK AO2 FZDZE07 P0000 I1000 $
KMEM 012143Z 04004KT 8SM M02/M03 A3032 RMK AO2 FZDZE07 P0000 I1000 T10171033 $
KMEM 012113Z 02004KT 10SM OVC009 M02/M03 A3033 RMK AO2 FZDZE07 CIG 008V012 P0000 I1000 T10171033 $
KMEM 012054Z 36004KT 10SM -FZDZ BKN010 OVC100 M02/M03 A3033 RMK AO2 FZRAE36FZDZB36 CIG 008V012 SLP275 P0001 60004 I1001 I3003 T10171033 55019 $
KMEM 012037Z 03005KT 9SM -FZDZ BKN010 OVC100 M02/M03 A3032 RMK AO2 FZRAE36FZDZB36 CIG 008V012 P0001 I1000 T10221033 $
KMEM 012033Z 04004KT 8SM -FZRA BKN010 OVC100 M02/M03 A3032 RMK AO2 CIG 008V012 PRESFR P0001 I1000 T10221033 $
KMEM 012020Z 03005KT 10SM -FZRA BKN009 OVC100 M02/M03 A3033 RMK AO2 CIG 008V012 P0000 I1000 T10221033 $
KMEM 011954Z 00000KT 10SM -FZRA OVC010 M02/M03 A3033 RMK AO2 CIG 007V013 SLP273 P0003 I1002 T10221033 $
KMEM 011854Z 03007KT 7SM -FZRA OVC010 M02/M04 A3035 RMK AO2 FZRAB54 SLP282 P0000 I1000 T10221039 $
KMEM 011754Z 03009KT 10SM BKN012 OVC110 M03/M04 A3039 RMK AO2 SLP294 T10281044 11028 21039 58008 $
KMEM 011654Z 01007KT 10SM BKN013 OVC120 M03/M04 A3042 RMK AO2 SLP304 T10281044 $
KMEM 011554Z 04011KT 10SM BKN013 OVC120 M03/M05 A3041 RMK AO2 SLP300 T10331050 $
KMEM 011516Z 03006KT 10SM BKN013 OVC130 M03/M05 A3041 RMK AO2 T10331050 $
KMEM 011454Z 02007KT 10SM SCT011 BKN016 BKN150 M03/M05 A3042 RMK AO2 SLP303 T10331050 53016 $
KMEM 011420Z 02008KT 10SM SCT011 BKN016 BKN150 M03/M06 A3042 RMK AO2 T10331056 $
KMEM 011354Z 03010KT 10SM BKN011 BKN016 M04/M06 A3039 RMK AO2 SLP295 T10391056 $
KMEM 011254Z 03009KT 10SM BKN011 BKN110 M04/M06 A3037 RMK AO2 PRESFR SLP288 T10391056 $
KMEM 011211Z 02006KT 10SM BKN012 OVC160 M04/M06 A3038 RMK AO2 T10391056 $
KMEM 011154Z 01007KT 10SM OVC008 M04/M05 A3037 RMK AO2 SLP286 70040 T10391050 11033 21039 53008 $
KMEM 011054Z 02008KT 10SM OVC008 M03/M05 A3035 RMK AO2 SLP281 T10331050 $
KMEM 010954Z 35006KT 10SM OVC008 M03/M04 A3035 RMK AO2 SLP282 T10331044 $
KMEM 010854Z 35008KT 10SM OVC007 M03/M04 A3034 RMK AO2 CIG 006V011 SLP278 T10331039 53002 $
KMEM 010754Z 01006KT 10SM OVC007 M03/M04 A3033 RMK AO2 SLP272 T10331039 $
KMEM 010654Z 02006KT 10SM OVC008 M03/M04 A3032 RMK AO2 SLP272 T10331044 $
KMEM 010554Z 36009KT 10SM OVC007 M03/M04 A3034 RMK AO2 SLP276 60010 I6004 T10331044 11022 21039 400001039 58003 $
KMEM 010454Z 01009KT 10SM OVC008 M03/M04 A3034 RMK AO2 FZRAE36FZDZB36E46 SLP277 P0000 I1000 T10331044 $
KMEM 010447Z 35010KT 10SM OVC008 M03/M04 A3036 RMK AO2 FZRAE36FZDZB36E46 P0000 I1000 T10331044 $
KMEM 010437Z 35008KT 10SM -FZDZ OVC008 M03/M04 A3035 RMK AO2 FZRAE36FZDZB36 PRESRR P0000 I1000 T10331044 $
KMEM 010354Z 01011KT 10SM -FZRA OVC008 M03/M04 A3034 RMK AO2 FZRAE15B33FZDZB15E33 PRESFR SLP278 P0000 I1000 T10331044 $
KMEM 010334Z 35010KT 10SM -FZRA OVC008 M03/M04 A3037 RMK AO2 FZRAE15B33FZDZB15E33 PRESRR P0000 I1000 T10281044 $
KMEM 010315Z 03008KT 10SM -FZDZ OVC008 M03/M04 A3034 RMK AO2 FZRAE15FZDZB15 P0000 I1000 T10331044 $
KMEM 010254Z 03012KT 10SM -FZRA OVC008 M03/M04 A3035 RMK AO2 FZRAE24B51FZDZB24E51PLE24 CIG 007V012 SLP279 P0000 60010 I1000 I3004 T10331044 51003 $
KMEM 010252Z 03009KT 10SM -FZRA OVC008 M03/M04 A3034 RMK AO2 FZRAE24B51FZDZB24E51PLE24 CIG 007V012 P0000 I1000 $
KMEM 010224Z 35012KT 10SM -FZDZ OVC008 M03/M04 A3034 RMK AO2 FZRAE24FZDZB24PLE24 CIG 006V013 P0000 I1000 T10331044 $
KMEM 010154Z 36010KT 6SM -FZRAPL BR OVC008 M03/M04 A3035 RMK AO2 CIG 005V011 SLP280 P0008 I1003 T10281039 $
KMEM 010054Z 03009KT 5SM -FZRAPL BR OVC007 M03/M04 A3034 RMK AO2 FZRAB29SNE29PLE29B48 SLP276 P0002 I1001 T10281039 $
KMEM 010048Z 36009KT 5SM -FZRAPL BR OVC007 M03/M04 A3034 RMK AO2 FZRAB29SNE29PLE29B48 P0001 I1001 $
KMEM 010030Z 36011KT 7SM -FZRA BKN007 OVC010 M03/M04 A3032 RMK AO2 FZRAB29SNE29PLE29 P0000 I1000 T10281039 $
KMEM 010013Z 01010KT 3SM -SNPL BR BKN007 OVC010 M02/M04 A3031 RMK AO2 SFC VIS 6 P0000 T10221039 $
KMEM 312354Z 36009KT 1 1/2SM -SNPL BR BKN007 BKN010 OVC019 M02/M03 A3031 RMK AO2 FZRAE04PLB04SNB43 SLP268 P0008 60030 I1000 I6005 T10221033 11017 21028 53022 $
KMEM 312346Z 34010KT 1 1/2SM -SNPL BR BKN007 BKN010 OVC019 M02/M03 A3032 RMK AO2 FZRAE04PLB04SNB43 PRESRR P0008 I1000 T10221028 $
KMEM 312343Z 34010KT 3/4SM R36L/P6000FT -SNPL BR BKN007 OVC019 M02/M03 A3031 RMK AO2 SFC VIS 1 FZRAE04PLB04SNB43 P0008 I1000 T10171028 $
KMEM 312336Z 34007KT 3/4SM R36L/4500VP6000FT PL BR SCT005 BKN009 OVC019 M02/M02 A3031 RMK AO2 SFC VIS 2 FZRAE04PLB04 P0007 I1000 T10171022 $
KMEM 312325Z 36007KT 1 1/2SM PL BR BKN009 OVC015 M02/M02 A3029 RMK AO2 SFC VIS 3 FZRAE04PLB04 P0005 I1000 T10171022 $
KMEM 312305Z 36006KT 2SM PL BR BKN007 OVC015 M02/M03 A3027 RMK AO2 SFC VIS 3 FZRAE04PLB04 P0002 I1000 T10171028 $
KMEM 312254Z 36009KT 2 1/2SM -FZRA BR BKN007 OVC013 M02/M02 A3027 RMK AO2 SFC VIS 4 SNE18 SLP253 P0004 I1003 T10171022 $
KMEM 312218Z 03008KT 2 1/2SM -FZRA BR BKN009 BKN029 OVC049 M02/M03 A3024 RMK AO2 SFC VIS 6 SNE18 P0001 I1000 T10171028 $
KMEM 312154Z 02010KT 2 1/2SM -FZRASN BR SCT004 BKN008 OVC012 M02/M03 A3025 RMK AO2 SFC VIS 3 SLP248 P0004 I1000 T10221028 $
KMEM 312135Z 01008KT 2 1/2SM -FZRASN BR SCT004 BKN008 OVC012 M02/M03 A3025 RMK AO2 P0003 I1000 T10221028 $
KMEM 312102Z 35004KT 1 1/2SM R36L/5000VP6000FT -FZRASN BR BKN004 BKN008 OVC016 M02/M03 A3027 RMK AO2 P0001 I1000 T10221028 $
KMEM 312054Z 03009KT 3/4SM R36L/4500VP6000FT FZRASN BR OVC005 M02/M03 A3024 RMK AO2 FZRAE18B52PLB18E52SNB52 SLP245 P0013 60014 I1000 I3002 T10221033 56027
KMEM 312041Z 35005KT 3/4SM R36L/3000V5000FT -PL BR OVC005 M03/M03 A3027 RMK AO2 FZRAE18PLB18 P0011 I1000 T10281033
KMEM 312024Z 35007KT 1 1/2SM R36L/4500VP6000FT -PL BR OVC005 M03/M03 A3028 RMK AO2 FZRAE18PLB18 P0009 I1000 T10281033
KMEM 312020Z 36010KT 2 1/2SM -PL BR OVC004 M03/M03 A3028 RMK AO2 FZRAE18PLB18 P0008 I1000 T10281033
KMEM 311954Z 02009KT 2 1/2SM -FZRA BR OVC004 M02/M03 A3025 RMK AO2 FZRAB43 SLP247 P0001 I1002 T10221033
KMEM 311944Z COR 02009KT 2 1/2SM -FZRA BR OVC004 M03/M03 A3025 RMK AO2 FZRAB43 P0000 I1000 T10281033
KMEM 311857Z 02011KT 3SM BR OVC004 M03/M03 A3028 RMK AO2 SFC VIS 5 T10281033
KMEM 311854Z 01011KT 6SM BR OVC005 M03/M03 A3029 RMK AO2 SLP259 T10281033
KMEM 311754Z 01007KT 6SM BR OVC005 M02/M03 A3033 RMK AO2 SLP273 60000 I6000 T10221028 11017 21028 58005
KMEM 311654Z 02010KT 6SM BR OVC005 M02/M03 A3033 RMK AO2 PRESFR SLP273 T10221028
KMEM 311634Z 02006KT 6SM BR OVC005 M02/M03 A3036 RMK AO2 T10221028
KMEM 311554Z 01010KT 5SM BR OVC004 M03/M03 A3035 RMK AO2 SLP280 T10281033
KMEM 311535Z 01009KT 5SM BR OVC005 M03/M03 A3034 RMK AO2 T10281033
KMEM 311454Z 01010KT 4SM BR OVC004 M03/M03 A3034 RMK AO2 SLP278 60000 I3000 T10281033 50013
KMEM 311451Z 35012KT 3SM BR OVC004 M03/M03 A3034 RMK AO2
KMEM 311401Z 02009KT 3SM BR OVC005 M02/M03 A3032 RMK AO2 T10221028
KMEM 311354Z 02010KT 3SM BR OVC006 M02/M03 A3031 RMK AO2 SLP268 T10221033
KMEM 311254Z 35010KT 3SM BR OVC006 M02/M03 A3030 RMK AO2 SFC VIS 5 FZDZE10 SLP265 P0000 I1000 T10221028
KMEM 311216Z 03011KT 3SM BR OVC007 M02/M03 A3029 RMK AO2 SFC VIS 5 FZDZE10 CIG 006V011 P0000 I1000 T10221028
KMEM 311154Z 02013KT 3SM -FZDZ BR OVC006 M02/M03 A3029 RMK AO2 SFC VIS 5 FZRAE32FZDZB32 CIG 005V009 SLP262 P0000 60026 70063 I1003 I6020 T10221028 10000 21022 53010
KMEM 311138Z 02013KT 3SM -FZDZ BR OVC007 M02/M03 A3029 RMK AO2 SFC VIS 4 FZRAE32FZDZB32 CIG 004V010 P0000 I1002 T10221028

KMEM 012234Z 0123/0224 04004KT P6SM -FZRA OVC009
  FM020300 01005KT 5SM -FZRA OVC008
  FM021300 03005KT 3SM FZRA BR OVC005
  FM021600 01005KT 3SM RA BR OVC005


KMIA 012253Z 13009KT 10SM FEW030 26/21 A3017 RMK AO2 SLP218 T02560206 $
KMIA 012153Z 14008KT 10SM FEW030 27/20 A3016 RMK AO2 SLP213 T02670200 $
KMIA 012053Z 13009KT 10SM FEW030 28/21 A3015 RMK AO2 SLP211 T02780206 56015 $
KMIA 011953Z 14008G14KT 110V170 10SM SCT030 28/21 A3016 RMK AO2 SLP212 T02830206 $
KMIA 011853Z 13009KT 10SM SCT033 29/20 A3017 RMK AO2 SLP216 T02890200 $
KMIA 011753Z 11010KT 10SM SCT031 29/20 A3020 RMK AO2 SLP226 T02890200 10289 20217 58015 $
KMIA 011653Z 13007KT 100V180 10SM BKN031 28/20 A3022 RMK AO2 SLP235 T02830200 $
KMIA 011553Z COR 11009KT 10SM SCT027 SCT035 28/20 A3024 RMK AO2 SLP241 T02780200 $
KMIA 011453Z 13007KT 10SM SCT023 BKN030 26/20 A3024 RMK AO2 SLP241 T02610200 53020 $
KMIA 011353Z VRB03KT 10SM SCT023 26/22 A3022 RMK AO2 SLP233 T02560217
KMIA 011253Z 00000KT 10SM FEW021 24/22 A3020 RMK AO2 SLP227 T02390217 $
KMIA 011153Z 00000KT 10SM SCT020 22/21 A3018 RMK AO2 SLP221 T02170211 10228 20206 53012 $
KMIA 011053Z 00000KT 10SM FEW025 21/20 A3017 RMK AO2 SLP215 T02060200 $
KMIA 010953Z 00000KT 10SM FEW025 21/19 A3015 RMK AO2 SLP211 T02060194 $
KMIA 010853Z 00000KT 10SM FEW025 21/19 A3015 RMK AO2 SLP209 T02110194 58008 $
KMIA 010753Z 10003KT 10SM FEW025 22/20 A3016 RMK AO2 SLP213 T02170200 $
KMIA 010653Z 09005KT 10SM FEW025 22/20 A3017 RMK AO2 SLP216 T02220200 $
KMIA 010553Z 11004KT 10SM CLR 23/20 A3017 RMK AO2 SLP218 T02280200 10250 20228 58008 $
KMIA 010453Z 13004KT 10SM CLR 23/20 A3019 RMK AO2 SLP222 T02280200 402890222 $
KMIA 010353Z 12006KT 10SM CLR 24/20 A3019 RMK AO2 SLP224 T02390200 $
KMIA 010253Z 12005KT 10SM CLR 24/20 A3020 RMK AO2 SLP226 T02440200 51010 $
KMIA 010153Z 12005KT 10SM CLR 24/20 A3019 RMK AO2 SLP224 T02440200 $
KMIA 010053Z 12007KT 10SM CLR 24/20 A3018 RMK AO2 SLP220 T02440200 $
KMIA 312353Z 11007KT 10SM CLR 25/20 A3017 RMK AO2 SLP215 T02500200 10289 20250 53010 $
KMIA 312253Z 11010KT 10SM FEW024 26/20 A3015 RMK AO2 SLP211 T02560200 $
KMIA 312153Z 11010KT 10SM SCT029 27/20 A3015 RMK AO2 SLP208 T02670200 $
KMIA 312053Z 14009KT 10SM SCT030 28/19 A3014 RMK AO2 SLP205 T02780194 56015 $
KMIA 311953Z 16007G16KT 10SM BKN032 28/19 A3014 RMK AO2 SLP206 T02780194 $
KMIA 311853Z 13009G17KT 10SM SCT031 BKN044 28/19 A3015 RMK AO2 SLP211 T02780194 $
KMIA 311753Z 12011KT 10SM BKN032 28/19 A3018 RMK AO2 SLP220 T02830194 10289 20222 58014 $
KMIA 311653Z 14010G16KT 10SM BKN031 28/19 A3021 RMK AO2 SLP229 T02780189 $
KMIA 311553Z 13009KT 10SM SCT026 BKN038 27/20 A3023 RMK AO2 SLP236 T02670200 $
KMIA 311505Z 13008KT 10SM SCT024 BKN035 BKN046 26/20 A3023 RMK AO2 T02610200 $
KMIA 311453Z 15009KT 10SM BKN022 BKN028 BKN039 26/21 A3022 RMK AO2 SLP234 T02610206 53021 $
KMIA 311428Z VRB04KT 10SM BKN023 BKN030 OVC039 25/21 A3021 RMK AO2 T02500206 $
KMIA 311353Z 12003KT 10SM FEW030 FEW043 24/20 A3020 RMK AO2 SLP225 T02440200 $
KMIA 311253Z VRB04KT 10SM FEW025 24/20 A3018 RMK AO2 SLP219 T02390200 $
KMIA 311153Z 13004KT 10SM FEW025 22/19 A3016 RMK AO2 SLP213 T02220189 10244 20222 53011 $

KMIA 012052Z 0121/0224 13009KT P6SM SCT030
  FM020100 VRB05KT P6SM FEW030
  FM021500 15008KT P6SM SCT030


KMSP 012253Z 16008KT 10SM FEW060 SCT095 SCT150 M07/M14 A3008 RMK AO2 SLP203 T10721144
KMSP 012153Z 16007KT 10SM FEW075 SCT150 M07/M15 A3008 RMK AO2 SLP205 T10721150
KMSP 012053Z 21007KT 10SM FEW075 M07/M16 A3010 RMK AO2 SLP212 T10671161 56022
KMSP 011953Z 25005KT 10SM FEW065 BKN090 BKN140 M07/M16 A3011 RMK AO2 SLP216 T10671161
KMSP 011853Z 20004KT 10SM FEW065 BKN095 BKN140 M08/M17 A3014 RMK AO2 PRESFR SLP223 T10831167
KMSP 011753Z 17003KT 10SM BKN110 BKN140 M10/M17 A3017 RMK AO2 SLP235 4/010 T11001172 11100 21172 58003
KMSP 011653Z 19003KT 10SM FEW100 SCT250 M12/M18 A3020 RMK AO2 SLP246 T11221178
KMSP 011553Z 16003KT 10SM FEW250 M14/M19 A3019 RMK AO2 SLP244 T11441189
KMSP 011453Z 00000KT 10SM CLR M16/M19 A3018 RMK AO2 SLP242 T11611194 50000
KMSP 011353Z 22005KT 10SM CLR M17/M21 A3019 RMK AO2 SLP244 T11671206
KMSP 011253Z 25004KT 10SM CLR M17/M21 A3019 RMK AO2 SLP244 T11671211
KMSP 011153Z 00000KT 10SM CLR M17/M21 A3018 RMK AO2 SLP242 4/010 T11671206 11128 21167 53005
KMSP 011053Z 22003KT 10SM CLR M16/M21 A3017 RMK AO2 SLP238 T11611206
KMSP 010953Z 24003KT 10SM CLR M16/M21 A3017 RMK AO2 SLP237 T11611206
KMSP 010853Z 22004KT 10SM CLR M15/M20 A3017 RMK AO2 SLP235 T11501200 55001
KMSP 010753Z 23004KT 10SM CLR M15/M20 A3016 RMK AO2 SLP234 T11501200
KMSP 010653Z 24005KT 10SM CLR M14/M19 A3016 RMK AO2 SLP235 T11391194
KMSP 010553Z 23006KT 10SM BKN100 M13/M19 A3017 RMK AO2 SLP236 4/010 T11281189 11122 21133 411221222 56003
KMSP 010453Z 24007KT 10SM BKN100 M13/M19 A3017 RMK AO2 SLP237 T11281194
KMSP 010353Z 22012G18KT 10SM OVC110 M13/M20 A3017 RMK AO2 SLP238 T11281200
KMSP 010253Z 23008KT 10SM OVC110 M13/M19 A3018 RMK AO2 SLP242 T11331194 58001
KMSP 010153Z 21005KT 10SM SCT120 M13/M20 A3019 RMK AO2 SLP246 T11331200
KMSP 010053Z 21004KT 10SM FEW045 FEW250 M13/M20 A3019 RMK AO2 SLP246 T11331200
KMSP 312353Z 20005KT 10SM FEW045 FEW200 M13/M20 A3018 RMK AO2 SLP243 4/010 T11281200 11122 21156 58006
KMSP 312253Z 23006KT 10SM FEW045 FEW200 M12/M21 A3019 RMK AO2 SLP246 T11221206
KMSP 312153Z 23010KT 10SM FEW047 M13/M21 A3019 RMK AO2 SLP248 T11281211
KMSP 312053Z 23009KT 10SM FEW047 M13/M21 A3020 RMK AO2 SLP250 T11331211 56024
KMSP 311953Z 23009KT 10SM SCT047 M14/M22 A3021 RMK AO2 SLP254 T11441217
KMSP 311853Z 22009KT 10SM BKN046 M15/M22 A3024 RMK AO2 SLP266 T11501222
KMSP 311753Z 24010KT 10SM BKN046 M16/M22 A3027 RMK AO2 SLP276 4/010 T11561222 11150 21217 58003
KMSP 311653Z 22007KT 10SM BKN049 M17/M23 A3029 RMK AO2 SLP280 T11671228
KMSP 311553Z 22012KT 10SM FEW150 M18/M24 A3028 RMK AO2 SLP279 T11831239
KMSP 311453Z 22008KT 10SM FEW150 M20/M24 A3028 RMK AO2 SLP281 T12001244 55005
KMSP 311353Z 22005KT 10SM FEW150 M21/M26 A3028 RMK AO2 SLP281 T12111256
KMSP 311253Z 21007KT 10SM CLR M21/M26 A3028 RMK AO2 SLP281 T12111261
KMSP 311153Z 19007KT 10SM CLR M22/M26 A3030 RMK AO2 SLP286 4/010 T12171261 11211 21222 57024

KMSP 012059Z 0121/0224 21005KT P6SM FEW080
  FM020500 27003KT P6SM BKN100
  FM021400 32012G20KT P6SM BKN060


KORD 012251Z 23011G18KT 10SM FEW250 M03/M13 A3024 RMK AO2 SLP252 T10331133
KORD 012151Z 21012KT 10SM FEW250 M03/M14 A3023 RMK AO2 SLP248 T10281139
KORD 012051Z 21016G21KT 10SM FEW250 M03/M14 A3024 RMK AO2 SLP253 T10281139 56030
KORD 011951Z 22015G21KT 10SM FEW250 M03/M14 A3025 RMK AO2 SLP258 T10331144
KORD 011851Z 22011G20KT 10SM FEW250 M04/M14 A3029 RMK AO2 SLP270 T10391139
KORD 011751Z 23011KT 10SM FEW250 M05/M15 A3033 RMK AO2 SLP284 4/003 933004 T10501150 11050 21139 58004
KORD 011651Z 22011KT 10SM FEW250 M07/M17 A3035 RMK AO2 SLP291 T10671167
KORD 011551Z 22009KT 10SM FEW250 M08/M17 A3034 RMK AO2 SLP289 T10831167
KORD 011451Z 22010G18KT 10SM FEW250 M10/M18 A3034 RMK AO2 SLP290 T11001178 53004
KORD 011351Z 23008KT 10SM CLR M12/M18 A3034 RMK AO2 SLP289 T11221183
KORD 011251Z 22008KT 10SM CLR M13/M19 A3033 RMK AO2 SLP286 T11331194
KORD 011151Z 22008KT 10SM CLR M14/M19 A3033 RMK AO2 SLP287 4/003 T11391194 11133 21144 55000
KORD 011051Z 23007KT 10SM CLR M14/M19 A3033 RMK AO2 SLP286 T11391194
KORD 010951Z 23007KT 10SM CLR M14/M19 A3033 RMK AO2 SLP285 T11441194
KORD 010851Z 23007KT 10SM CLR M14/M19 A3033 RMK AO2 SLP286 T11441194 56004
KORD 010751Z 24007KT 10SM CLR M14/M20 A3033 RMK AO2 SLP286 T11441200
KORD 010651Z 23007KT 10SM CLR M14/M20 A3032 RMK AO2 SLP284 T11441200
KORD 010551Z 25007KT 10SM CLR M14/M20 A3034 RMK AO2 SLP291 4/003 T11441200 11133 21150 411111183 58002
KORD 010451Z 25006KT 10SM CLR M14/M21 A3035 RMK AO2 SLP294 T11441206
KORD 010351Z 23007KT 10SM CLR M15/M21 A3035 RMK AO2 SLP294 T11501206
KORD 010251Z 23004KT 10SM CLR M15/M21 A3035 RMK AO2 SLP293 T11501211 56002
KORD 010151Z 24005KT 10SM CLR M14/M21 A3035 RMK AO2 SLP295 T11441211
KORD 010051Z 23005KT 10SM CLR M14/M21 A3035 RMK AO2 SLP293 T11391211
KORD 312351Z 25006KT 10SM CLR M13/M22 A3035 RMK AO2 SLP295 4/003 T11331222 11111 21133 53005
KORD 312251Z 26005KT 10SM FEW250 M12/M23 A3034 RMK AO2 SLP290 T11221233
KORD 312151Z 28007KT 10SM FEW100 FEW250 M12/M22 A3033 RMK AO2 SLP286 T11171222
KORD 312051Z 27007KT 10SM SCT095 M12/M21 A3034 RMK AO2 SLP289 T11171206 56025
KORD 311951Z 24007KT 10SM FEW130 FEW250 M11/M21 A3035 RMK AO2 SLP294 T11111211
KORD 311851Z 28010KT 10SM SCT110 BKN250 M12/M21 A3038 RMK AO2 SLP304 T11171211
KORD 311751Z 25010KT 10SM FEW110 SCT130 BKN250 M12/M21 A3041 RMK AO2 SLP315 4/003 933004 T11221211 11122 21178 58006
KORD 311651Z 25007KT 10SM SCT130 BKN250 M13/M21 A3043 RMK AO2 SLP321 T11281211
KORD 311551Z 23006KT 10SM SCT110 BKN250 M13/M22 A3042 RMK AO2 SLP317 T11331217
KORD 311451Z VRB03KT 10SM FEW030 FEW140 SCT250 M15/M21 A3043 RMK AO2 SLP321 T11501211 53001
KORD 311351Z 00000KT 10SM FEW030 SCT120 BKN250 M16/M22 A3042 RMK AO2 SLP319 T11611217
KORD 311251Z 33003KT 10SM FEW030 BKN140 M17/M22 A3042 RMK AO2 SLP318 T11671222
KORD 311151Z 34004KT 10SM CLR M18/M23 A3043 RMK AO2 SLP321 4/003 T11781233 11150 21183 55004

KORD 012057Z 0121/0224 22013G20KT P6SM SKC
  FM012300 23009KT P6SM SCT250
  FM021800 32011KT P6SM BKN050


KPDX 012253Z 08004KT 10SM FEW200 BKN250 09/M04 A3013 RMK AO2 SLP203 T00891039
KPDX 012153Z 00000KT 10SM FEW200 SCT250 07/M04 A3015 RMK AO2 SLP210 T00721039
KPDX 012053Z 10005KT 10SM FEW210 SCT250 07/M04 A3016 RMK AO2 SLP214 T00721039 58012
KPDX 011953Z 11008KT 10SM FEW210 SCT250 06/M03 A3018 RMK AO2 SLP219 T00561033
KPDX 011853Z 11005KT 10SM FEW180 FEW210 BKN250 03/M03 A3020 RMK AO2 SLP227 T00331033
KPDX 011753Z 09004KT 10SM FEW180 BKN210 BKN250 02/M03 A3020 RMK AO2 SLP226 T00221028 10022 21028 53002
KPDX 011653Z 11005KT 10SM SCT180 BKN250 00/M03 A3019 RMK AO2 SLP223 T00001028
KPDX 011553Z 00000KT 9SM SCT180 BKN250 M01/M04 A3020 RMK AO2 SLP224 T10111039
KPDX 011453Z 00000KT 10SM SCT180 BKN250 M01/M03 A3019 RMK AO2 SLP224 T10111033 55000
KPDX 011353Z 00000KT 10SM FEW160 M01/M04 A3019 RMK AO2 SLP221 T10111039
KPDX 011253Z 00000KT 10SM BKN160 M01/M04 A3019 RMK AO2 SLP222 T10111039
KPDX 011153Z 00000KT 10SM BKN160 M02/M04 A3019 RMK AO2 SLP224 T10171044 10017 21028 51002
KPDX 011053Z 09003KT 10SM SCT200 00/M04 A3019 RMK AO2 SLP224 T00001039
KPDX 010953Z 12004KT 10SM FEW150 SCT200 00/M04 A3019 RMK AO2 SLP222 T00001039
KPDX 010853Z 07004KT 10SM FEW150 SCT200 00/M03 A3019 RMK AO2 SLP222 T00001033 58001
KPDX 010753Z 09003KT 10SM SCT200 01/M04 A3020 RMK AO2 SLP225 T00111039 400561028
KPDX 010653Z 12003KT 10SM SCT250 01/M04 A3020 RMK AO2 SLP227 T00111039
KPDX 010553Z 12007KT 10SM FEW150 SCT200 OVC250 01/M04 A3019 RMK AO2 SLP222 T00111044 10050 20011 56005
KPDX 010453Z 13004KT 10SM FEW150 SCT200 OVC250 02/M04 A3019 RMK AO2 SLP224 T00221039
KPDX 010353Z 13005KT 10SM BKN250 03/M04 A3019 RMK AO2 SLP223 T00281039
KPDX 010253Z 11003KT 10SM SCT150 BKN250 03/M04 A3020 RMK AO2 SLP227 T00331039 58001
KPDX 010153Z 05003KT 10SM SCT150 BKN250 04/M04 A3021 RMK AO2 SLP229 T00391039
KPDX 010053Z 24004KT 10SM SCT150 OVC250 04/M04 A3021 RMK AO2 SLP231 T00441044
KPDX 312353Z 00000KT 10SM BKN140 OVC250 05/M06 A3021 RMK AO2 SLP228 T00501056 10056 20006 56010
KPDX 312253Z 00000KT 10SM SCT140 OVC250 05/M06 A3021 RMK AO2 SLP230 T00501056
KPDX 312153Z 33004KT 10SM FEW180 BKN250 04/M06 A3023 RMK AO2 SLP235 T00441056
KPDX 312053Z 07004KT 10SM FEW180 SCT200 BKN250 03/M06 A3024 RMK AO2 SLP238 T00331056 58023
KPDX 311953Z 00000KT 10SM SCT180 BKN200 BKN240 02/M06 A3027 RMK AO2 SLP251 T00221061
KPDX 311853Z 29004KT 10SM SCT170 BKN240 02/M06 A3030 RMK AO2 SLP261 T00171056
KPDX 311753Z 00000KT 10SM FEW160 FEW220 BKN250 01/M05 A3030 RMK AO2 SLP261 T00061050 10006 21028 55004
KPDX 311653Z 00000KT 10SM FEW160 BKN220 BKN250 M01/M06 A3030 RMK AO2 SLP259 T10061056
KPDX 311553Z 09003KT 10SM BKN160 M01/M07 A3032 RMK AO2 SLP266 T10111067
KPDX 311453Z 11004KT 10SM OVC130 M01/M06 A3032 RMK AO2 SLP265 T10111061 56005
KPDX 311353Z 10004KT 10SM OVC150 M01/M06 A3032 RMK AO2 SLP268 T10111061
KPDX 311253Z 00000KT 10SM FEW150 M02/M07 A3032 RMK AO2 SLP267 T10221072
KPDX 311153Z 00000KT 10SM FEW150 M02/M08 A3033 RMK AO2 SLP270 T10221078 10006 21022 58001

KPDX 012108Z 0121/0218 11005KT P6SM BKN250

KPHL 012254Z 29007KT 10SM FEW250 02/M11 A3028 RMK AO2 SLP253 T00221111
KPHL 012154Z 30007KT 10SM FEW250 03/M13 A3027 RMK AO2 SLP250 T00331128
KPHL 012054Z 31010KT 10SM SCT250 04/M12 A3027 RMK AO2 SLP248 T00391117 55003
KPHL 011954Z 31009G17KT 10SM SCT250 03/M12 A3025 RMK AO2 SLP242 T00331117
KPHL 011854Z 28008KT 10SM SCT250 03/M12 A3026 RMK AO2 SLP246 T00281122
KPHL 011754Z 32006KT 10SM FEW044 SCT250 03/M09 A3028 RMK AO2 SLP252 60000 T00281089 10028 21006 58008
KPHL 011654Z 32008KT 10SM SCT034 BKN250 02/M06 A3030 RMK AO2 SLP261 T00171061
KPHL 011554Z 36008KT 10SM BKN033 BKN250 02/M05 A3031 RMK AO2 SLP264 T00171050
KPHL 011454Z 35005KT 10SM SCT021 SCT042 01/M05 A3030 RMK AO2 SLP260 60000 T00061050 51019
KPHL 011354Z 03005KT 10SM FEW018 BKN038 BKN130 00/M04 A3028 RMK AO2 SLP255 T00001039
KPHL 011254Z 02006KT 10SM FEW019 OVC032 00/M03 A3027 RMK AO2 SNE1159 SLP248 P0000 T00001033 $
KPHL 011225Z 02008KT 10SM FEW011 SCT018 OVC032 00/M03 A3025 RMK AO2 SNE1159 P0000 T00001033 $
KPHL 011217Z 04006KT 10SM SCT011 BKN015 OVC034 00/M03 A3025 RMK AO2 SNE1159 P0000 T00001033 $
KPHL 011159Z 04004KT 10SM FEW009 BKN013 OVC090 M01/M03 A3025 RMK AO2 SNE59 P0000 T10061028 $
KPHL 011154Z 05004KT 10SM -SN SCT009 SCT015 OVC090 M01/M02 A3024 RMK AO2 SLP241 P0000 60001 70002 T10061022 10017 21006 51016 $
KPHL 011103Z 03005KT 7SM -SN FEW007 FEW050 OVC085 M01/M02 A3022 RMK AO2 P0000 T10061022 $
KPHL 011054Z 05003KT 6SM -SN BR FEW008 SCT050 OVC085 M01/M02 A3022 RMK AO2 SLP234 P0001 T10061022 $
KPHL 011046Z 03004KT 3SM -SN BR FEW009 BKN046 OVC090 M01/M02 A3022 RMK AO2 P0001 T10061017 $
KPHL 011033Z 36005KT 3SM -SN BR FEW014 SCT025 OVC035 M01/M02 A3023 RMK AO2 P0001 T10061022 $
KPHL 011028Z 36005KT 2SM -SN BR FEW014 BKN025 OVC035 M01/M02 A3024 RMK AO2 P0001 T10061022 $
KPHL 011007Z 01005KT 1 1/2SM -SN BR OVC014 M01/M03 A3022 RMK AO2 P0000 T10061028 $
KPHL 011002Z 34005KT 3SM -SN BR OVC017 M01/M03 A3022 RMK AO2 P0000 T10061028 $
KPHL 010954Z 35005KT 5SM -SN OVC028 00/M03 A3022 RMK AO2 SLP234 P0000 T00001028 $
KPHL 010948Z 34005KT 5SM -SN OVC028 00/M03 A3022 RMK AO2 P0000 $
KPHL 010854Z 33004KT 8SM -SN OVC042 01/M04 A3020 RMK AO2 SNB36 SLP225 P0000 60000 T00111044 51001 $
KPHL 010837Z 35003KT 8SM -SN OVC048 01/M04 A3019 RMK AO2 SNB36 P0000 T00111044 $
KPHL 010754Z 34004KT 10SM OVC030 01/M04 A3019 RMK AO2 PRESFR SLP222 T00111039 $
KPHL 010707Z 33005KT 10SM OVC030 02/M03 A3021 RMK AO2 T00171033 $
KPHL 010654Z 33006KT 8SM OVC027 02/M04 A3021 RMK AO2 SNB20E48 SLP230 P0000 T00171039 $
KPHL 010648Z 33006KT 8SM OVC027 02/M04 A3021 RMK AO2 SNB20E48 P0000 $
KPHL 010620Z 33006KT 8SM -SN OVC028 02/M04 A3019 RMK AO2 SNB20 P0000 T00171039 $
KPHL 010554Z 33004KT 10SM BKN028 OVC036 02/M03 A3019 RMK AO2 SLP224 60000 T00171033 10022 20017 56015 $
KPHL 010549Z 34005KT 10SM BKN028 OVC036 02/M03 A3019 RMK AO2 $
KPHL 010454Z 34003KT 10SM SCT038 OVC045 02/M04 A3020 RMK AO2 SLP226 T00171039 400720017 $
KPHL 010354Z 33004KT 10SM OVC045 02/M04 A3023 RMK AO2 SLP235 T00221039 $
KPHL 010254Z 01003KT 10SM BKN034 OVC047 02/M03 A3024 RMK AO2 SLP239 60000 T00171033 50004 $
KPHL 010154Z 33006KT 10SM BKN034 OVC045 02/M03 A3024 RMK AO2 SLP240 T00221033 $
KPHL 010054Z 36005KT 10SM FEW015 SCT031 OVC044 02/M02 A3023 RMK AO2 RAE22 SLP238 P0000 T00221022 $
KPHL 010026Z 36004KT 10SM FEW015 BKN032 OVC045 02/M02 A3023 RMK AO2 RAE22 P0000 T00221022 $
KPHL 312354Z VRB03KT 10SM -RA FEW014 BKN029 OVC040 02/M02 A3022 RMK AO2 RAB44 SLP234 P0000 60000 T00171017 10039 20017 50004 $
KPHL 312344Z 02005KT 10SM -RA SCT012 BKN028 OVC040 02/M02 A3023 RMK AO2 RAB44 P0000 T00171017 $
KPHL 312254Z 36009KT 10SM BKN012 BKN025 OVC045 02/M01 A3023 RMK AO2 RAE32 SLP235 P0000 T00171006 $
KPHL 312233Z 36008KT 10SM BKN011 BKN020 OVC028 02/M01 A3022 RMK AO2 RAE32 P0000 T00171006 $
KPHL 312214Z 01010KT 9SM -RA SCT008 SCT017 OVC028 02/00 A3022 RMK AO2 P0000 T00220000 $
KPHL 312154Z 01008KT 7SM -RA SCT017 OVC027 02/00 A3022 RMK AO2 SLP232 P0000 T00220000 $
KPHL 312133Z 35005KT 8SM -RA BKN017 BKN026 OVC045 02/00 A3022 RMK AO2 P0000 T00220000 $
KPHL 312054Z 35004KT 9SM -RA BKN025 OVC045 03/00 A3021 RMK AO2 SNE09 SLP230 P0000 60000 T00280000 55005 $
KPHL 312009Z 36007KT 9SM -RA BKN022 OVC050 03/M01 A3021 RMK AO2 SNE09 P0000 T00281006 $
KPHL 311954Z 35006KT 9SM -RASN BKN022 BKN027 OVC050 03/M01 A3021 RMK AO2 SNB27 SLP230 P0000 T00281006 $
KPHL 311927Z 36007KT 7SM -RASN BKN023 OVC055 03/M01 A3020 RMK AO2 SNB27 P0000 T00331006 $
KPHL 311854Z 01006KT 10SM -RA BKN025 OVC055 03/M01 A3021 RMK AO2 RAE1757B13 SLP229 P0000 T00331006
KPHL 311842Z 34005KT 8SM -RA BKN025 OVC055 03/M01 A3022 RMK AO2 RAE1757B13 P0000 T00331006
KPHL 311754Z 35006KT 10SM -RA SCT021 OVC055 03/M01 A3023 RMK AO2 RAB1659E10B27E39B47 SLP236 P0000 60001 T00331011 10050 20028 58008
KPHL 311654Z 35008KT 10SM SCT021 OVC055 03/M01 A3025 RMK AO2 RAE39 SLP242 P0001 T00331011
KPHL 311554Z 36008KT 10SM -RA SCT021 OVC052 03/M01 A3026 RMK AO2 SLP247 RAB05E21 P0000 T00281011
KPHL 311454Z 35005KT 10SM SCT016 SCT021 OVC049 03/01 A3025 RMK AO2 RAE26 SLP244 P0000 60000 T00280006 51025
KPHL 311354Z 35011KT 10SM -RA SCT019 OVC044 03/01 A3025 RMK AO2 SLP242 P0000 T00330011
KPHL 311351Z 36011KT 10SM -RA SCT019 OVC044 04/01 A3024 RMK AO2 P0000
KPHL 311315Z 33010KT 9SM -RA BKN011 BKN017 OVC044 04/02 A3023 RMK AO2 P0000 T00390022
KPHL 311254Z 34011KT 10SM -RA FEW011 BKN017 OVC038 04/02 A3020 RMK AO2 SLP227 P0000 T00390022
KPHL 311154Z 33009G17KT 10SM -RA BKN015 OVC030 05/03 A3018 RMK AO2 RAB17 SLP219 P0001 60001 70001 T00500028 10072 20039 53040

KPHL 012033Z 0121/0224 32010G17KT P6SM SCT250
  FM012300 30008KT P6SM SKC
  FM020500 VRB03KT P6SM SKC
  FM021600 23008KT P6SM FEW250
  FM021900 23010G18KT P6SM SCT150


KPHX 012251Z 27010KT 10SM FEW090 19/M02 A3002 RMK AO2 SLP159 T01941017
KPHX 012151Z 26006G15KT 10SM FEW090 19/M04 A3002 RMK AO2 SLP158 T01941044
KPHX 012051Z 24005KT 10SM FEW250 19/M03 A3003 RMK AO2 SLP160 T01891028 58024
KPHX 011951Z 28005KT 10SM FEW250 17/M02 A3005 RMK AO2 SLP169 T01671022
KPHX 011851Z 26004KT 10SM FEW100 16/M02 A3008 RMK AO2 SLP180 T01561017
KPHX 011751Z VRB03KT 10SM FEW100 14/M02 A3010 RMK AO2 SLP186 T01391017 10139 20061 51014
KPHX 011651Z 27004KT 10SM FEW100 12/00 A3009 RMK AO2 SLP185 T01170000
KPHX 011551Z 00000KT 10SM FEW100 09/02 A3007 RMK AO2 SLP179 T00940017
KPHX 011451Z 00000KT 10SM FEW100 07/02 A3005 RMK AO2 SLP174 T00720017 53008
KPHX 011351Z 00000KT 10SM FEW100 06/02 A3004 RMK AO2 SLP168 T00610022
KPHX 011251Z 23003KT 10SM FEW100 07/02 A3003 RMK AO2 SLP164 T00720022
KPHX 011151Z 00000KT 10SM FEW100 07/03 A3003 RMK AO2 SLP164 T00720028 10106 20072 51005
KPHX 011051Z 23003KT 10SM SCT100 08/03 A3003 RMK AO2 SLP163 T00780033
KPHX 010951Z 00000KT 10SM SCT100 08/04 A3003 RMK AO2 SLP163 T00780039
KPHX 010851Z 23005KT 10SM FEW090 FEW250 09/05 A3002 RMK AO2 SLP158 T00890050 58000
KPHX 010751Z 25005KT 10SM FEW090 FEW250 09/06 A3002 RMK AO2 SLP160 T00940056
KPHX 010651Z 24004KT 10SM FEW090 FEW250 09/06 A3002 RMK AO2 SLP161 T00940056 401780072
KPHX 010551Z 24004KT 10SM FEW090 FEW250 10/06 A3002 RMK AO2 SLP159 T01000061 10172 20100 53010
KPHX 010451Z 23005KT 10SM FEW090 FEW250 12/07 A3000 RMK AO2 SLP155 T01170067
KPHX 010351Z 25006KT 10SM FEW140 12/06 A3000 RMK AO2 SLP153 T01220061
KPHX 010251Z 27007KT 10SM FEW140 SCT200 14/06 A2999 RMK AO2 SLP149 T01390056 50005
KPHX 010151Z 25009KT 10SM SCT140 SCT200 14/06 A2999 RMK AO2 SLP150 T01440056
KPHX 010051Z 26007KT 10SM FEW070 SCT140 SCT200 16/04 A2998 RMK AO2 SLP144 T01610039
KPHX 312351Z 21005KT 10SM FEW060 SCT140 SCT200 16/03 A2997 RMK AO2 SLP142 T01610033 10178 20122 55003
KPHX 312251Z 00000KT 10SM FEW060 SCT110 SCT200 16/04 A2997 RMK AO2 SLP141 T01610039
KPHX 312151Z VRB05KT 10SM FEW060 SCT110 SCT200 17/04 A2997 RMK AO2 SLP142 T01720044
KPHX 312051Z 34003KT 10SM SCT110 16/05 A2998 RMK AO2 SLP146 T01560050 58025
KPHX 311951Z 27004KT 10SM OVC110 14/04 A3001 RMK AO2 SLP156 T01390044
KPHX 311851Z 31004KT 10SM FEW100 13/05 A3004 RMK AO2 SLP167 T01330050
KPHX 311751Z 33004KT 10SM SCT060 OVC100 12/05 A3006 RMK AO2 SLP173 60000 T01220050 10122 20072 51018
KPHX 311651Z 34004KT 10SM BKN060 BKN100 11/05 A3004 RMK AO2 SLP168 T01110050
KPHX 311551Z 34004KT 9SM SCT065 OVC090 10/06 A3003 RMK T01000056
KPHX 311451Z 22007KT 7SM -RA FEW060 OVC080 09/06 A3000 RMK AO2 RAB51 SLP154 P0000 60000 T00890056 53024
KPHX 311351Z 31005KT 10SM BKN065 OVC080 09/03 A2997 RMK T00940033
KPHX 311251Z 13008KT 10SM FEW055 BKN070 BKN100 08/03 A2995 RMK T00830028
KPHX 311157Z COR 07005KT 10SM SCT055 BKN095 BKN160 08/03 A2993 RMK T00830033
KPHX 311151Z 07005KTKT 10SMSM SCT055 BKN095 BKN160 08/03 A2993 RMK T00830033

KPHX 012128Z 0121/0224 27005KT P6SM SKC
  FM020800 12004KT P6SM SKC
  FM022200 32005KT P6SM SKC


KPIT 012251Z 22004KT 10SM FEW250 M04/M13 A3028 RMK AO2 SLP281 T10441133
KPIT 012151Z 23007KT 10SM FEW250 M03/M14 A3027 RMK AO2 SLP277 T10331139
KPIT 012051Z 19005KT 10SM FEW250 M04/M14 A3027 RMK AO2 SLP278 T10391139 56015
KPIT 011951Z 24009KT 10SM FEW250 M04/M14 A3029 RMK AO2 SLP282 T10441139
KPIT 011851Z 19007KT 10SM BKN250 M04/M14 A3030 RMK AO2 SLP285 T10391139
KPIT 011751Z 31003KT 10SM FEW120 BKN250 M06/M14 A3032 RMK AO2 SLP293 T10561144 11056 21111 58014
KPIT 011651Z 00000KT 10SM FEW030 SCT120 SCT250 M07/M13 A3035 RMK AO2 SLP306 T10671133
KPIT 011551Z 29007KT 10SM FEW025 BKN250 M07/M14 A3036 RMK AO2 SLP308 T10721139
KPIT 011451Z 28006KT 10SM FEW020 BKN250 M08/M13 A3036 RMK AO2 SLP309 T10831133 51021
KPIT 011351Z 26004KT 10SM FEW020 FEW110 BKN250 M11/M14 A3034 RMK AO2 SLP302 T11061139
KPIT 011251Z 25003KT 10SM FEW020 SCT110 BKN250 M11/M14 A3032 RMK AO2 SLP297 T11111139
KPIT 011151Z 28004KT 10SM SCT020 SCT110 BKN250 M11/M14 A3030 RMK AO2 SLP288 T11061139 11061 21106 53012
KPIT 011051Z 32005KT 10SM SCT016 SCT110 BKN220 M10/M13 A3028 RMK AO2 SLP281 T11001133
KPIT 010951Z 33006KT 10SM SCT016 BKN110 M09/M12 A3027 RMK AO2 SLP278 SCT V BKN T10891122
KPIT 010921Z 34006KT 10SM BKN016 BKN110 M08/M12 A3025 RMK AO2 T10831122
KPIT 010851Z 33007KT 10SM SCT025 BKN110 BKN200 M08/M12 A3026 RMK AO2 SLP274 T10831122 53012
KPIT 010751Z 33007KT 10SM BKN110 OVC200 M07/M11 A3024 RMK AO2 SLP267 T10721111
KPIT 010651Z 33006KT 10SM FEW050 OVC110 M06/M11 A3022 RMK AO2 SLP260 T10611111
KPIT 010551Z 31008KT 10SM OVC120 M06/M11 A3022 RMK AO2 SLP261 T10611111 11050 21061 53001
KPIT 010451Z 29005KT 10SM FEW050 OVC120 M06/M11 A3023 RMK AO2 SLP262 T10611111 410171061
KPIT 010351Z 29004KT 10SM OVC130 M06/M11 A3022 RMK AO2 SLP258 T10561111
KPIT 010251Z 32004KT 10SM OVC120 M06/M11 A3022 RMK AO2 SLP260 T10561111 51007
KPIT 010151Z 27003KT 10SM OVC130 M06/M11 A3021 RMK AO2 SLP257 T10561106
KPIT 010051Z 23003KT 10SM OVC150 M06/M10 A3021 RMK AO2 SLP257 T10561100
KPIT 312351Z 00000KT 10SM FEW050 BKN150 OVC250 M06/M11 A3020 RMK AO2 SLP252 T10561106 11044 21056 50000
KPIT 312251Z 00000KT 10SM SCT050 BKN250 M05/M11 A3021 RMK AO2 SLP255 T10501106
KPIT 312151Z 00000KT 10SM FEW033 BKN047 BKN250 M05/M11 A3019 RMK AO2 SLP248 T10501111
KPIT 312051Z 03005KT 10SM FEW023 BKN032 BKN250 M05/M11 A3020 RMK AO2 SLP251 T10501106 56018
KPIT 311951Z 36005KT 10SM FEW021 BKN030 BKN220 M05/M10 A3021 RMK AO2 SLP253 T10501100
KPIT 311934Z 33003KT 10SM SCT021 BKN031 BKN220 M05/M11 A3021 RMK AO2 T10501106
KPIT 311851Z VRB03KT 10SM BKN019 OVC220 M05/M10 A3022 RMK AO2 SLP257 T10501100
KPIT 311751Z 34006KT 10SM BKN017 BKN220 M06/M10 A3025 RMK AO2 SLP269 60000 T10561100 11050 21061 58015
KPIT 311651Z 35008KT 10SM OVC016 M06/M09 A3029 RMK AO2 SLP282 BINOVC T10561094
KPIT 311551Z 32006KT 9SM OVC017 M06/M09 A3030 RMK AO2 SLP284 BINOVC T10561094
KPIT 311451Z 33008KT 10SM OVC016 M06/M09 A3030 RMK AO2 SLP284 60000 T10561094 53009
KPIT 311436Z 34010KT 8SM OVC015 M06/M09 A3029 RMK AO2 T10611094
KPIT 311351Z 34007KT 10SM OVC013 M06/M09 A3029 RMK AO2 SLP280 T10561089
KPIT 311251Z 34009KT 10SM OVC012 M06/M08 A3028 RMK AO2 SNE21 SLP277 P0000 T10561083
KPIT 311221Z 33007KT 9SM OVC014 M06/M08 A3028 RMK AO2 SNE21 P0000 T10561078
KPIT 311151Z 34009KT 9SM -SN FEW009 BKN017 OVC022 M05/M07 A3027 RMK AO2 SLP273 P0000 60002 70010 T10501072 11017 21050 51016
KPIT 311136Z 33010KT 4SM -SN FEW009 BKN017 OVC022 M05/M08 A3027 RMK AO2 P0000 T10501078

KPIT 012118Z 0121/0224 20005KT P6SM SCT250
  FM020200 21005KT P6SM BKN250
  FM021400 23010G18KT P6SM SCT250


KSAN 012251Z 32006KT 10SM FEW250 17/01 A3014 RMK AO2 SLP205 T01720006
KSAN 012151Z 32004KT 10SM CLR 18/04 A3013 RMK AO2 SLP203 T01830039
KSAN 012051Z 26004KT 10SM CLR 18/01 A3014 RMK AO2 SLP206 T01780011 58016 $
KSAN 011951Z 20004KT 10SM CLR 17/00 A3016 RMK AO2 SLP212 T01720000 $
KSAN 011851Z 00000KT 10SM CLR 17/M01 A3018 RMK AO2 SLP219 T01671006 $
KSAN 011751Z 17004KT 10SM CLR 14/00 A3019 RMK AO2 SLP222 T01440000 10144 20056 51018 $
KSAN 011651Z 00000KT 10SM FEW250 13/M01 A3018 RMK AO2 SLP218 T01281006 $
KSAN 011551Z 00000KT 10SM FEW250 09/01 A3016 RMK AO2 SLP212 T00890011 $
KSAN 011451Z 00000KT 10SM FEW250 06/01 A3014 RMK AO2 SLP204 T00560006 53011 $
KSAN 011351Z 00000KT 10SM CLR 06/00 A3012 RMK AO2 SLP199 T00610000 $
KSAN 011251Z 00000KT 10SM CLR 06/01 A3011 RMK AO2 SLP196 T00610006 $
KSAN 011151Z 00000KT 10SM CLR 07/01 A3010 RMK AO2 SLP194 T00720011 10100 20067 58002 $
KSAN 011051Z 00000KT 10SM CLR 07/02 A3011 RMK AO2 SLP195 T00670017 $
KSAN 010951Z 03003KT 10SM CLR 08/02 A3011 RMK AO2 SLP195 T00780022 $
KSAN 010851Z 00000KT 10SM FEW030 08/04 A3011 RMK AO2 SLP196 T00780039 58000 $
KSAN 010751Z 01003KT 10SM FEW030 08/04 A3012 RMK AO2 SLP198 T00830039 401610078 $
KSAN 010651Z 00000KT 10SM FEW030 09/04 A3012 RMK AO2 SLP198 T00890044 $
KSAN 010551Z 00000KT 10SM FEW030 10/05 A3011 RMK AO2 SLP196 T01000050 10161 20100 51012 $
KSAN 010451Z 09003KT 10SM CLR 11/05 A3010 RMK AO2 SLP193 T01110050 $
KSAN 010351Z 00000KT 10SM FEW030 11/05 A3009 RMK AO2 SLP188 T01110050 $
KSAN 010251Z 09003KT 10SM FEW030 13/04 A3008 RMK AO2 SLP184 T01280039 53009 $
KSAN 010151Z 35003KT 10SM FEW030 13/04 A3007 RMK AO2 SLP182 T01330044 $
KSAN 010051Z 30004KT 10SM FEW030 15/04 A3006 RMK AO2 SLP177 T01500039 $
KSAN 312351Z 28006KT 10SM FEW030 16/04 A3005 RMK AO2 SLP175 T01560039 10161 20150 55001 $
KSAN 312251Z 31006KT 10SM FEW030 16/05 A3004 RMK AO2 SLP173 T01610050 $
KSAN 312151Z 30010G15KT 10SM FEW025 16/01 A3005 RMK AO2 SLP174 T01610006 $
KSAN 312051Z 29008KT 10SM FEW015 FEW200 16/02 A3005 RMK AO2 SLP177 T01610017 58021 $
KSAN 311951Z 28007KT 10SM FEW020 FEW200 15/01 A3008 RMK AO2 SLP186 T01500011 $
KSAN 311851Z 27006KT 10SM FEW020 FEW070 SCT200 15/07 A3011 RMK AO2 SLP196 T01500067 $
KSAN 311751Z 03005KT 10SM FEW020 FEW070 SCT200 15/06 A3012 RMK AO2 SLP198 T01500056 10150 20089 51016 $
KSAN 311651Z 36004KT 10SM FEW025 FEW070 SCT200 13/09 A3011 RMK AO2 SLP194 T01280089 $
KSAN 311551Z 00000KT 7SM FEW025 FEW070 SCT200 09/08 A3009 RMK AO2 SLP189 T00940083 $
KSAN 311451Z 00000KT 7SM FEW065 SCT200 09/07 A3007 RMK AO2 SLP182 T00890072 53019 $
KSAN 311351Z 00000KT 10SM FEW065 SCT200 09/08 A3004 RMK AO2 SLP173 T00940078 $
KSAN 311251Z 08003KT 10SM FEW010 BKN065 OVC120 11/08 A3003 RMK AO2 SLP168 VCSH T01110083 $
KSAN 311151Z 00000KT 10SM FEW010 BKN065 OVC075 11/08 A3001 RMK AO2 RAE38 SLP163 VCSH P0001 60005 70025 T01110083 10128 20106 51008 $

KSAN 012048Z 0121/0224 30007KT P6SM SKC
  FM020200 VRB04KT P6SM SKC
  FM021900 29007KT P6SM SKC


KSEA 012253Z 15003KT 10SM BKN160 BKN250 08/M03 A3012 RMK AO2 SLP209 ACSL DSNT SE T00781028
KSEA 012153Z 00000KT 10SM BKN160 BKN250 07/M03 A3013 RMK AO2 SLP213 ACSL DSNT SE T00671028
KSEA 012053Z 18006KT 10SM SCT160 BKN250 08/M03 A3013 RMK AO2 SLP213 ACSL DSNT SE T00781033 58005
KSEA 011953Z VRB03KT 10SM FEW140 BKN250 07/M03 A3014 RMK AO2 SLP217 T00671028
KSEA 011853Z 17004KT 10SM FEW140 BKN250 05/M04 A3015 RMK AO2 SLP220 ACSL DSNT SE T00501044
KSEA 011753Z 15006KT 10SM FEW140 BKN250 03/M04 A3015 RMK AO2 SLP219 ACSL DSNT SE T00331044 10033 20000 50004
KSEA 011653Z 14007KT 10SM FEW140 OVC250 02/M04 A3015 RMK AO2 SLP219 ACSL DSNT SE T00221044
KSEA 011553Z 14004KT 10SM SCT140 BKN250 01/M05 A3015 RMK AO2 SLP220 ACSL DSNT SE T00061050
KSEA 011453Z 14006KT 10SM SCT130 BKN190 01/M05 A3014 RMK AO2 SLP216 T00111050 56004
KSEA 011353Z 14006KT 10SM BKN130 01/M04 A3014 RMK AO2 SLP217 T00111044
KSEA 011253Z 14007KT 10SM OVC140 01/M04 A3015 RMK AO2 SLP218 T00111044
KSEA 011153Z 12005KT 10SM OVC140 01/M04 A3015 RMK AO2 SLP220 T00111044 10033 20006 58002
KSEA 011053Z 14003KT 10SM FEW037 OVC150 02/M04 A3016 RMK AO2 SLP223 T00171044
KSEA 010953Z 14004KT 10SM OVC150 02/M04 A3016 RMK AO2 SLP222 T00171039
KSEA 010853Z 14004KT 10SM OVC130 02/M04 A3016 RMK AO2 SLP222 T00221039 50001
KSEA 010753Z 12005KT 10SM BKN130 02/M04 A3016 RMK AO2 SLP224 T00221039 400501006
KSEA 010653Z 14003KT 10SM OVC140 03/M04 A3016 RMK AO2 SLP222 T00281039
KSEA 010553Z 15004KT 10SM OVC100 03/M04 A3016 RMK AO2 SLP222 T00331039 10044 20028 55001
KSEA 010453Z 15003KT 10SM SCT120 OVC200 03/M04 A3015 RMK AO2 SLP221 T00331039
KSEA 010353Z 00000KT 10SM BKN090 OVC110 03/M03 A3016 RMK AO2 SLP223 T00331028
KSEA 010253Z 18003KT 10SM BKN110 OVC250 03/M03 A3016 RMK AO2 SLP224 T00281028 56010
KSEA 010153Z 00000KT 10SM SCT120 BKN250 03/M04 A3017 RMK AO2 SLP226 T00281039
KSEA 010053Z 00000KT 10SM BKN120 OVC200 04/M03 A3018 RMK AO2 SLP230 T00391028
KSEA 312353Z 18004KT 10SM SCT120 OVC200 04/M04 A3019 RMK AO2 SLP234 T00441044 10050 20011 56012
KSEA 312253Z 00000KT 10SM BKN160 OVC200 05/M05 A3020 RMK AO2 SLP236 T00501050
KSEA 312153Z 16004KT 10SM SCT150 BKN200 05/M04 A3021 RMK AO2 SLP238 ACSL DSNT SE T00501044
KSEA 312053Z 00000KT 10SM FEW140 BKN180 04/M02 A3023 RMK AO2 SLP245 ACSL DSNT SE T00391022 56010
KSEA 311953Z 00000KT 10SM FEW140 BKN180 03/M03 A3023 RMK AO2 SLP248 ACSL DSNT SE T00281028
KSEA 311853Z 00000KT 10SM BKN110 BKN150 02/M03 A3025 RMK AO2 SLP253 T00221028
KSEA 311753Z 12006KT 10SM FEW025 OVC100 01/M03 A3026 RMK AO2 SNE07 SLP257 P0000 60000 T00111033 10017 21006 58014
KSEA 311709Z 12006KT 8SM SCT024 OVC095 00/M02 A3026 RMK AO2 SNE07 P0000 T00001022
KSEA 311703Z 13005KT 5SM -SN BR SCT024 BKN037 OVC090 00/M02 A3027 RMK AO2 PCPN VRY LGT P0000 T00001022
KSEA 311653Z VRB05KT 3SM -SN BR BKN026 OVC080 01/M02 A3027 RMK AO2 SLP262 P0000 T00111017
KSEA 311630Z 12007KT 1 1/2SM -SN BR OVC028 M01/M03 A3029 RMK AO2 P0000 T10061028
KSEA 311553Z 12008KT 1 1/2SM -SN BR SCT023 OVC032 M01/M04 A3030 RMK AO2 SLP272 P0000 T10061039
KSEA 311543Z 12008KT 3SM -SN BR OVC032 00/M04 A3031 RMK AO2 P0000 T00001044
KSEA 311531Z 12007KT 5SM -SN BR BKN026 OVC036 01/M04 A3030 RMK AO2 P0000 T00061039
KSEA 311458Z 00000KT 2 1/2SM -SN OVC028 01/M04 A3030 RMK AO2 VIS 2V4 P0000 T00111044
KSEA 311453Z 00000KT 4SM -SN OVC032 02/M04 A3030 RMK AO2 SNB50 SLP271 P0000 60000 T00171044 53007
KSEA 311353Z VRB04KT 10SM BKN075 OVC090 01/M06 A3028 RMK AO2 SLP263 T00111061
KSEA 311253Z 16003KT 10SM OVC110 00/M06 A3027 RMK AO2 SLP262 T00001061
KSEA 311153Z 12005KT 10SM BKN130 00/M07 A3028 RMK AO2 SLP264 T00001072 10022 20000 58007

KSEA 012106Z 0121/0224 18007KT P6SM SCT160 BKN250
  FM020100 VRB03KT P6SM BKN250
  FM021400 10004KT P6SM BKN250


KSFO 012256Z 03003KT 10SM BKN200 13/06 A3018 RMK AO2 SLP219 T01330061
KSFO 012156Z 02006KT 10SM BKN200 13/05 A3018 RMK AO2 SLP220 T01280050
KSFO 012056Z 02006KT 10SM BKN200 12/04 A3019 RMK AO2 SLP224 T01220044 58012
KSFO 011956Z 02005KT 10SM BKN200 11/02 A3021 RMK AO2 SLP231 T01110022
KSFO 011856Z 02005KT 10SM BKN180 10/03 A3022 RMK AO2 SLP234 T01000028
KSFO 011756Z 08003KT 10SM BKN180 09/02 A3023 RMK AO2 SLP235 T00940017 10094 20039 51008
KSFO 011656Z 00000KT 10SM BKN180 08/03 A3022 RMK AO2 SLP233 T00780028
KSFO 011556Z 19004KT 10SM BKN180 06/03 A3021 RMK AO2 SLP230 T00560033
KSFO 011456Z 00000KT 10SM SCT180 06/02 A3020 RMK AO2 SLP227 T00560017 53007
KSFO 011356Z 21004KT 10SM FEW150 06/02 A3019 RMK AO2 SLP223 T00560017
KSFO 011256Z 00000KT 10SM CLR 04/00 A3018 RMK AO2 SLP220 T00440000
KSFO 011156Z 00000KT 10SM CLR 04/M01 A3018 RMK AO2 SLP220 T00441011 10089 20044 58001
KSFO 011056Z 00000KT 10SM CLR 06/M02 A3019 RMK AO2 SLP221 T00561017
KSFO 010956Z 00000KT 10SM CLR 06/M01 A3018 RMK AO2 SLP220 T00611011
KSFO 010856Z 20003KT 10SM CLR 07/M01 A3018 RMK AO2 SLP220 T00671011 58003
KSFO 010756Z 30006KT 10SM CLR 07/00 A3019 RMK AO2 SLP222 T00720000 401560022
KSFO 010656Z 00000KT 10SM CLR 08/01 A3019 RMK AO2 SLP222 T00830006
KSFO 010556Z 29005KT 10SM FEW200 09/05 A3019 RMK AO2 SLP223 T00890050 10156 20089 53008
KSFO 010456Z 29007KT 10SM FEW200 09/04 A3018 RMK AO2 SLP220 T00940039
KSFO 010356Z 29009KT 10SM FEW200 10/03 A3017 RMK AO2 SLP217 T01000028
KSFO 010256Z 28011KT 10SM FEW200 11/01 A3017 RMK AO2 SLP215 T01060006 53010
KSFO 010156Z 29010KT 10SM FEW200 12/M04 A3016 RMK AO2 SLP212 T01171044
KSFO 010056Z 29011KT 10SM FEW200 13/M04 A3015 RMK AO2 SLP208 T01331039
KSFO 312356Z 00000KT 10SM FEW200 15/M07 A3014 RMK AO2 SLP205 T01501072 10156 20106 56015
KSFO 312256Z 00000KT 10SM FEW200 15/M03 A3015 RMK AO2 SLP209 T01501033
KSFO 312156Z 00000KT 10SM CLR 14/M05 A3016 RMK AO2 SLP212 T01441050
KSFO 312056Z 00000KT 10SM CLR 14/M03 A3018 RMK AO2 SLP220 T01391033 58020
KSFO 311956Z 10003KT 10SM CLR 13/M01 A3021 RMK AO2 SLP229 T01281006
KSFO 311856Z 11006KT 10SM FEW200 12/M06 A3023 RMK AO2 SLP237 T01171061
KSFO 311756Z 12008KT 10SM CLR 11/M07 A3024 RMK AO2 SLP241 T01061067 10106 20022 51017
KSFO 311656Z 14008KT 10SM CLR 09/M08 A3023 RMK AO2 SLP238 T00941078
KSFO 311556Z 18003KT 10SM CLR 06/M07 A3021 RMK AO2 SLP230 T00611067
KSFO 311456Z 20003KT 10SM CLR 03/M04 A3019 RMK AO2 SLP224 T00331039 53004
KSFO 311356Z 28003KT 10SM CLR 03/M04 A3019 RMK AO2 SLP221 T00331039
KSFO 311256Z 25003KT 10SM CLR 04/M05 A3018 RMK AO2 SLP218 T00441050
KSFO 311156Z 31004KT 10SM CLR 03/M04 A3018 RMK AO2 SLP219 T00281044 10072 20028 51007

KSFO 012049Z 0121/0224 02005KT P6SM BKN200
  FM020500 16007KT P6SM SCT100
  FM021600 VRB04KT P6SM BKN150


KSLC 012254Z 30007KT 10SM FEW090 M01/M09 A3033 RMK AO2 SLP300 T10111094
KSLC 012154Z 31007KT 10SM FEW090 M01/M09 A3034 RMK AO2 SLP299 T10061089
KSLC 012054Z 36003KT 9SM FEW085 M01/M10 A3035 RMK AO2 SLP303 T10061100 58014
KSLC 011954Z 00000KT 9SM FEW085 M02/M09 A3037 RMK AO2 SLP314 T10171094
KSLC 011854Z 01009KT 10SM FEW085 M02/M10 A3040 RMK AO2 SLP324 ACSL DSNT SE T10221100
KSLC 011754Z 00000KT 9SM FEW090 M02/M11 A3039 RMK AO2 SLP323 T10221111 11022 21083 51007
KSLC 011654Z 00000KT 7SM FEW065 FEW200 M05/M11 A3039 RMK AO2 SLP327 T10501106
KSLC 011554Z 14004KT 8SM FEW060 M07/M11 A3038 RMK AO2 SLP326 T10671111
KSLC 011454Z 00000KT 7SM FEW060 FEW200 M07/M11 A3037 RMK AO2 SLP324 T10721111 55000
KSLC 011354Z 00000KT 9SM FEW065 M08/M12 A3035 RMK AO2 SLP320 T10781117
KSLC 011254Z 00000KT 8SM FEW065 M08/M12 A3036 RMK AO2 SLP321 T10831117
KSLC 011154Z 36005KT 9SM FEW070 M08/M12 A3037 RMK AO2 SLP323 T10831117 11061 21083 53002
KSLC 011054Z 36005KT 10SM FEW075 M07/M12 A3036 RMK AO2 SLP317 T10721117
KSLC 010954Z 00000KT 10SM SCT080 M06/M12 A3036 RMK AO2 SLP315 T10611117
KSLC 010854Z 34004KT 10SM OVC080 M06/M12 A3036 RMK AO2 SLP317 T10611117 58004
KSLC 010754Z 34003KT 10SM OVC080 M06/M12 A3037 RMK AO2 SLP318 T10611122
KSLC 010654Z 36005KT 10SM BKN080 M07/M12 A3038 RMK AO2 SLP326 T10671122 410391122
KSLC 010554Z 36009KT 10SM BKN080 M07/M12 A3038 RMK AO2 SLP326 T10671117 11056 21072 53003
KSLC 010454Z 00000KT 10SM OVC080 M06/M13 A3036 RMK AO2 SLP326 T10611128
KSLC 010354Z 00000KT 10SM FEW050 BKN080 M07/M13 A3036 RMK AO2 SLP329 T10671128
KSLC 010254Z 00000KT 10SM FEW050 BKN085 M07/M13 A3036 RMK AO2 SLP332 T10671128 51004
KSLC 010154Z 34004KT 10SM BKN090 M07/M12 A3036 RMK AO2 SLP331 T10721122
KSLC 010054Z 32006KT 10SM FEW100 M07/M13 A3037 RMK AO2 SLP333 T10671133
KSLC 312354Z 35005KT 10SM FEW100 M06/M13 A3035 RMK AO2 SLP323 T10561133 11039 21078 53001
KSLC 312254Z COR 34006KT 10SM FEW080 M05/M14 A3034 RMK AO2 SLP320 T10501139
KSLC 312154Z 32010KT 10SM FEW080 M05/M13 A3035 RMK AO2 SLP322 T10501133
KSLC 312054Z 33008KT 10SM FEW070 M05/M13 A3035 RMK AO2 SLP322 T10501133 58019
KSLC 311954Z 00000KT 10SM FEW070 M05/M14 A3037 RMK AO2 SLP331 T10501139
KSLC 311854Z 00000KT 10SM FEW040 M07/M14 A3040 RMK AO2 SLP343 T10671144
KSLC 311754Z 00000KT 10SM FEW040 M07/M16 A3041 RMK AO2 SLP349 T10721161 11072 21122 51007
KSLC 311654Z 18003KT 10SM FEW035 M09/M16 A3041 RMK AO2 SLP352 T10941156
KSLC 311554Z 14007KT 10SM FEW030 FEW050 M11/M17 A3040 RMK AO2 SLP350 FU FEW050 FU DSNT SE T11111172
KSLC 311454Z 13005KT 10SM FEW035 M12/M17 A3039 RMK AO2 SLP347 T11221172 53006
KSLC 311354Z 15004KT 10SM CLR M12/M18 A3037 RMK AO2 SLP342 T11221183
KSLC 311254Z 18003KT 10SM CLR M12/M18 A3037 RMK AO2 SLP339 T11221178
KSLC 311154Z 00000KT 10SM CLR M12/M18 A3037 RMK AO2 SLP334 T11171178 11111 21122 50004

KSLC 012103Z 0121/0224 35004KT P6SM FEW060 FEW200
  FM020500 15005KT P6SM SCT020 BKN100
  FM021700 35004KT P6SM SCT100


KSTL 012251Z 17005KT 10SM FEW150 BKN250 01/M13 A3032 RMK AO2 SLP282 T00061128 $
KSTL 012151Z 00000KT 10SM SCT150 BKN230 01/M13 A3032 RMK AO2 SLP281 T00111128 $
KSTL 012051Z 00000KT 10SM SCT150 SCT200 BKN250 00/M14 A3033 RMK AO2 SLP285 T00001139 56028 $
KSTL 011951Z VRB03KT 10SM FEW200 BKN250 00/M13 A3033 RMK AO2 SLP286 T00001128 $
KSTL 011851Z 19004KT 10SM BKN250 00/M13 A3038 RMK AO2 SLP303 T00001128 $
KSTL 011751Z 15003KT 10SM FEW200 SCT250 M02/M13 A3041 RMK AO2 SLP315 T10171133 11011 21083 58008 $
KSTL 011651Z 13004KT 10SM SCT200 BKN250 M03/M13 A3043 RMK AO2 SLP321 T10281133 $
KSTL 011551Z 00000KT 10SM FEW200 BKN250 M04/M14 A3045 RMK AO2 SLP328 T10391144 $
KSTL 011451Z 17003KT 10SM FEW200 BKN250 M06/M12 A3044 RMK AO2 SLP325 T10561122 53007 $
KSTL 011351Z 00000KT 10SM FEW200 BKN250 M07/M12 A3043 RMK AO2 SLP320 T10721117 $
KSTL 011251Z 00000KT 10SM BKN250 M08/M12 A3042 RMK AO2 SLP318 T10781122 $
KSTL 011151Z 00000KT 10SM BKN250 M08/M12 A3042 RMK AO2 SLP319 T10831122 11067 21094 53002 $
KSTL 011051Z 00000KT 10SM BKN250 M09/M13 A3042 RMK AO2 SLP318 T10891133 $
KSTL 010951Z 00000KT 10SM BKN250 M09/M13 A3041 RMK AO2 SLP315 T10891133 $
KSTL 010851Z 00000KT 10SM BKN250 M08/M14 A3041 RMK AO2 SLP317 T10831139 55001 $
KSTL 010751Z 00000KT 10SM BKN250 M08/M13 A3040 RMK AO2 SLP314 T10781133 $
KSTL 010651Z 00000KT 10SM BKN250 M07/M13 A3040 RMK AO2 SLP314 T10721128 $
KSTL 010551Z 00000KT 10SM BKN250 M07/M13 A3042 RMK AO2 SLP318 T10721133 11061 21072 410561117 51007 $
KSTL 010451Z 22003KT 10SM BKN250 M07/M13 A3042 RMK AO2 SLP318 T10671133 $
KSTL 010351Z 00000KT 10SM OVC250 M07/M14 A3041 RMK AO2 SLP316 T10671139 $
KSTL 010251Z 00000KT 10SM BKN240 M06/M14 A3039 RMK AO2 SLP311 T10611144 55003 $
KSTL 010151Z 36003KT 10SM FEW130 BKN240 M06/M16 A3038 RMK AO2 SLP307 T10611156 $
KSTL 010051Z 36003KT 10SM FEW130 BKN250 M07/M15 A3039 RMK AO2 SLP310 T10671150 $
KSTL 312351Z 33005KT 10SM BKN150 BKN250 M06/M16 A3040 RMK AO2 SLP315 T10611156 11056 21078 51007 $
KSTL 312251Z 32005KT 10SM BKN140 BKN250 M06/M16 A3040 RMK AO2 SLP314 T10561156 $
KSTL 312151Z 31004KT 10SM BKN140 OVC250 M06/M15 A3039 RMK AO2 SLP309 T10561150 $
KSTL 312051Z 33007KT 10SM BKN150 BKN250 M06/M15 A3038 RMK AO2 SLP306 T10611150 55023 $
KSTL 311951Z 00000KT 10SM SCT160 BKN250 M07/M15 A3036 RMK AO2 SLP299 T10721150 $
KSTL 311851Z 29005KT 10SM FEW150 SCT200 BKN250 M07/M16 A3041 RMK AO2 SLP317 T10721161 $
KSTL 311751Z 01006KT 10SM FEW200 BKN240 M07/M16 A3045 RMK AO2 SLP330 T10721156 11072 21117 58012 $
KSTL 311651Z 34008KT 10SM FEW200 BKN250 M08/M17 A3049 RMK AO2 SLP345 T10831172 $
KSTL 311551Z 34005KT 10SM FEW200 SCT250 M09/M17 A3049 RMK AO2 SLP345 T10941172 $
KSTL 311451Z 01006KT 10SM BKN250 M11/M18 A3049 RMK AO2 SLP343 T11061178 53009 $
KSTL 311351Z 02007KT 10SM FEW200 BKN240 M11/M18 A3047 RMK AO2 SLP339 T11111178 $
KSTL 311251Z 03007KT 10SM FEW055 BKN240 M11/M18 A3046 RMK AO2 SLP333 T11111183 $
KSTL 311151Z 01009KT 10SM FEW055 SCT240 M11/M17 A3046 RMK AO2 SLP333 70001 T11061172 11083 21106 57000 $

KSTL 012125Z 0121/0224 16004KT P6SM BKN250
  FM021200 24005KT P6SM BKN250


KTPA 012253Z 28004KT 10SM FEW050 24/18 A3017 RMK AO2 SLP217 T02440183
KTPA 012153Z 25004KT 10SM FEW055 26/18 A3016 RMK AO2 SLP213 T02560183
KTPA 012053Z 22003KT 10SM FEW055 26/19 A3016 RMK AO2 SLP212 T02610189 56020
KTPA 011953Z COR VRB04KT 10SM FEW060 26/19 A3017 RMK AO2 SLP214 T02610189
KTPA 011853Z 23006KT 10SM SCT060 26/19 A3019 RMK AO2 SLP222 T02560189
KTPA 011753Z COR 24005KT 10SM FEW030 SCT050 26/19 A3022 RMK AO2 SLP233 T02560194 10261 20183 58012
KTPA 011653Z 23004KT 10SM FEW025 SCT035 25/18 A3024 RMK AO2 SLP239 T02500183
KTPA 011553Z VRB03KT 10SM FEW025 SCT035 25/19 A3026 RMK AO2 SLP245 T02500189
KTPA 011453Z 00000KT 10SM SCT025 BKN029 OVC036 22/19 A3025 RMK AO2 SLP244 T02220189 53016
KTPA 011353Z 00000KT 10SM SCT027 BKN032 BKN050 20/18 A3024 RMK AO2 SLP239 T02000183
KTPA 011253Z 03003KT 9SM BKN032 BKN050 19/18 A3022 RMK AO2 SLP233 T01940178
KTPA 011153Z 00000KT 10SM FEW050 BKN120 19/18 A3021 RMK AO2 SLP228 T01890178 10194 20178 53011
KTPA 011053Z 00000KT 10SM BKN050 18/18 A3019 RMK AO2 SLP224 T01830178
KTPA 010953Z 00000KT 10SM SCT060 19/18 A3018 RMK AO2 SLP219 T01890178 $
KTPA 010853Z 00000KT 10SM BKN060 19/18 A3017 RMK AO2 SLP217 T01890178 55002 $
KTPA 010753Z 00000KT 10SM CLR 18/18 A3017 RMK AO2 SLP217 T01830178
KTPA 010653Z 00000KT 5SM BR CLR 18/17 A3018 RMK AO2 SLP218 T01830172
KTPA 010553Z 00000KT 1 1/4SM BR CLR 19/18 A3018 RMK AO2 SLP219 T01890178 10228 20189 58003
KTPA 010453Z 00000KT 10SM CLR 19/17 A3019 RMK AO2 SLP223 T01890172 402670183
KTPA 010353Z 00000KT 10SM CLR 19/18 A3019 RMK AO2 SLP223 T01940178
KTPA 010253Z 00000KT 10SM CLR 20/18 A3019 RMK AO2 SLP222 T02000178 53009
KTPA 010153Z 36003KT 10SM CLR 21/18 A3018 RMK AO2 SLP218 T02110183
KTPA 010053Z 00000KT 10SM CLR 22/18 A3017 RMK AO2 SLP216 T02170183
KTPA 312353Z 30004KT 10SM CLR 23/18 A3016 RMK AO2 SLP213 T02280183 10267 20228 53007
KTPA 312253Z 26005KT 10SM FEW048 24/18 A3015 RMK AO2 SLP209 T02440183
KTPA 312153Z 24006KT 10SM FEW050 25/19 A3014 RMK AO2 SLP205 T02500194
KTPA 312053Z 23007KT 10SM FEW050 26/18 A3014 RMK AO2 SLP205 T02560183 56021
KTPA 311953Z 21005KT 10SM SCT050 26/18 A3014 RMK AO2 SLP207 T02610183
KTPA 311853Z 22006KT 10SM SCT050 26/19 A3017 RMK AO2 SLP214 T02610189
KTPA 311753Z VRB05KT 10SM BKN050 25/19 A3020 RMK AO2 SLP226 T02500189 10250 20183 58014
KTPA 311653Z 23005KT 10SM BKN050 24/19 A3022 RMK AO2 SLP234 T02390194 $
KTPA 311553Z 00000KT 10SM FEW030 BKN050 22/20 A3025 RMK AO2 SLP242 T02220200
KTPA 311529Z VRB03KT 9SM FEW002 BKN030 BKN050 21/20 A3025 RMK AO2 T02060200
KTPA 311453Z 24003KT 2 1/2SM BR OVC002 20/20 A3024 RMK AO2 SFC VIS 6 SLP240 T02000200 51022
KTPA 311444Z 25004KT 2SM BR OVC002 20/19 A3024 RMK AO2 TWR VIS 2 1/2 VIS 1V5 T02000194
KTPA 311437Z 25004KT 3/4SM R19R/P6000FT BR OVC002 20/20 A3024 RMK AO2 TWR VIS 2 1/2 T02000200
KTPA 311414Z 24003KT 1 3/4SM BR OVC002 19/19 A3023 RMK AO2 SFC VIS 4 T01940194
KTPA 311353Z 00000KT 3/4SM R19R/2600V4500FT BR OVC002 19/19 A3022 RMK AO2 TWR VIS 2 SLP234 T01940194
KTPA 311350Z VRB03KT 1/2SM R19R/2600VP6000FT FG VV002 19/19 A3022 RMK AO2 TWR VIS 2
KTPA 311311Z VRB03KT 1/4SM R19R/P6000FT FG SCT003 BKN006 BKN030 19/19 A3021 RMK AO2 TWR VIS 2 T01940194
KTPA 311308Z 24003KT 1/2SM R19R/P6000FT FG FEW003 SCT006 BKN030 19/19 A3021 RMK AO2 TWR VIS 2 T01940194
KTPA 311253Z 00000KT 2SM BR FEW002 FEW006 BKN030 19/19 A3020 RMK AO2 SFC VIS 4 SLP226 T01890189
KTPA 311221Z 00000KT 2SM R19R/1200VP6000FT BR SCT006 BKN031 19/19 A3019 RMK AO2 SFC VIS 4 T01890189
KTPA 311204Z 00000KT 2SM R19R/1200V2200FT BR SCT006 BKN031 18/18 A3018 RMK AO2 SFC VIS 4 T01830178
KTPA 311153Z 00000KT 2SM R19R/1800V2600FT BR SCT006 SCT031 19/18 A3018 RMK AO2 SFC VIS 4 SLP218 T01890183 10217 20183 53010
KTPA 311127Z 00000KT 2SM R19R/1200V1600FT BR SCT006 SCT032 18/18 A3017 RMK AO2 SFC VIS 4 T01830183

KTPA 012109Z 0121/0224 25007KT P6SM FEW050
  FM020100 VRB02KT P6SM BKN045
  FM020800 VRB02KT 5SM BR BKN025
  FM021500 20004KT P6SM SKC